Hoppmann, Mario; Tippenhauer, Sandra; Pineda-Metz, Santiago E A (2026): Continuous thermosalinograph oceanography along RV HEINCKE cruise track HE663 [dataset]. Alfred Wegener Institute, Helmholtz Centre for Polar and Marine Research, Bremerhaven, PANGAEA, https://doi.pangaea.de/10.1594/PANGAEA.993560 (DOI registration in progress)
Always quote citation above when using data! You can download the citation in several formats below.
Published: 2026-05-05
Abstract:
Raw data acquired by a thermosalinograph (SBE21, Sea-Bird GmbH) in combination with an external temperature sensor (SBE38, Sea-Bird GmbH) aboard RV Heincke were processed to generate a calibrated, quality-controlled dataset of seawater temperature and salinity. The raw sensor data were initially retrieved from the DSHIP database (https://dship.awi.de) at a temporal resolution of 1 second and converted into temperature and conductivity using the pre-deployment calibration coefficients. The thermosalinograph system aboard RV Heincke is typically replaced after each expedition season, with a recalibration conducted at the manufacturer's facilities after each exchange. After post-cruise recalibration of the instruments, additional correction factors were calculated and applied to account for sensor drift. Salinity was calculated from internally measured temperatures and conductivities following the Practical Salinity Scale (PSS-78). The processed dataset is provided as 1-minute averages of salinity and seawater external temperature, synchronized with the positional data from the expedition's master track. Quality flags were assigned in accordance with the SeaDataNet Data Quality Control Procedures (May 2010).
Related to:
Pineda-Metz, Santiago E A (2025): Concepts for Reducing the Effects of Anthropogenic pressures and uses on marine Ecosystems and on Biodiversity, Cruise No. HE663, 17.06.2025 - 01.07.2025, Bremerhaven (Germany) - Bremerhaven (Germany). HEINCKE-Berichte, Begutachtungspanel Forschungsschiffe, HE663, 10 pp, https://doi.org/10.48433/cr_he663
Pineda-Metz, Santiago E A (2025): Master tracks in different resolutions of HEINCKE cruise HE663, Bremerhaven - Bremerhaven, 2025-06-17 - 2025-07-01 [dataset]. Alfred Wegener Institute, Helmholtz Centre for Polar and Marine Research, Bremerhaven, PANGAEA, https://doi.org/10.1594/PANGAEA.983825
Data processing report:
Hoppmann, Mario; Tippenhauer, Sandra (2026): Continuous thermosalinograph oceanography along RV HEINCKE cruise track HE663 - Data Processing Report. FIELAX - Gesellschaft für wissenschaftliche Datenverarbeitung mbH, HE663_TSG_nav.pdf
Project(s):
DAM Underway Research Data (DAM_Underway)
Physical Oceanography @ AWI (AWI_PhyOce)
Coverage:
Median Latitude: 54.108629 * Median Longitude: 6.801090 * South-bound Latitude: 53.693127 * West-bound Longitude: 6.148551 * North-bound Latitude: 54.863021 * East-bound Longitude: 7.947323
Date/Time Start: 2025-06-17T13:39:00 * Date/Time End: 2025-06-30T16:14:00
Minimum DEPTH, water: 2.0 m * Maximum DEPTH, water: 2.0 m
Event(s):
HE663_0_Underway-3 * Latitude Start: 53.813653 * Longitude Start: 7.236728 * Latitude End: 54.293903 * Longitude End: 7.858769 * Date/Time Start: 2025-06-17T13:45:00 * Date/Time End: 2025-06-30T16:18:38 * Elevation Start: -19.0 m * Elevation End: -19.0 m * O2A Registry URI: https://registry.o2a-data.de/items/8558 * Campaign: HE663 (CREATE) * Basis: Heincke * Method/Device: Thermosalinograph (TSG) * Comment: interrupted at Wanger-Reede and DEHGL
Parameter(s):
License:
Creative Commons Attribution 4.0 International (CC-BY-4.0)
Status:
Curation Level: Enhanced curation (CurationLevelC) * Processing Level: PANGAEA data processing level 2 (ProcLevel2)
Size:
67566 data points
Data
| 1 Date/Time | 2 Latitude | 3 Longitude | 4 Depth water [m] | 5 Temp [°C] | 6 QF water temp | 7 Cond [mS/cm] | 8 T intern [°C] | 9 Sal | 10 QF sal |
|---|---|---|---|---|---|---|---|---|---|
| 2025-06-17T13:39:00 | 53.815015 | 7.247252 | 2.0 | 16.085 | 2 | 40.859 | 16.360 | 32.003 | 2 |
| 2025-06-17T13:40:00 | 53.814771 | 7.245535 | 2.0 | 16.054 | 2 | 40.838 | 16.291 | 32.040 | 2 |
| 2025-06-17T13:41:00 | 53.814539 | 7.243809 | 2.0 | 16.025 | 2 | 40.811 | 16.250 | 32.050 | 2 |
| 2025-06-17T13:42:00 | 53.814312 | 7.242094 | 2.0 | 15.990 | 2 | 40.789 | 16.214 | 32.059 | 2 |
| 2025-06-17T13:43:00 | 53.814099 | 7.240383 | 2.0 | 15.994 | 2 | 40.773 | 16.190 | 32.065 | 2 |
| 2025-06-17T13:44:00 | 53.813877 | 7.238664 | 2.0 | 15.980 | 2 | 40.762 | 16.172 | 32.070 | 2 |
| 2025-06-17T13:45:00 | 53.813643 | 7.236912 | 2.0 | 15.984 | 2 | 40.770 | 16.175 | 32.074 | 2 |
| 2025-06-17T13:46:00 | 53.813408 | 7.235122 | 2.0 | 15.949 | 2 | 40.746 | 16.141 | 32.081 | 2 |
| 2025-06-17T13:47:00 | 53.813158 | 7.233328 | 2.0 | 15.945 | 2 | 40.737 | 16.136 | 32.077 | 2 |
| 2025-06-17T13:48:00 | 53.812914 | 7.231522 | 2.0 | 15.912 | 2 | 40.728 | 16.123 | 32.079 | 2 |
| 2025-06-17T13:49:00 | 53.812692 | 7.229689 | 2.0 | 15.868 | 2 | 40.695 | 16.083 | 32.083 | 2 |
| 2025-06-17T13:50:00 | 53.812457 | 7.227844 | 2.0 | 15.851 | 2 | 40.661 | 16.051 | 32.079 | 2 |
| 2025-06-17T13:51:00 | 53.812209 | 7.225995 | 2.0 | 15.826 | 2 | 40.642 | 16.028 | 32.080 | 2 |
| 2025-06-17T13:52:00 | 53.811966 | 7.224118 | 2.0 | 15.850 | 2 | 40.623 | 16.011 | 32.077 | 2 |
| 2025-06-17T13:53:00 | 53.811691 | 7.222235 | 2.0 | 15.843 | 2 | 40.641 | 16.027 | 32.080 | 2 |
| 2025-06-17T13:54:00 | 53.811409 | 7.220394 | 2.0 | 15.824 | 2 | 40.639 | 16.013 | 32.090 | 2 |
| 2025-06-17T13:55:00 | 53.811138 | 7.218564 | 2.0 | 15.826 | 2 | 40.636 | 16.000 | 32.098 | 2 |
| 2025-06-17T13:56:00 | 53.810876 | 7.216723 | 2.0 | 15.815 | 2 | 40.649 | 16.002 | 32.108 | 2 |
| 2025-06-17T13:57:00 | 53.810620 | 7.214868 | 2.0 | 15.798 | 2 | 40.649 | 15.987 | 32.120 | 2 |
| 2025-06-17T13:58:00 | 53.810395 | 7.213012 | 2.0 | 15.797 | 2 | 40.658 | 15.982 | 32.132 | 2 |
| 2025-06-17T13:59:00 | 53.810176 | 7.211268 | 2.0 | 15.781 | 2 | 40.654 | 15.965 | 32.142 | 2 |
| 2025-06-17T14:00:00 | 53.809933 | 7.209623 | 2.0 | 15.784 | 2 | 40.656 | 15.959 | 32.149 | 2 |
| 2025-06-17T14:01:00 | 53.809710 | 7.207995 | 2.0 | 15.764 | 2 | 40.663 | 15.952 | 32.160 | 2 |
| 2025-06-17T14:02:00 | 53.809489 | 7.206398 | 2.0 | 15.770 | 2 | 40.664 | 15.940 | 32.171 | 2 |
| 2025-06-17T14:03:00 | 53.809268 | 7.204816 | 2.0 | 15.772 | 2 | 40.680 | 15.941 | 32.184 | 2 |
| 2025-06-17T14:04:00 | 53.809046 | 7.203262 | 2.0 | 15.773 | 2 | 40.713 | 15.951 | 32.205 | 2 |
| 2025-06-17T14:05:00 | 53.808831 | 7.201711 | 2.0 | 15.760 | 2 | 40.727 | 15.942 | 32.225 | 2 |
| 2025-06-17T14:06:00 | 53.808636 | 7.200176 | 2.0 | 15.724 | 2 | 40.716 | 15.925 | 32.229 | 2 |
| 2025-06-17T14:07:00 | 53.808450 | 7.198637 | 2.0 | 15.724 | 2 | 40.323 | 15.900 | 31.903 | 2 |
| 2025-06-17T14:08:00 | 53.808248 | 7.197088 | 2.0 | 15.696 | 2 | 40.692 | 15.897 | 32.231 | 2 |
| 2025-06-17T14:09:00 | 53.808025 | 7.195551 | 2.0 | 15.684 | 2 | 40.684 | 15.871 | 32.245 | 2 |
| 2025-06-17T14:10:00 | 53.807781 | 7.193998 | 2.0 | 15.677 | 2 | 40.681 | 15.853 | 32.257 | 2 |
| 2025-06-17T14:11:00 | 53.807511 | 7.192448 | 2.0 | 15.675 | 2 | 40.703 | 15.858 | 32.272 | 2 |
| 2025-06-17T14:12:00 | 53.807271 | 7.190866 | 2.0 | 15.664 | 2 | 40.138 | 15.849 | 31.780 | 2 |
| 2025-06-17T14:13:00 | 53.807059 | 7.189268 | 2.0 | 15.658 | 2 | 40.735 | 15.848 | 32.309 | 2 |
| 2025-06-17T14:14:00 | 53.806868 | 7.187680 | 2.0 | 15.663 | 2 | 40.747 | 15.837 | 32.328 | 2 |
| 2025-06-17T14:15:00 | 53.806651 | 7.186143 | 2.0 | 15.670 | 2 | 40.080 | 15.836 | 31.740 | 2 |
| 2025-06-17T14:16:00 | 53.806408 | 7.184621 | 2.0 | 15.766 | 2 | 40.792 | 15.860 | 32.349 | 2 |
| 2025-06-17T14:17:00 | 53.806144 | 7.183111 | 2.0 | 15.837 | 2 | 40.730 | 15.930 | 32.237 | 2 |
| 2025-06-17T14:18:00 | 53.805892 | 7.181616 | 2.0 | 15.944 | 2 | 40.831 | 16.043 | 32.235 | 2 |
| 2025-06-17T14:19:00 | 53.805682 | 7.180126 | 2.0 | 15.935 | 2 | 40.902 | 16.103 | 32.248 | 2 |
| 2025-06-17T14:20:00 | 53.805536 | 7.178626 | 2.0 | 15.907 | 2 | 40.605 | 16.094 | 31.995 | 2 |
| 2025-06-17T14:21:00 | 53.805383 | 7.177119 | 2.0 | 15.890 | 2 | 40.538 | 16.074 | 31.952 | 2 |
| 2025-06-17T14:22:00 | 53.805209 | 7.175608 | 2.0 | 15.902 | 2 | 40.948 | 16.063 | 32.321 | 2 |
| 2025-06-17T14:23:00 | 53.805016 | 7.174094 | 2.0 | 15.902 | 2 | 40.672 | 16.067 | 32.075 | 2 |
| 2025-06-17T14:24:00 | 53.804800 | 7.172573 | 2.0 | 15.909 | 2 | 40.942 | 16.074 | 32.307 | 2 |
| 2025-06-17T14:25:00 | 53.804577 | 7.171049 | 2.0 | 15.906 | 2 | 40.829 | 16.077 | 32.205 | 2 |
| 2025-06-17T14:26:00 | 53.804359 | 7.169545 | 2.0 | 15.918 | 2 | 40.632 | 16.076 | 32.033 | 2 |
| 2025-06-17T14:27:00 | 53.804154 | 7.168049 | 2.0 | 15.929 | 2 | 40.670 | 16.085 | 32.059 | 2 |
| 2025-06-17T14:28:00 | 53.803962 | 7.166547 | 2.0 | 15.939 | 2 | 40.643 | 16.099 | 32.024 | 2 |
| 2025-06-17T14:29:00 | 53.803762 | 7.165041 | 2.0 | 15.940 | 2 | 40.729 | 16.105 | 32.095 | 2 |
| 2025-06-17T14:30:00 | 53.803566 | 7.163540 | 2.0 | 15.937 | 2 | 40.600 | 16.106 | 31.981 | 2 |
| 2025-06-17T14:31:00 | 53.803365 | 7.162043 | 2.0 | 15.968 | 2 | 40.945 | 16.113 | 32.278 | 2 |
| 2025-06-17T14:32:00 | 53.803168 | 7.160555 | 2.0 | 15.979 | 2 | 40.957 | 16.133 | 32.272 | 2 |
| 2025-06-17T14:33:00 | 53.802963 | 7.159073 | 2.0 | 15.982 | 2 | 40.875 | 16.146 | 32.190 | 2 |
| 2025-06-17T14:34:00 | 53.802762 | 7.157582 | 2.0 | 16.008 | 2 | 40.760 | 16.153 | 32.083 | 2 |
| 2025-06-17T14:35:00 | 53.802570 | 7.156090 | 2.0 | 15.997 | 2 | 40.922 | 16.170 | 32.212 | 2 |
| 2025-06-17T14:36:00 | 53.802378 | 7.154586 | 2.0 | 15.969 | 2 | 40.752 | 16.163 | 32.068 | 2 |
| 2025-06-17T14:37:00 | 53.802174 | 7.153099 | 2.0 | 15.958 | 2 | 40.643 | 16.139 | 31.992 | 2 |
| 2025-06-17T14:38:00 | 53.801961 | 7.151620 | 2.0 | 15.969 | 2 | 40.769 | 16.131 | 32.109 | 2 |
| 2025-06-17T14:39:00 | 53.801761 | 7.150128 | 2.0 | 16.000 | 2 | 40.708 | 16.145 | 32.044 | 2 |
| 2025-06-17T14:40:00 | 53.801552 | 7.148624 | 2.0 | 16.048 | 2 | 40.818 | 16.175 | 32.116 | 2 |
| 2025-06-17T14:41:00 | 53.801332 | 7.147148 | 2.0 | 16.116 | 2 | 40.926 | 16.224 | 32.172 | 2 |
| 2025-06-17T14:42:00 | 53.801109 | 7.145659 | 2.0 | 16.270 | 2 | 40.899 | 16.309 | 32.079 | 2 |
| 2025-06-17T14:43:00 | 53.800874 | 7.144175 | 2.0 | 16.384 | 2 | 40.952 | 16.449 | 32.013 | 2 |
| 2025-06-17T14:44:00 | 53.800647 | 7.142711 | 2.0 | 16.434 | 2 | 40.967 | 16.547 | 31.948 | 2 |
| 2025-06-17T14:45:00 | 53.800435 | 7.141293 | 2.0 | 16.452 | 2 | 41.146 | 16.599 | 32.062 | 2 |
| 2025-06-17T14:46:00 | 53.800241 | 7.139902 | 2.0 | 16.418 | 2 | 40.979 | 16.608 | 31.910 | 2 |
| 2025-06-17T14:47:00 | 53.800052 | 7.138527 | 2.0 | 16.448 | 2 | 41.107 | 16.592 | 32.034 | 2 |
| 2025-06-17T14:48:00 | 53.799877 | 7.137128 | 2.0 | 16.425 | 2 | 40.987 | 16.603 | 31.921 | 2 |
| 2025-06-17T14:49:00 | 53.799685 | 7.135723 | 2.0 | 16.438 | 2 | 40.969 | 16.594 | 31.912 | 2 |
| 2025-06-17T14:50:00 | 53.799485 | 7.134344 | 2.0 | 16.441 | 2 | 41.077 | 16.599 | 32.002 | 2 |
| 2025-06-17T14:51:00 | 53.799295 | 7.132954 | 2.0 | 16.447 | 2 | 41.049 | 16.606 | 31.972 | 2 |
| 2025-06-17T14:52:00 | 53.799094 | 7.131564 | 2.0 | 16.447 | 2 | 40.988 | 16.608 | 31.917 | 2 |
| 2025-06-17T14:53:00 | 53.798898 | 7.130173 | 2.0 | 16.438 | 2 | 40.990 | 16.610 | 31.918 | 2 |
| 2025-06-17T14:54:00 | 53.798705 | 7.128742 | 2.0 | 16.424 | 2 | 41.003 | 16.600 | 31.937 | 2 |
| 2025-06-17T14:55:00 | 53.798495 | 7.127313 | 2.0 | 16.423 | 2 | 41.018 | 16.589 | 31.959 | 2 |
| 2025-06-17T14:56:00 | 53.798276 | 7.125907 | 2.0 | 16.426 | 2 | 40.976 | 16.589 | 31.922 | 2 |
| 2025-06-17T14:57:00 | 53.798089 | 7.124465 | 2.0 | 16.407 | 2 | 40.995 | 16.585 | 31.942 | 2 |
| 2025-06-17T14:58:00 | 53.797902 | 7.123011 | 2.0 | 16.406 | 2 | 40.962 | 16.572 | 31.924 | 2 |
| 2025-06-17T14:59:00 | 53.797698 | 7.121556 | 2.0 | 16.425 | 2 | 41.021 | 16.577 | 31.971 | 2 |
| 2025-06-17T15:00:00 | 53.797482 | 7.120098 | 2.0 | 16.423 | 2 | 40.997 | 16.588 | 31.941 | 2 |
| 2025-06-17T15:01:00 | 53.797255 | 7.118669 | 2.0 | 16.421 | 2 | 41.010 | 16.590 | 31.951 | 2 |
| 2025-06-17T15:02:00 | 53.797033 | 7.117189 | 2.0 | 16.436 | 2 | 41.040 | 16.586 | 31.980 | 2 |
| 2025-06-17T15:03:00 | 53.796804 | 7.115726 | 2.0 | 16.448 | 2 | 41.075 | 16.608 | 31.993 | 2 |
| 2025-06-17T15:04:00 | 53.796573 | 7.114279 | 2.0 | 16.444 | 2 | 41.051 | 16.612 | 31.969 | 2 |
| 2025-06-17T15:05:00 | 53.796359 | 7.112821 | 2.0 | 16.434 | 2 | 41.029 | 16.603 | 31.957 | 2 |
| 2025-06-17T15:06:00 | 53.796159 | 7.111326 | 2.0 | 16.454 | 2 | 41.086 | 16.599 | 32.010 | 2 |
| 2025-06-17T15:07:00 | 53.795971 | 7.109771 | 2.0 | 16.430 | 2 | 41.088 | 16.621 | 31.994 | 2 |
| 2025-06-17T15:08:00 | 53.795747 | 7.108205 | 2.0 | 16.405 | 2 | 41.083 | 16.589 | 32.015 | 2 |
| 2025-06-17T15:09:00 | 53.795505 | 7.106623 | 2.0 | 16.418 | 2 | 41.032 | 16.562 | 31.992 | 2 |
| 2025-06-17T15:10:00 | 53.795270 | 7.105002 | 2.0 | 16.451 | 2 | 41.081 | 16.598 | 32.006 | 2 |
| 2025-06-17T15:11:00 | 53.795048 | 7.103350 | 2.0 | 16.441 | 2 | 41.101 | 16.602 | 32.020 | 2 |
| 2025-06-17T15:12:00 | 53.794802 | 7.101712 | 2.0 | 16.443 | 2 | 41.099 | 16.616 | 32.007 | 2 |
| 2025-06-17T15:13:00 | 53.794557 | 7.100110 | 2.0 | 16.414 | 2 | 41.089 | 16.603 | 32.009 | 2 |
| 2025-06-17T15:14:00 | 53.794344 | 7.098482 | 2.0 | 16.376 | 2 | 41.061 | 16.577 | 32.006 | 2 |
| 2025-06-17T15:15:00 | 53.794109 | 7.096864 | 2.0 | 16.352 | 2 | 41.029 | 16.539 | 32.008 | 2 |
| 2025-06-17T15:16:00 | 53.793848 | 7.095256 | 2.0 | 16.431 | 2 | 41.019 | 16.520 | 32.015 | 2 |
| 2025-06-17T15:17:00 | 53.793568 | 7.093647 | 2.0 | 16.449 | 2 | 41.116 | 16.604 | 32.032 | 2 |
| 2025-06-17T15:18:00 | 53.793293 | 7.092011 | 2.0 | 16.466 | 2 | 41.143 | 16.611 | 32.050 | 2 |
| 2025-06-17T15:19:00 | 53.793046 | 7.090373 | 2.0 | 16.484 | 2 | 41.190 | 16.637 | 32.070 | 2 |
| 2025-06-17T15:20:00 | 53.792827 | 7.088760 | 2.0 | 16.444 | 2 | 41.225 | 16.638 | 32.099 | 2 |
| 2025-06-17T15:21:00 | 53.792611 | 7.087148 | 2.0 | 16.468 | 2 | 41.222 | 16.617 | 32.114 | 2 |
| 2025-06-17T15:22:00 | 53.792383 | 7.085539 | 2.0 | 16.458 | 2 | 41.244 | 16.628 | 32.124 | 2 |
| 2025-06-17T15:23:00 | 53.792150 | 7.083924 | 2.0 | 16.467 | 2 | 41.271 | 16.630 | 32.146 | 2 |
| 2025-06-17T15:24:00 | 53.791894 | 7.082305 | 2.0 | 16.452 | 2 | 41.279 | 16.622 | 32.159 | 2 |
| 2025-06-17T15:25:00 | 53.791641 | 7.080692 | 2.0 | 16.457 | 2 | 41.296 | 16.622 | 32.174 | 2 |
| 2025-06-17T15:26:00 | 53.791421 | 7.079081 | 2.0 | 16.445 | 2 | 41.316 | 16.620 | 32.193 | 2 |
| 2025-06-17T15:27:00 | 53.791198 | 7.077507 | 2.0 | 16.434 | 2 | 41.310 | 16.607 | 32.198 | 2 |
| 2025-06-17T15:28:00 | 53.790970 | 7.075982 | 2.0 | 16.445 | 2 | 41.307 | 16.603 | 32.199 | 2 |
| 2025-06-17T15:29:00 | 53.790751 | 7.074485 | 2.0 | 16.459 | 2 | 41.321 | 16.615 | 32.201 | 2 |
| 2025-06-17T15:30:00 | 53.790536 | 7.072961 | 2.0 | 16.452 | 2 | 41.324 | 16.614 | 32.205 | 2 |
| 2025-06-17T15:31:00 | 53.790312 | 7.071434 | 2.0 | 16.438 | 2 | 41.338 | 16.624 | 32.209 | 2 |
| 2025-06-17T15:32:00 | 53.790083 | 7.069906 | 2.0 | 16.373 | 2 | 41.309 | 16.582 | 32.217 | 2 |
| 2025-06-17T15:33:00 | 53.789846 | 7.068380 | 2.0 | 16.425 | 2 | 41.286 | 16.555 | 32.219 | 2 |
| 2025-06-17T15:34:00 | 53.789615 | 7.066866 | 2.0 | 16.355 | 2 | 41.318 | 16.577 | 32.229 | 2 |
| 2025-06-17T15:35:00 | 53.789394 | 7.065355 | 2.0 | 16.315 | 2 | 41.268 | 16.509 | 32.240 | 2 |
| 2025-06-17T15:36:00 | 53.789175 | 7.063809 | 2.0 | 16.342 | 2 | 41.249 | 16.485 | 32.243 | 2 |
| 2025-06-17T15:37:00 | 53.788962 | 7.062239 | 2.0 | 16.318 | 2 | 41.272 | 16.502 | 32.250 | 2 |
| 2025-06-17T15:38:00 | 53.788750 | 7.060672 | 2.0 | 16.319 | 2 | 41.268 | 16.490 | 32.256 | 2 |
| 2025-06-17T15:39:00 | 53.788507 | 7.059156 | 2.0 | 16.342 | 2 | 41.269 | 16.486 | 32.260 | 2 |
| 2025-06-17T15:40:00 | 53.788278 | 7.057620 | 2.0 | 16.321 | 2 | 41.297 | 16.502 | 32.271 | 2 |
| 2025-06-17T15:41:00 | 53.788043 | 7.056067 | 2.0 | 16.298 | 2 | 41.291 | 16.484 | 32.281 | 2 |
| 2025-06-17T15:42:00 | 53.787813 | 7.054506 | 2.0 | 16.250 | 2 | 41.267 | 16.452 | 32.286 | 2 |
| 2025-06-17T15:43:00 | 53.787592 | 7.052929 | 2.0 | 16.283 | 2 | 41.243 | 16.425 | 32.286 | 2 |
| 2025-06-17T15:44:00 | 53.787360 | 7.051392 | 2.0 | 16.251 | 2 | 41.259 | 16.441 | 32.288 | 2 |
| 2025-06-17T15:45:00 | 53.787131 | 7.049877 | 2.0 | 16.241 | 2 | 41.242 | 16.416 | 32.293 | 2 |
| 2025-06-17T15:46:00 | 53.786914 | 7.048321 | 2.0 | 16.234 | 2 | 41.240 | 16.407 | 32.298 | 2 |
| 2025-06-17T15:47:00 | 53.786689 | 7.046733 | 2.0 | 16.240 | 2 | 41.239 | 16.402 | 32.302 | 2 |
| 2025-06-17T15:48:00 | 53.786449 | 7.045124 | 2.0 | 16.259 | 2 | 41.251 | 16.411 | 32.305 | 2 |
| 2025-06-17T15:49:00 | 53.786208 | 7.043532 | 2.0 | 16.260 | 2 | 41.271 | 16.423 | 32.313 | 2 |
| 2025-06-17T15:50:00 | 53.785975 | 7.041915 | 2.0 | 16.291 | 2 | 41.288 | 16.436 | 32.317 | 2 |
| 2025-06-17T15:51:00 | 53.785752 | 7.040256 | 2.0 | 16.265 | 2 | 41.308 | 16.452 | 32.321 | 2 |
| 2025-06-17T15:52:00 | 53.785517 | 7.038577 | 2.0 | 16.266 | 2 | 41.288 | 16.431 | 32.321 | 2 |
| 2025-06-17T15:53:00 | 53.785249 | 7.036903 | 2.0 | 16.287 | 2 | 41.291 | 16.436 | 32.319 | 2 |
| 2025-06-17T15:54:00 | 53.784963 | 7.035238 | 2.0 | 16.284 | 2 | 41.306 | 16.449 | 32.322 | 2 |
| 2025-06-17T15:55:00 | 53.784695 | 7.033607 | 2.0 | 16.295 | 2 | 41.309 | 16.452 | 32.322 | 2 |
| 2025-06-17T15:56:00 | 53.784451 | 7.032050 | 2.0 | 16.298 | 2 | 41.317 | 16.461 | 32.322 | 2 |
| 2025-06-17T15:57:00 | 53.784242 | 7.030534 | 2.0 | 16.299 | 2 | 41.317 | 16.462 | 32.321 | 2 |
| 2025-06-17T15:58:00 | 53.784044 | 7.029062 | 2.0 | 16.307 | 2 | 41.321 | 16.467 | 32.321 | 2 |
| 2025-06-17T15:59:00 | 53.783838 | 7.027609 | 2.0 | 16.327 | 2 | 41.326 | 16.474 | 32.319 | 2 |
| 2025-06-17T16:00:00 | 53.783631 | 7.026175 | 2.0 | 16.316 | 2 | 41.339 | 16.490 | 32.318 | 2 |
| 2025-06-17T16:01:00 | 53.783428 | 7.024743 | 2.0 | 16.315 | 2 | 41.328 | 16.479 | 32.317 | 2 |
| 2025-06-17T16:02:00 | 53.783224 | 7.023276 | 2.0 | 16.330 | 2 | 41.335 | 16.487 | 32.317 | 2 |
| 2025-06-17T16:03:00 | 53.783006 | 7.021785 | 2.0 | 16.351 | 2 | 41.349 | 16.500 | 32.318 | 2 |
| 2025-06-17T16:04:00 | 53.782759 | 7.020333 | 2.0 | 16.377 | 2 | 41.369 | 16.518 | 32.321 | 2 |
| 2025-06-17T16:05:00 | 53.782505 | 7.018883 | 2.0 | 16.386 | 2 | 41.396 | 16.543 | 32.325 | 2 |
| 2025-06-17T16:06:00 | 53.782252 | 7.017418 | 2.0 | 16.409 | 2 | 41.409 | 16.555 | 32.326 | 2 |
| 2025-06-17T16:07:00 | 53.782019 | 7.015940 | 2.0 | 16.441 | 2 | 41.432 | 16.585 | 32.322 | 2 |
| 2025-06-17T16:08:00 | 53.781790 | 7.014482 | 2.0 | 16.457 | 2 | 41.441 | 16.595 | 32.322 | 2 |
| 2025-06-17T16:09:00 | 53.781581 | 7.013026 | 2.0 | 16.477 | 2 | 41.460 | 16.624 | 32.315 | 2 |
| 2025-06-17T16:10:00 | 53.781379 | 7.011597 | 2.0 | 16.489 | 2 | 41.477 | 16.647 | 32.311 | 2 |
| 2025-06-17T16:11:00 | 53.781190 | 7.010154 | 2.0 | 16.503 | 2 | 41.481 | 16.654 | 32.309 | 2 |
| 2025-06-17T16:12:00 | 53.780999 | 7.008702 | 2.0 | 16.526 | 2 | 41.489 | 16.670 | 32.303 | 2 |
| 2025-06-17T16:13:00 | 53.780802 | 7.007294 | 2.0 | 16.550 | 2 | 41.499 | 16.692 | 32.294 | 2 |
| 2025-06-17T16:14:00 | 53.780613 | 7.005887 | 2.0 | 16.524 | 2 | 41.506 | 16.706 | 32.289 | 2 |
| 2025-06-17T16:15:00 | 53.780406 | 7.004487 | 2.0 | 16.487 | 2 | 41.477 | 16.673 | 32.290 | 2 |
| 2025-06-17T16:16:00 | 53.780217 | 7.003053 | 2.0 | 16.482 | 2 | 41.456 | 16.654 | 32.287 | 2 |
| 2025-06-17T16:17:00 | 53.780002 | 7.001640 | 2.0 | 16.476 | 2 | 41.447 | 16.647 | 32.285 | 2 |
| 2025-06-17T16:18:00 | 53.779801 | 7.000208 | 2.0 | 16.515 | 2 | 41.442 | 16.648 | 32.280 | 2 |
| 2025-06-17T16:19:00 | 53.779594 | 6.998771 | 2.0 | 16.550 | 2 | 41.468 | 16.686 | 32.272 | 2 |
| 2025-06-17T16:20:00 | 53.779404 | 6.997338 | 2.0 | 16.561 | 2 | 41.486 | 16.716 | 32.263 | 2 |
| 2025-06-17T16:21:00 | 53.779195 | 6.995935 | 2.0 | 16.578 | 2 | 41.487 | 16.721 | 32.260 | 2 |
| 2025-06-17T16:22:00 | 53.778983 | 6.994542 | 2.0 | 16.579 | 2 | 41.496 | 16.740 | 32.253 | 2 |
| 2025-06-17T16:23:00 | 53.778781 | 6.993148 | 2.0 | 16.583 | 2 | 41.490 | 16.739 | 32.248 | 2 |
| 2025-06-17T16:24:00 | 53.778559 | 6.991821 | 2.0 | 16.594 | 2 | 41.493 | 16.751 | 32.241 | 2 |
| 2025-06-17T16:25:00 | 53.778336 | 6.990575 | 2.0 | 16.609 | 2 | 41.497 | 16.759 | 32.238 | 2 |
| 2025-06-17T16:26:00 | 53.778165 | 6.989275 | 2.0 | 16.708 | 2 | 41.509 | 16.780 | 32.232 | 2 |
| 2025-06-17T16:27:00 | 53.778027 | 6.987912 | 2.0 | 16.775 | 2 | 41.591 | 16.894 | 32.211 | 2 |
| 2025-06-17T16:28:00 | 53.777876 | 6.986545 | 2.0 | 16.757 | 2 | 41.616 | 16.931 | 32.203 | 2 |
| 2025-06-17T16:29:00 | 53.777696 | 6.985194 | 2.0 | 16.739 | 2 | 41.591 | 16.916 | 32.194 | 2 |
| 2025-06-17T16:30:00 | 53.777495 | 6.983821 | 2.0 | 16.742 | 2 | 41.567 | 16.899 | 32.187 | 2 |
| 2025-06-17T16:31:00 | 53.777280 | 6.982425 | 2.0 | 16.745 | 2 | 41.567 | 16.907 | 32.180 | 2 |
| 2025-06-17T16:32:00 | 53.777058 | 6.980976 | 2.0 | 16.730 | 2 | 41.564 | 16.910 | 32.175 | 2 |
| 2025-06-17T16:33:00 | 53.776831 | 6.979550 | 2.0 | 16.718 | 2 | 41.531 | 16.884 | 32.168 | 2 |
| 2025-06-17T16:34:00 | 53.776616 | 6.978139 | 2.0 | 16.714 | 2 | 41.525 | 16.882 | 32.164 | 2 |
| 2025-06-17T16:35:00 | 53.776400 | 6.976716 | 2.0 | 16.694 | 2 | 41.516 | 16.873 | 32.163 | 2 |
| 2025-06-17T16:36:00 | 53.776189 | 6.975285 | 2.0 | 16.683 | 2 | 41.497 | 16.855 | 32.161 | 2 |
| 2025-06-17T16:37:00 | 53.776015 | 6.973771 | 2.0 | 16.684 | 2 | 41.491 | 16.849 | 32.161 | 2 |
| 2025-06-17T16:38:00 | 53.775810 | 6.972245 | 2.0 | 16.680 | 2 | 41.491 | 16.847 | 32.163 | 2 |
| 2025-06-17T16:39:00 | 53.775560 | 6.970752 | 2.0 | 16.676 | 2 | 41.491 | 16.843 | 32.166 | 2 |
| 2025-06-17T16:40:00 | 53.775311 | 6.969281 | 2.0 | 16.671 | 2 | 41.491 | 16.838 | 32.170 | 2 |
| 2025-06-17T16:41:00 | 53.775102 | 6.967800 | 2.0 | 16.662 | 2 | 41.486 | 16.832 | 32.170 | 2 |
| 2025-06-17T16:42:00 | 53.774895 | 6.966309 | 2.0 | 16.665 | 2 | 41.483 | 16.826 | 32.172 | 2 |
| 2025-06-17T16:43:00 | 53.774666 | 6.964794 | 2.0 | 16.654 | 2 | 41.485 | 16.826 | 32.174 | 2 |
| 2025-06-17T16:44:00 | 53.774403 | 6.963340 | 2.0 | 16.704 | 2 | 41.482 | 16.819 | 32.177 | 2 |
| 2025-06-17T16:45:00 | 53.774138 | 6.961913 | 2.0 | 16.770 | 2 | 41.558 | 16.883 | 32.192 | 2 |
| 2025-06-17T16:46:00 | 53.773904 | 6.960445 | 2.0 | 16.769 | 2 | 41.622 | 16.931 | 32.209 | 2 |
| 2025-06-17T16:47:00 | 53.773693 | 6.958973 | 2.0 | 16.758 | 2 | 41.621 | 16.929 | 32.209 | 2 |
| 2025-06-17T16:48:00 | 53.773488 | 6.957523 | 2.0 | 16.766 | 2 | 41.618 | 16.922 | 32.212 | 2 |
| 2025-06-17T16:49:00 | 53.773275 | 6.956114 | 2.0 | 16.757 | 2 | 41.638 | 16.928 | 32.225 | 2 |
| 2025-06-17T16:50:00 | 53.773085 | 6.954624 | 2.0 | 16.746 | 2 | 41.635 | 16.916 | 32.232 | 2 |
| 2025-06-17T16:51:00 | 53.772915 | 6.953024 | 2.0 | 16.806 | 2 | 41.651 | 16.921 | 32.242 | 2 |
| 2025-06-17T16:52:00 | 53.772700 | 6.951381 | 2.0 | 16.787 | 2 | 41.697 | 16.957 | 32.252 | 2 |
| 2025-06-17T16:53:00 | 53.772449 | 6.949726 | 2.0 | 16.780 | 2 | 41.690 | 16.950 | 32.252 | 2 |
| 2025-06-17T16:54:00 | 53.772165 | 6.948140 | 2.0 | 16.771 | 2 | 41.684 | 16.943 | 32.252 | 2 |
| 2025-06-17T16:55:00 | 53.771905 | 6.946532 | 2.0 | 16.770 | 2 | 41.677 | 16.933 | 32.254 | 2 |
| 2025-06-17T16:56:00 | 53.771685 | 6.944874 | 2.0 | 16.766 | 2 | 41.679 | 16.933 | 32.256 | 2 |
| 2025-06-17T16:57:00 | 53.771446 | 6.943207 | 2.0 | 16.769 | 2 | 41.678 | 16.928 | 32.259 | 2 |
| 2025-06-17T16:58:00 | 53.771167 | 6.941579 | 2.0 | 16.800 | 2 | 41.698 | 16.943 | 32.265 | 2 |
| 2025-06-17T16:59:00 | 53.770913 | 6.939905 | 2.0 | 16.781 | 2 | 41.715 | 16.958 | 32.267 | 2 |
| 2025-06-17T17:00:00 | 53.770676 | 6.938235 | 2.0 | 16.774 | 2 | 41.700 | 16.943 | 32.266 | 2 |
| 2025-06-17T17:01:00 | 53.770454 | 6.936540 | 2.0 | 16.747 | 2 | 41.692 | 16.932 | 32.268 | 2 |
| 2025-06-17T17:02:00 | 53.770221 | 6.934832 | 2.0 | 16.787 | 2 | 41.682 | 16.922 | 32.268 | 2 |
| 2025-06-17T17:03:00 | 53.769951 | 6.933132 | 2.0 | 16.801 | 2 | 41.723 | 16.952 | 32.279 | 2 |
| 2025-06-17T17:04:00 | 53.769664 | 6.931441 | 2.0 | 16.772 | 2 | 41.734 | 16.958 | 32.284 | 2 |
| 2025-06-17T17:05:00 | 53.769380 | 6.929750 | 2.0 | 16.771 | 2 | 41.708 | 16.935 | 32.280 | 2 |
| 2025-06-17T17:06:00 | 53.769103 | 6.928088 | 2.0 | 16.767 | 2 | 41.707 | 16.934 | 32.280 | 2 |
| 2025-06-17T17:07:00 | 53.768848 | 6.926410 | 2.0 | 16.769 | 2 | 41.709 | 16.931 | 32.284 | 2 |
| 2025-06-17T17:08:00 | 53.768603 | 6.924706 | 2.0 | 16.764 | 2 | 41.716 | 16.933 | 32.288 | 2 |
| 2025-06-17T17:09:00 | 53.768369 | 6.923009 | 2.0 | 16.770 | 2 | 41.718 | 16.928 | 32.294 | 2 |
| 2025-06-17T17:10:00 | 53.768122 | 6.921310 | 2.0 | 16.799 | 2 | 41.738 | 16.942 | 32.300 | 2 |
| 2025-06-17T17:11:00 | 53.767881 | 6.919605 | 2.0 | 16.769 | 2 | 41.763 | 16.958 | 32.309 | 2 |
| 2025-06-17T17:12:00 | 53.767640 | 6.917890 | 2.0 | 16.753 | 2 | 41.734 | 16.932 | 32.304 | 2 |
| 2025-06-17T17:13:00 | 53.767394 | 6.916172 | 2.0 | 16.752 | 2 | 41.719 | 16.917 | 32.304 | 2 |
| 2025-06-17T17:14:00 | 53.767143 | 6.914481 | 2.0 | 16.745 | 2 | 41.722 | 16.914 | 32.309 | 2 |
| 2025-06-17T17:15:00 | 53.766889 | 6.912786 | 2.0 | 16.740 | 2 | 41.720 | 16.909 | 32.311 | 2 |
| 2025-06-17T17:16:00 | 53.766632 | 6.911109 | 2.0 | 16.731 | 2 | 41.718 | 16.903 | 32.314 | 2 |
| 2025-06-17T17:17:00 | 53.766363 | 6.909455 | 2.0 | 16.742 | 2 | 41.713 | 16.895 | 32.316 | 2 |
| 2025-06-17T17:18:00 | 53.766116 | 6.907772 | 2.0 | 16.750 | 2 | 41.735 | 16.909 | 32.324 | 2 |
| 2025-06-17T17:19:00 | 53.765867 | 6.906091 | 2.0 | 16.756 | 2 | 41.749 | 16.914 | 32.332 | 2 |
| 2025-06-17T17:20:00 | 53.765614 | 6.904424 | 2.0 | 16.744 | 2 | 41.761 | 16.917 | 32.340 | 2 |
| 2025-06-17T17:21:00 | 53.765389 | 6.902716 | 2.0 | 16.737 | 2 | 41.757 | 16.907 | 32.344 | 2 |
| 2025-06-17T17:22:00 | 53.765156 | 6.900970 | 2.0 | 16.725 | 2 | 41.757 | 16.898 | 32.352 | 2 |
| 2025-06-17T17:23:00 | 53.764919 | 6.899172 | 2.0 | 16.729 | 2 | 41.758 | 16.892 | 32.357 | 2 |
| 2025-06-17T17:24:00 | 53.764659 | 6.897401 | 2.0 | 16.742 | 2 | 41.771 | 16.897 | 32.365 | 2 |
| 2025-06-17T17:25:00 | 53.764386 | 6.895640 | 2.0 | 16.724 | 2 | 41.788 | 16.902 | 32.375 | 2 |
| 2025-06-17T17:26:00 | 53.764113 | 6.893899 | 2.0 | 16.703 | 2 | 41.784 | 16.886 | 32.385 | 2 |
| 2025-06-17T17:27:00 | 53.763859 | 6.892123 | 2.0 | 16.691 | 2 | 41.769 | 16.862 | 32.391 | 2 |
| 2025-06-17T17:28:00 | 53.763602 | 6.890320 | 2.0 | 16.698 | 2 | 41.775 | 16.862 | 32.396 | 2 |
| 2025-06-17T17:29:00 | 53.763322 | 6.888503 | 2.0 | 16.688 | 2 | 41.779 | 16.861 | 32.401 | 2 |
| 2025-06-17T17:30:00 | 53.763021 | 6.886677 | 2.0 | 16.676 | 2 | 41.776 | 16.851 | 32.406 | 2 |
| 2025-06-17T17:31:00 | 53.762721 | 6.884859 | 2.0 | 16.675 | 2 | 41.777 | 16.842 | 32.414 | 2 |
| 2025-06-17T17:32:00 | 53.762442 | 6.883014 | 2.0 | 16.657 | 2 | 41.783 | 16.837 | 32.423 | 2 |
| 2025-06-17T17:33:00 | 53.762155 | 6.881222 | 2.0 | 16.650 | 2 | 41.770 | 16.820 | 32.426 | 2 |
| 2025-06-17T17:34:00 | 53.761886 | 6.879406 | 2.0 | 16.655 | 2 | 41.765 | 16.815 | 32.425 | 2 |
| 2025-06-17T17:35:00 | 53.761622 | 6.877578 | 2.0 | 16.664 | 2 | 41.772 | 16.821 | 32.427 | 2 |
| 2025-06-17T17:36:00 | 53.761369 | 6.875714 | 2.0 | 16.658 | 2 | 41.780 | 16.828 | 32.428 | 2 |
| 2025-06-17T17:37:00 | 53.761124 | 6.873819 | 2.0 | 16.652 | 2 | 41.774 | 16.820 | 32.429 | 2 |
| 2025-06-17T17:38:00 | 53.760868 | 6.871925 | 2.0 | 16.662 | 2 | 41.770 | 16.818 | 32.427 | 2 |
| 2025-06-17T17:39:00 | 53.760583 | 6.870069 | 2.0 | 16.668 | 2 | 41.778 | 16.826 | 32.428 | 2 |
| 2025-06-17T17:40:00 | 53.760300 | 6.868206 | 2.0 | 16.674 | 2 | 41.783 | 16.832 | 32.427 | 2 |
| 2025-06-17T17:41:00 | 53.760028 | 6.866322 | 2.0 | 16.664 | 2 | 41.787 | 16.835 | 32.428 | 2 |
| 2025-06-17T17:42:00 | 53.759756 | 6.864433 | 2.0 | 16.665 | 2 | 41.781 | 16.829 | 32.428 | 2 |
| 2025-06-17T17:43:00 | 53.759480 | 6.862518 | 2.0 | 16.669 | 2 | 41.778 | 16.827 | 32.427 | 2 |
| 2025-06-17T17:44:00 | 53.759181 | 6.860616 | 2.0 | 16.714 | 2 | 41.795 | 16.845 | 32.427 | 2 |
| 2025-06-17T17:45:00 | 53.758879 | 6.858701 | 2.0 | 16.680 | 2 | 41.824 | 16.869 | 32.433 | 2 |
| 2025-06-17T17:46:00 | 53.758614 | 6.856776 | 2.0 | 16.678 | 2 | 41.796 | 16.846 | 32.427 | 2 |
| 2025-06-17T17:47:00 | 53.758371 | 6.854855 | 2.0 | 16.674 | 2 | 41.782 | 16.840 | 32.420 | 2 |
| 2025-06-17T17:48:00 | 53.758121 | 6.852964 | 2.0 | 16.686 | 2 | 41.780 | 16.841 | 32.418 | 2 |
| 2025-06-17T17:49:00 | 53.757841 | 6.851056 | 2.0 | 16.704 | 2 | 41.793 | 16.852 | 32.420 | 2 |
| 2025-06-17T17:50:00 | 53.757532 | 6.849099 | 2.0 | 16.710 | 2 | 41.810 | 16.866 | 32.423 | 2 |
| 2025-06-17T17:51:00 | 53.757184 | 6.847159 | 2.0 | 16.741 | 2 | 41.822 | 16.875 | 32.426 | 2 |
| 2025-06-17T17:52:00 | 53.756851 | 6.845217 | 2.0 | 16.779 | 2 | 41.854 | 16.911 | 32.425 | 2 |
| 2025-06-17T17:53:00 | 53.756555 | 6.843258 | 2.0 | 16.797 | 2 | 41.882 | 16.943 | 32.424 | 2 |
| 2025-06-17T17:54:00 | 53.756284 | 6.841282 | 2.0 | 16.816 | 2 | 41.894 | 16.961 | 32.419 | 2 |
| 2025-06-17T17:55:00 | 53.756008 | 6.839313 | 2.0 | 16.831 | 2 | 41.903 | 16.979 | 32.413 | 2 |
| 2025-06-17T17:56:00 | 53.755714 | 6.837391 | 2.0 | 16.845 | 2 | 41.908 | 16.995 | 32.404 | 2 |
| 2025-06-17T17:57:00 | 53.755434 | 6.835469 | 2.0 | 16.857 | 2 | 41.912 | 17.006 | 32.399 | 2 |
| 2025-06-17T17:58:00 | 53.755164 | 6.833543 | 2.0 | 16.863 | 2 | 41.917 | 17.020 | 32.392 | 2 |
| 2025-06-17T17:59:00 | 53.754895 | 6.831588 | 2.0 | 16.871 | 2 | 41.917 | 17.024 | 32.389 | 2 |
| 2025-06-17T18:00:00 | 53.754630 | 6.829606 | 2.0 | 16.884 | 2 | 41.921 | 17.034 | 32.384 | 2 |
| 2025-06-17T18:01:00 | 53.754360 | 6.827605 | 2.0 | 16.892 | 2 | 41.927 | 17.046 | 32.379 | 2 |
| 2025-06-17T18:02:00 | 53.754081 | 6.825603 | 2.0 | 16.898 | 2 | 41.932 | 17.057 | 32.375 | 2 |
| 2025-06-17T18:03:00 | 53.753774 | 6.823618 | 2.0 | 16.907 | 2 | 41.930 | 17.060 | 32.371 | 2 |
| 2025-06-17T18:04:00 | 53.753467 | 6.821627 | 2.0 | 16.941 | 2 | 41.935 | 17.075 | 32.363 | 2 |
| 2025-06-17T18:05:00 | 53.753191 | 6.819592 | 2.0 | 16.972 | 2 | 41.955 | 17.108 | 32.354 | 2 |
| 2025-06-17T18:06:00 | 53.752909 | 6.817546 | 2.0 | 16.981 | 2 | 41.970 | 17.133 | 32.347 | 2 |
| 2025-06-17T18:07:00 | 53.752611 | 6.815533 | 2.0 | 16.980 | 2 | 41.973 | 17.142 | 32.342 | 2 |
| 2025-06-17T18:08:00 | 53.752332 | 6.813506 | 2.0 | 16.991 | 2 | 41.969 | 17.143 | 32.338 | 2 |
| 2025-06-17T18:09:00 | 53.752041 | 6.811484 | 2.0 | 17.033 | 2 | 41.977 | 17.158 | 32.333 | 2 |
| 2025-06-17T18:10:00 | 53.751720 | 6.809490 | 2.0 | 17.062 | 2 | 42.006 | 17.193 | 32.330 | 2 |
| 2025-06-17T18:11:00 | 53.751405 | 6.807499 | 2.0 | 17.093 | 2 | 42.030 | 17.224 | 32.325 | 2 |
| 2025-06-17T18:12:00 | 53.751130 | 6.805443 | 2.0 | 17.110 | 2 | 42.054 | 17.254 | 32.322 | 2 |
| 2025-06-17T18:13:00 | 53.750845 | 6.803378 | 2.0 | 17.119 | 2 | 42.066 | 17.270 | 32.319 | 2 |
| 2025-06-17T18:14:00 | 53.750549 | 6.801309 | 2.0 | 17.113 | 2 | 42.070 | 17.276 | 32.318 | 2 |
| 2025-06-17T18:15:00 | 53.750247 | 6.799235 | 2.0 | 17.131 | 2 | 42.064 | 17.274 | 32.315 | 2 |
| 2025-06-17T18:16:00 | 53.749935 | 6.797162 | 2.0 | 17.135 | 2 | 42.072 | 17.287 | 32.311 | 2 |
| 2025-06-17T18:17:00 | 53.749620 | 6.795111 | 2.0 | 17.139 | 2 | 42.080 | 17.296 | 32.311 | 2 |
| 2025-06-17T18:18:00 | 53.749328 | 6.793057 | 2.0 | 17.133 | 2 | 42.077 | 17.294 | 32.310 | 2 |
| 2025-06-17T18:19:00 | 53.749052 | 6.790981 | 2.0 | 17.138 | 2 | 42.076 | 17.295 | 32.308 | 2 |
| 2025-06-17T18:20:00 | 53.748744 | 6.788922 | 2.0 | 17.135 | 2 | 42.080 | 17.299 | 32.308 | 2 |
| 2025-06-17T18:21:00 | 53.748428 | 6.786895 | 2.0 | 17.181 | 2 | 42.080 | 17.300 | 32.308 | 2 |
| 2025-06-17T18:22:00 | 53.748148 | 6.784867 | 2.0 | 17.224 | 2 | 42.122 | 17.354 | 32.300 | 2 |
| 2025-06-17T18:23:00 | 53.747870 | 6.782836 | 2.0 | 17.217 | 2 | 42.135 | 17.381 | 32.290 | 2 |
| 2025-06-17T18:24:00 | 53.747603 | 6.780801 | 2.0 | 17.204 | 2 | 42.122 | 17.375 | 32.284 | 2 |
| 2025-06-17T18:25:00 | 53.747329 | 6.778765 | 2.0 | 17.184 | 2 | 42.105 | 17.361 | 32.280 | 2 |
| 2025-06-17T18:26:00 | 53.747014 | 6.776753 | 2.0 | 17.167 | 2 | 42.093 | 17.342 | 32.285 | 2 |
| 2025-06-17T18:27:00 | 53.746689 | 6.774718 | 2.0 | 17.187 | 2 | 42.091 | 17.332 | 32.291 | 2 |
| 2025-06-17T18:28:00 | 53.746361 | 6.772679 | 2.0 | 17.201 | 2 | 42.108 | 17.349 | 32.292 | 2 |
| 2025-06-17T18:29:00 | 53.746045 | 6.770619 | 2.0 | 17.213 | 2 | 42.119 | 17.358 | 32.295 | 2 |
| 2025-06-17T18:30:00 | 53.745723 | 6.768557 | 2.0 | 17.225 | 2 | 42.137 | 17.375 | 32.296 | 2 |
| 2025-06-17T18:31:00 | 53.745404 | 6.766526 | 2.0 | 17.211 | 2 | 42.146 | 17.379 | 32.301 | 2 |
| 2025-06-17T18:32:00 | 53.745129 | 6.764417 | 2.0 | 17.200 | 2 | 42.146 | 17.374 | 32.305 | 2 |
| 2025-06-17T18:33:00 | 53.744844 | 6.762323 | 2.0 | 17.175 | 2 | 42.134 | 17.356 | 32.309 | 2 |
| 2025-06-17T18:34:00 | 53.744535 | 6.760235 | 2.0 | 17.166 | 2 | 42.117 | 17.334 | 32.312 | 2 |
| 2025-06-17T18:35:00 | 53.744205 | 6.758184 | 2.0 | 17.136 | 2 | 42.113 | 17.321 | 32.319 | 2 |
| 2025-06-17T18:36:00 | 53.743893 | 6.756100 | 2.0 | 17.157 | 2 | 42.102 | 17.302 | 32.325 | 2 |
| 2025-06-17T18:37:00 | 53.743589 | 6.754026 | 2.0 | 17.161 | 2 | 42.111 | 17.318 | 32.320 | 2 |
| 2025-06-17T18:38:00 | 53.743293 | 6.751971 | 2.0 | 17.125 | 2 | 42.109 | 17.310 | 32.324 | 2 |
| 2025-06-17T18:39:00 | 53.742995 | 6.749940 | 2.0 | 17.094 | 2 | 42.088 | 17.283 | 32.328 | 2 |
| 2025-06-17T18:40:00 | 53.742692 | 6.747905 | 2.0 | 17.064 | 2 | 42.076 | 17.259 | 32.337 | 2 |
| 2025-06-17T18:41:00 | 53.742400 | 6.745881 | 2.0 | 17.064 | 2 | 42.066 | 17.228 | 32.353 | 2 |
| 2025-06-17T18:42:00 | 53.742090 | 6.743877 | 2.0 | 17.045 | 2 | 42.065 | 17.221 | 32.358 | 2 |
| 2025-06-17T18:43:00 | 53.741779 | 6.741866 | 2.0 | 17.023 | 2 | 42.065 | 17.205 | 32.371 | 2 |
| 2025-06-17T18:44:00 | 53.741488 | 6.739831 | 2.0 | 17.048 | 2 | 42.064 | 17.194 | 32.379 | 2 |
| 2025-06-17T18:45:00 | 53.741202 | 6.737808 | 2.0 | 17.042 | 2 | 42.072 | 17.208 | 32.374 | 2 |
| 2025-06-17T18:46:00 | 53.740894 | 6.735786 | 2.0 | 17.037 | 2 | 42.073 | 17.202 | 32.380 | 2 |
| 2025-06-17T18:47:00 | 53.740619 | 6.733769 | 2.0 | 17.071 | 2 | 42.078 | 17.207 | 32.380 | 2 |
| 2025-06-17T18:48:00 | 53.740377 | 6.731699 | 2.0 | 17.051 | 2 | 42.092 | 17.225 | 32.378 | 2 |
| 2025-06-17T18:49:00 | 53.740093 | 6.729628 | 2.0 | 17.071 | 2 | 42.095 | 17.219 | 32.385 | 2 |
| 2025-06-17T18:50:00 | 53.739798 | 6.727572 | 2.0 | 17.049 | 2 | 42.106 | 17.230 | 32.386 | 2 |
| 2025-06-17T18:51:00 | 53.739505 | 6.725558 | 2.0 | 17.024 | 2 | 42.099 | 17.207 | 32.398 | 2 |
| 2025-06-17T18:52:00 | 53.739231 | 6.723531 | 2.0 | 17.065 | 2 | 42.093 | 17.201 | 32.398 | 2 |
| 2025-06-17T18:53:00 | 53.738976 | 6.721463 | 2.0 | 17.061 | 2 | 42.105 | 17.217 | 32.395 | 2 |
| 2025-06-17T18:54:00 | 53.738698 | 6.719404 | 2.0 | 17.042 | 2 | 42.108 | 17.220 | 32.396 | 2 |
| 2025-06-17T18:55:00 | 53.738409 | 6.717346 | 2.0 | 17.100 | 2 | 42.097 | 17.201 | 32.401 | 2 |
| 2025-06-17T18:56:00 | 53.738121 | 6.715282 | 2.0 | 17.230 | 2 | 42.145 | 17.290 | 32.371 | 2 |
| 2025-06-17T18:57:00 | 53.737820 | 6.713246 | 2.0 | 17.323 | 2 | 42.214 | 17.395 | 32.346 | 2 |
| 2025-06-17T18:58:00 | 53.737536 | 6.711222 | 2.0 | 17.343 | 2 | 42.263 | 17.485 | 32.317 | 2 |
| 2025-06-17T18:59:00 | 53.737274 | 6.709170 | 2.0 | 17.334 | 2 | 42.273 | 17.498 | 32.315 | 2 |
| 2025-06-17T19:00:00 | 53.737025 | 6.707144 | 2.0 | 17.339 | 2 | 42.269 | 17.494 | 32.314 | 2 |
| 2025-06-17T19:01:00 | 53.736763 | 6.705155 | 2.0 | 17.342 | 2 | 42.268 | 17.497 | 32.311 | 2 |
| 2025-06-17T19:02:00 | 53.736483 | 6.703218 | 2.0 | 17.347 | 2 | 42.265 | 17.501 | 32.305 | 2 |
| 2025-06-17T19:03:00 | 53.736209 | 6.701271 | 2.0 | 17.356 | 2 | 42.263 | 17.507 | 32.299 | 2 |
| 2025-06-17T19:04:00 | 53.735980 | 6.699281 | 2.0 | 17.385 | 2 | 42.264 | 17.518 | 32.291 | 2 |
| 2025-06-17T19:05:00 | 53.735734 | 6.697273 | 2.0 | 17.426 | 2 | 42.273 | 17.553 | 32.271 | 2 |
| 2025-06-17T19:06:00 | 53.735444 | 6.695255 | 2.0 | 17.391 | 2 | 42.285 | 17.578 | 32.261 | 2 |
| 2025-06-17T19:07:00 | 53.735150 | 6.693224 | 2.0 | 17.370 | 2 | 42.265 | 17.536 | 32.278 | 2 |
| 2025-06-17T19:08:00 | 53.734870 | 6.691180 | 2.0 | 17.270 | 2 | 42.250 | 17.507 | 32.288 | 2 |
| 2025-06-17T19:09:00 | 53.734596 | 6.689129 | 2.0 | 17.318 | 2 | 42.219 | 17.447 | 32.309 | 2 |
| 2025-06-17T19:10:00 | 53.734334 | 6.687079 | 2.0 | 17.318 | 2 | 42.221 | 17.475 | 32.289 | 2 |
| 2025-06-17T19:11:00 | 53.734070 | 6.685021 | 2.0 | 17.297 | 2 | 42.217 | 17.467 | 32.292 | 2 |
| 2025-06-17T19:12:00 | 53.733824 | 6.682925 | 2.0 | 17.257 | 2 | 42.208 | 17.447 | 32.300 | 2 |
| 2025-06-17T19:13:00 | 53.733566 | 6.680844 | 2.0 | 17.232 | 2 | 42.195 | 17.417 | 32.313 | 2 |
| 2025-06-17T19:14:00 | 53.733290 | 6.678782 | 2.0 | 17.183 | 2 | 42.183 | 17.387 | 32.326 | 2 |
| 2025-06-17T19:15:00 | 53.733017 | 6.676714 | 2.0 | 17.157 | 2 | 42.167 | 17.347 | 32.345 | 2 |
| 2025-06-17T19:16:00 | 53.732745 | 6.674651 | 2.0 | 17.123 | 2 | 42.150 | 17.317 | 32.354 | 2 |
| 2025-06-17T19:17:00 | 53.732472 | 6.672575 | 2.0 | 17.130 | 2 | 42.136 | 17.291 | 32.363 | 2 |
| 2025-06-17T19:18:00 | 53.732212 | 6.670485 | 2.0 | 17.101 | 2 | 42.126 | 17.283 | 32.361 | 2 |
| 2025-06-17T19:19:00 | 53.731961 | 6.668382 | 2.0 | 17.087 | 2 | 42.115 | 17.264 | 32.366 | 2 |
| 2025-06-17T19:20:00 | 53.731706 | 6.666309 | 2.0 | 17.076 | 2 | 42.109 | 17.254 | 32.369 | 2 |
| 2025-06-17T19:21:00 | 53.731439 | 6.664233 | 2.0 | 17.078 | 2 | 42.102 | 17.242 | 32.373 | 2 |
| 2025-06-17T19:22:00 | 53.731179 | 6.662132 | 2.0 | 17.079 | 2 | 42.098 | 17.238 | 32.373 | 2 |
| 2025-06-17T19:23:00 | 53.730917 | 6.660041 | 2.0 | 17.104 | 2 | 42.097 | 17.244 | 32.367 | 2 |
| 2025-06-17T19:24:00 | 53.730674 | 6.657934 | 2.0 | 17.111 | 2 | 42.104 | 17.264 | 32.357 | 2 |
| 2025-06-17T19:25:00 | 53.730392 | 6.655875 | 2.0 | 17.120 | 2 | 42.109 | 17.271 | 32.356 | 2 |
| 2025-06-17T19:26:00 | 53.730105 | 6.653806 | 2.0 | 17.127 | 2 | 42.112 | 17.281 | 32.350 | 2 |
| 2025-06-17T19:27:00 | 53.729836 | 6.651716 | 2.0 | 17.140 | 2 | 42.117 | 17.294 | 32.344 | 2 |
| 2025-06-17T19:28:00 | 53.729593 | 6.649611 | 2.0 | 17.174 | 2 | 42.122 | 17.306 | 32.339 | 2 |
| 2025-06-17T19:29:00 | 53.729341 | 6.647506 | 2.0 | 17.194 | 2 | 42.144 | 17.343 | 32.328 | 2 |
| 2025-06-17T19:30:00 | 53.729077 | 6.645398 | 2.0 | 17.197 | 2 | 42.159 | 17.361 | 32.326 | 2 |
| 2025-06-17T19:31:00 | 53.728817 | 6.643296 | 2.0 | 17.167 | 2 | 42.155 | 17.350 | 32.332 | 2 |
| 2025-06-17T19:32:00 | 53.728565 | 6.641200 | 2.0 | 17.174 | 2 | 42.143 | 17.329 | 32.338 | 2 |
| 2025-06-17T19:33:00 | 53.728318 | 6.639094 | 2.0 | 17.178 | 2 | 42.148 | 17.338 | 32.335 | 2 |
| 2025-06-17T19:34:00 | 53.728046 | 6.636995 | 2.0 | 17.185 | 2 | 42.149 | 17.337 | 32.337 | 2 |
| 2025-06-17T19:35:00 | 53.727769 | 6.634887 | 2.0 | 17.213 | 2 | 42.159 | 17.348 | 32.337 | 2 |
| 2025-06-17T19:36:00 | 53.727487 | 6.632780 | 2.0 | 17.337 | 2 | 42.193 | 17.395 | 32.328 | 2 |
| 2025-06-17T19:37:00 | 53.727232 | 6.630643 | 2.0 | 17.346 | 2 | 42.254 | 17.494 | 32.302 | 2 |
| 2025-06-17T19:38:00 | 53.727000 | 6.628494 | 2.0 | 17.332 | 2 | 42.258 | 17.500 | 32.300 | 2 |
| 2025-06-17T19:39:00 | 53.726862 | 6.626307 | 2.0 | 17.323 | 2 | 42.250 | 17.489 | 32.302 | 2 |
| 2025-06-17T19:40:00 | 53.726758 | 6.624098 | 2.0 | 17.324 | 2 | 42.246 | 17.484 | 32.303 | 2 |
| 2025-06-17T19:41:00 | 53.726653 | 6.621889 | 2.0 | 17.356 | 2 | 42.253 | 17.490 | 32.304 | 2 |
| 2025-06-17T19:42:00 | 53.726538 | 6.619678 | 2.0 | 17.379 | 2 | 42.274 | 17.515 | 32.302 | 2 |
| 2025-06-17T19:43:00 | 53.726419 | 6.617471 | 2.0 | 17.367 | 2 | 42.305 | 17.535 | 32.313 | 2 |
| 2025-06-17T19:44:00 | 53.726304 | 6.615269 | 2.0 | 17.362 | 2 | 42.305 | 17.527 | 32.319 | 2 |
| 2025-06-17T19:45:00 | 53.726196 | 6.613062 | 2.0 | 17.337 | 2 | 42.295 | 17.518 | 32.318 | 2 |
| 2025-06-17T19:46:00 | 53.726079 | 6.610840 | 2.0 | 17.320 | 2 | 42.277 | 17.495 | 32.320 | 2 |
| 2025-06-17T19:47:00 | 53.725981 | 6.608621 | 2.0 | 17.307 | 2 | 42.264 | 17.479 | 32.322 | 2 |
| 2025-06-17T19:48:00 | 53.725893 | 6.606422 | 2.0 | 17.294 | 2 | 42.255 | 17.466 | 32.325 | 2 |
| 2025-06-17T19:49:00 | 53.725806 | 6.604212 | 2.0 | 17.277 | 2 | 42.248 | 17.452 | 32.330 | 2 |
| 2025-06-17T19:50:00 | 53.725682 | 6.601989 | 2.0 | 17.264 | 2 | 42.245 | 17.437 | 32.339 | 2 |
| 2025-06-17T19:51:00 | 53.725561 | 6.599765 | 2.0 | 17.325 | 2 | 42.247 | 17.435 | 32.343 | 2 |
| 2025-06-17T19:52:00 | 53.725448 | 6.597558 | 2.0 | 17.346 | 2 | 42.281 | 17.481 | 32.335 | 2 |
| 2025-06-17T19:53:00 | 53.725327 | 6.595358 | 2.0 | 17.367 | 2 | 42.297 | 17.511 | 32.325 | 2 |
| 2025-06-17T19:54:00 | 53.725186 | 6.593185 | 2.0 | 17.378 | 2 | 42.310 | 17.526 | 32.324 | 2 |
| 2025-06-17T19:55:00 | 53.725083 | 6.590999 | 2.0 | 17.372 | 2 | 42.313 | 17.536 | 32.319 | 2 |
| 2025-06-17T19:56:00 | 53.724976 | 6.588819 | 2.0 | 17.355 | 2 | 42.312 | 17.531 | 32.322 | 2 |
| 2025-06-17T19:57:00 | 53.724845 | 6.586633 | 2.0 | 17.333 | 2 | 42.303 | 17.512 | 32.329 | 2 |
| 2025-06-17T19:58:00 | 53.724716 | 6.584458 | 2.0 | 17.322 | 2 | 42.287 | 17.493 | 32.331 | 2 |
| 2025-06-17T19:59:00 | 53.724612 | 6.582261 | 2.0 | 17.325 | 2 | 42.272 | 17.486 | 32.323 | 2 |
| 2025-06-17T20:00:00 | 53.724518 | 6.580054 | 2.0 | 17.310 | 2 | 42.271 | 17.485 | 32.323 | 2 |
| 2025-06-17T20:01:00 | 53.724402 | 6.577871 | 2.0 | 17.288 | 2 | 42.271 | 17.467 | 32.338 | 2 |
| 2025-06-17T20:02:00 | 53.724280 | 6.575697 | 2.0 | 17.265 | 2 | 42.267 | 17.447 | 32.350 | 2 |
| 2025-06-17T20:03:00 | 53.724183 | 6.573508 | 2.0 | 17.238 | 2 | 42.267 | 17.422 | 32.370 | 2 |
| 2025-06-17T20:04:00 | 53.724083 | 6.571318 | 2.0 | 17.205 | 2 | 42.266 | 17.394 | 32.392 | 2 |
| 2025-06-17T20:05:00 | 53.723951 | 6.569138 | 2.0 | 17.183 | 2 | 42.260 | 17.366 | 32.409 | 2 |
| 2025-06-17T20:06:00 | 53.723811 | 6.566974 | 2.0 | 17.167 | 2 | 42.256 | 17.341 | 32.426 | 2 |
| 2025-06-17T20:07:00 | 53.723689 | 6.564797 | 2.0 | 17.180 | 2 | 42.257 | 17.334 | 32.432 | 2 |
| 2025-06-17T20:08:00 | 53.723579 | 6.562627 | 2.0 | 17.173 | 2 | 42.271 | 17.341 | 32.438 | 2 |
| 2025-06-17T20:09:00 | 53.723460 | 6.560454 | 2.0 | 17.154 | 2 | 42.278 | 17.333 | 32.451 | 2 |
| 2025-06-17T20:10:00 | 53.723338 | 6.558294 | 2.0 | 17.131 | 2 | 42.274 | 17.312 | 32.464 | 2 |
| 2025-06-17T20:11:00 | 53.723242 | 6.556149 | 2.0 | 17.104 | 2 | 42.265 | 17.289 | 32.475 | 2 |
| 2025-06-17T20:12:00 | 53.723163 | 6.553989 | 2.0 | 17.084 | 2 | 42.255 | 17.262 | 32.488 | 2 |
| 2025-06-17T20:13:00 | 53.723067 | 6.551833 | 2.0 | 17.088 | 2 | 42.250 | 17.247 | 32.496 | 2 |
| 2025-06-17T20:14:00 | 53.722939 | 6.549722 | 2.0 | 17.110 | 2 | 42.267 | 17.249 | 32.509 | 2 |
| 2025-06-17T20:15:00 | 53.722837 | 6.547607 | 2.0 | 17.100 | 2 | 42.293 | 17.272 | 32.513 | 2 |
| 2025-06-17T20:16:00 | 53.722735 | 6.545481 | 2.0 | 17.015 | 2 | 42.287 | 17.241 | 32.532 | 2 |
| 2025-06-17T20:17:00 | 53.722605 | 6.543364 | 2.0 | 16.963 | 2 | 42.258 | 17.167 | 32.567 | 2 |
| 2025-06-17T20:18:00 | 53.722465 | 6.541236 | 2.0 | 16.945 | 2 | 42.238 | 17.124 | 32.585 | 2 |
| 2025-06-17T20:19:00 | 53.722346 | 6.539104 | 2.0 | 16.911 | 2 | 42.231 | 17.104 | 32.595 | 2 |
| 2025-06-17T20:20:00 | 53.722250 | 6.536965 | 2.0 | 16.882 | 2 | 42.228 | 17.072 | 32.618 | 2 |
| 2025-06-17T20:21:00 | 53.722136 | 6.534834 | 2.0 | 16.842 | 2 | 42.221 | 17.044 | 32.635 | 2 |
| 2025-06-17T20:22:00 | 53.722019 | 6.532716 | 2.0 | 16.753 | 2 | 42.200 | 16.987 | 32.663 | 2 |
| 2025-06-17T20:23:00 | 53.721891 | 6.530611 | 2.0 | 16.749 | 2 | 42.170 | 16.921 | 32.690 | 2 |
| 2025-06-17T20:24:00 | 53.721778 | 6.528499 | 2.0 | 16.656 | 2 | 42.166 | 16.907 | 32.698 | 2 |
| 2025-06-17T20:25:00 | 53.721682 | 6.526391 | 2.0 | 16.642 | 2 | 42.128 | 16.829 | 32.729 | 2 |
| 2025-06-17T20:26:00 | 53.721586 | 6.524281 | 2.0 | 16.619 | 2 | 42.115 | 16.805 | 32.737 | 2 |
| 2025-06-17T20:27:00 | 53.721477 | 6.522175 | 2.0 | 16.590 | 2 | 42.107 | 16.781 | 32.750 | 2 |
| 2025-06-17T20:28:00 | 53.721361 | 6.520073 | 2.0 | 16.571 | 2 | 42.094 | 16.758 | 32.757 | 2 |
| 2025-06-17T20:29:00 | 53.721253 | 6.517978 | 2.0 | 16.543 | 2 | 42.077 | 16.732 | 32.764 | 2 |
| 2025-06-17T20:30:00 | 53.721145 | 6.515887 | 2.0 | 16.524 | 2 | 42.063 | 16.711 | 32.769 | 2 |
| 2025-06-17T20:31:00 | 53.721017 | 6.513800 | 2.0 | 16.484 | 2 | 42.053 | 16.683 | 32.783 | 2 |
| 2025-06-17T20:32:00 | 53.720895 | 6.511729 | 2.0 | 16.452 | 2 | 42.045 | 16.650 | 32.803 | 2 |
| 2025-06-17T20:33:00 | 53.720787 | 6.509655 | 2.0 | 16.413 | 2 | 42.033 | 16.614 | 32.822 | 2 |
| 2025-06-17T20:34:00 | 53.720690 | 6.507594 | 2.0 | 16.392 | 2 | 42.016 | 16.579 | 32.836 | 2 |
| 2025-06-17T20:35:00 | 53.720597 | 6.505540 | 2.0 | 16.374 | 2 | 42.005 | 16.558 | 32.844 | 2 |
| 2025-06-17T20:36:00 | 53.720487 | 6.503505 | 2.0 | 16.359 | 2 | 41.998 | 16.539 | 32.853 | 2 |
| 2025-06-17T20:37:00 | 53.720390 | 6.501488 | 2.0 | 16.336 | 2 | 41.994 | 16.521 | 32.864 | 2 |
| 2025-06-17T20:38:00 | 53.720284 | 6.499506 | 2.0 | 16.779 | 2 | 41.991 | 16.524 | 32.859 | 2 |
| 2025-06-17T20:39:00 | 53.720221 | 6.497700 | 2.0 | 16.944 | 2 | 42.197 | 16.982 | 32.664 | 2 |
| 2025-06-17T20:40:00 | 53.720178 | 6.496058 | 2.0 | 16.706 | 2 | 42.284 | 17.073 | 32.666 | 2 |
| 2025-06-17T20:41:00 | 53.720114 | 6.494590 | 2.0 | 16.863 | 2 | 42.190 | 16.857 | 32.760 | 2 |
| 2025-06-17T20:42:00 | 53.720094 | 6.493270 | 2.0 | 16.289 | 2 | 42.184 | 16.845 | 32.764 | 2 |
| 2025-06-17T20:43:00 | 53.720005 | 6.492111 | 2.0 | 16.273 | 2 | 42.008 | 16.497 | 32.896 | 2 |
| 2025-06-17T20:44:00 | 53.719973 | 6.491033 | 2.0 | 16.266 | 2 | 41.964 | 16.445 | 32.901 | 2 |
| 2025-06-17T20:45:00 | 53.719909 | 6.490028 | 2.0 | 16.261 | 2 | 41.958 | 16.435 | 32.904 | 2 |
| 2025-06-17T20:46:00 | 53.719870 | 6.489058 | 2.0 | 16.254 | 2 | 41.954 | 16.430 | 32.904 | 2 |
| 2025-06-17T20:47:00 | 53.719807 | 6.488168 | 2.0 | 16.254 | 2 | 41.950 | 16.422 | 32.907 | 2 |
| 2025-06-17T20:48:00 | 53.719747 | 6.487336 | 2.0 | 16.247 | 2 | 41.950 | 16.420 | 32.909 | 2 |
| 2025-06-17T20:49:00 | 53.719714 | 6.486561 | 2.0 | 16.246 | 2 | 41.949 | 16.414 | 32.913 | 2 |
| 2025-06-17T20:50:00 | 53.719602 | 6.485899 | 2.0 | 16.247 | 2 | 41.948 | 16.414 | 32.912 | 2 |
| 2025-06-17T20:51:00 | 53.719450 | 6.485318 | 2.0 | 16.245 | 2 | 41.947 | 16.413 | 32.912 | 2 |
| 2025-06-17T20:52:00 | 53.719346 | 6.484730 | 2.0 | 16.244 | 2 | 41.946 | 16.411 | 32.913 | 2 |
| 2025-06-17T20:53:00 | 53.719263 | 6.484170 | 2.0 | 16.635 | 2 | 41.952 | 16.434 | 32.899 | 2 |
| 2025-06-17T20:54:00 | 53.719152 | 6.483645 | 2.0 | 16.713 | 2 | 42.145 | 16.838 | 32.736 | 2 |
| 2025-06-17T20:55:00 | 53.719046 | 6.483138 | 2.0 | 16.655 | 2 | 42.188 | 16.861 | 32.755 | 2 |
| 2025-06-17T20:56:00 | 53.718972 | 6.482631 | 2.0 | 16.589 | 2 | 42.165 | 16.806 | 32.780 | 2 |
| 2025-06-17T20:57:00 | 53.718874 | 6.482168 | 2.0 | 16.592 | 2 | 42.137 | 16.760 | 32.793 | 2 |
| 2025-06-17T20:58:00 | 53.718760 | 6.481713 | 2.0 | 16.592 | 2 | 42.130 | 16.745 | 32.799 | 2 |
| 2025-06-17T20:59:00 | 53.718686 | 6.481252 | 2.0 | 16.554 | 2 | 42.130 | 16.749 | 32.796 | 2 |
| 2025-06-17T21:00:00 | 53.718602 | 6.480816 | 2.0 | 16.707 | 2 | 42.122 | 16.737 | 32.799 | 2 |
| 2025-06-17T21:01:00 | 53.718508 | 6.480390 | 2.0 | 16.725 | 2 | 42.180 | 16.857 | 32.751 | 2 |
| 2025-06-17T21:02:00 | 53.718437 | 6.479954 | 2.0 | 16.724 | 2 | 42.202 | 16.885 | 32.747 | 2 |
| 2025-06-17T21:03:00 | 53.718349 | 6.479522 | 2.0 | 16.678 | 2 | 42.193 | 16.858 | 32.762 | 2 |
| 2025-06-17T21:04:00 | 53.718251 | 6.479096 | 2.0 | 16.691 | 2 | 42.188 | 16.862 | 32.754 | 2 |
| 2025-06-17T21:05:00 | 53.718173 | 6.478657 | 2.0 | 16.643 | 2 | 42.182 | 16.834 | 32.772 | 2 |
| 2025-06-17T21:06:00 | 53.718078 | 6.478247 | 2.0 | 16.600 | 2 | 42.160 | 16.795 | 32.784 | 2 |
| 2025-06-17T21:07:00 | 53.717961 | 6.477876 | 2.0 | 16.599 | 2 | 42.147 | 16.767 | 32.796 | 2 |
| 2025-06-17T21:08:00 | 53.717883 | 6.477494 | 2.0 | 16.495 | 2 | 42.139 | 16.753 | 32.801 | 2 |
| 2025-06-17T21:09:00 | 53.717803 | 6.477114 | 2.0 | 16.530 | 2 | 42.095 | 16.669 | 32.831 | 2 |
| 2025-06-17T21:10:00 | 53.717676 | 6.476772 | 2.0 | 16.510 | 2 | 42.101 | 16.685 | 32.823 | 2 |
| 2025-06-17T21:11:00 | 53.717573 | 6.476418 | 2.0 | 16.598 | 2 | 42.103 | 16.700 | 32.813 | 2 |
| 2025-06-17T21:12:00 | 53.717505 | 6.476059 | 2.0 | 16.582 | 2 | 42.133 | 16.754 | 32.794 | 2 |
| 2025-06-17T21:13:00 | 53.717387 | 6.475745 | 2.0 | 16.535 | 2 | 42.122 | 16.736 | 32.800 | 2 |
| 2025-06-17T21:14:00 | 53.717258 | 6.475436 | 2.0 | 16.527 | 2 | 42.105 | 16.696 | 32.818 | 2 |
| 2025-06-17T21:15:00 | 53.717165 | 6.475129 | 2.0 | 16.442 | 2 | 42.098 | 16.685 | 32.820 | 2 |
| 2025-06-17T21:16:00 | 53.717050 | 6.474836 | 2.0 | 16.436 | 2 | 42.062 | 16.615 | 32.847 | 2 |
| 2025-06-17T21:17:00 | 53.716908 | 6.474572 | 2.0 | 16.389 | 2 | 42.047 | 16.593 | 32.851 | 2 |
| 2025-06-17T21:18:00 | 53.716792 | 6.474318 | 2.0 | 16.386 | 2 | 42.025 | 16.552 | 32.866 | 2 |
| 2025-06-17T21:19:00 | 53.716672 | 6.474082 | 2.0 | 16.359 | 2 | 42.025 | 16.557 | 32.862 | 2 |
| 2025-06-17T21:20:00 | 53.716539 | 6.473857 | 2.0 | 16.397 | 2 | 42.012 | 16.521 | 32.880 | 2 |
| 2025-06-17T21:21:00 | 53.716413 | 6.473611 | 2.0 | 16.278 | 2 | 42.023 | 16.556 | 32.861 | 2 |
| 2025-06-17T21:22:00 | 53.716264 | 6.473383 | 2.0 | 16.217 | 2 | 41.970 | 16.422 | 32.925 | 2 |
| 2025-06-17T21:23:00 | 53.716095 | 6.473193 | 2.0 | 16.214 | 2 | 41.943 | 16.386 | 32.931 | 2 |
| 2025-06-17T21:24:00 | 53.715953 | 6.472994 | 2.0 | 16.212 | 2 | 41.938 | 16.382 | 32.930 | 2 |
| 2025-06-17T21:25:00 | 53.715812 | 6.472792 | 2.0 | 16.211 | 2 | 41.939 | 16.378 | 32.934 | 2 |
| 2025-06-17T21:26:00 | 53.715650 | 6.472599 | 2.0 | 16.210 | 2 | 41.938 | 16.377 | 32.934 | 2 |
| 2025-06-17T21:27:00 | 53.715498 | 6.472383 | 2.0 | 16.209 | 2 | 41.938 | 16.376 | 32.935 | 2 |
| 2025-06-17T21:28:00 | 53.715320 | 6.472178 | 2.0 | 16.206 | 2 | 41.937 | 16.375 | 32.935 | 2 |
| 2025-06-17T21:29:00 | 53.715140 | 6.471974 | 2.0 | 16.210 | 2 | 41.932 | 16.372 | 32.933 | 2 |
| 2025-06-17T21:30:00 | 53.714977 | 6.471774 | 2.0 | 16.206 | 2 | 41.936 | 16.375 | 32.934 | 2 |
| 2025-06-17T21:31:00 | 53.714789 | 6.471597 | 2.0 | 16.207 | 2 | 41.935 | 16.373 | 32.935 | 2 |
| 2025-06-17T21:32:00 | 53.714614 | 6.471410 | 2.0 | 16.203 | 2 | 41.936 | 16.372 | 32.936 | 2 |
| 2025-06-17T21:33:00 | 53.714457 | 6.471220 | 2.0 | 16.202 | 2 | 41.933 | 16.369 | 32.936 | 2 |
| 2025-06-17T21:34:00 | 53.714276 | 6.471059 | 2.0 | 16.204 | 2 | 41.934 | 16.369 | 32.937 | 2 |
| 2025-06-17T21:35:00 | 53.714085 | 6.470938 | 2.0 | 16.203 | 2 | 41.936 | 16.370 | 32.938 | 2 |
| 2025-06-17T21:36:00 | 53.713943 | 6.470816 | 2.0 | 16.200 | 2 | 41.934 | 16.368 | 32.938 | 2 |
| 2025-06-17T21:37:00 | 53.713826 | 6.470689 | 2.0 | 16.205 | 2 | 41.933 | 16.366 | 32.939 | 2 |
| 2025-06-17T21:38:00 | 53.713691 | 6.470571 | 2.0 | 16.206 | 2 | 41.938 | 16.370 | 32.940 | 2 |
| 2025-06-17T21:39:00 | 53.713579 | 6.470452 | 2.0 | 16.202 | 2 | 41.937 | 16.370 | 32.939 | 2 |
| 2025-06-17T21:40:00 | 53.713481 | 6.470328 | 2.0 | 16.201 | 2 | 41.936 | 16.367 | 32.940 | 2 |
| 2025-06-17T21:41:00 | 53.713348 | 6.470217 | 2.0 | 16.203 | 2 | 41.936 | 16.367 | 32.940 | 2 |
| 2025-06-17T21:42:00 | 53.713221 | 6.470122 | 2.0 | 16.205 | 2 | 41.938 | 16.369 | 32.941 | 2 |
| 2025-06-17T21:43:00 | 53.713102 | 6.470033 | 2.0 | 16.200 | 2 | 41.942 | 16.369 | 32.944 | 2 |
| 2025-06-17T21:44:00 | 53.712967 | 6.469945 | 2.0 | 16.202 | 2 | 41.938 | 16.366 | 32.943 | 2 |
| 2025-06-17T21:45:00 | 53.712851 | 6.469854 | 2.0 | 16.199 | 2 | 41.938 | 16.367 | 32.942 | 2 |
| 2025-06-17T21:46:00 | 53.712749 | 6.469769 | 2.0 | 16.203 | 2 | 41.937 | 16.366 | 32.942 | 2 |
| 2025-06-17T21:47:00 | 53.712608 | 6.469698 | 2.0 | 16.203 | 2 | 41.938 | 16.367 | 32.942 | 2 |
| 2025-06-17T21:48:00 | 53.712450 | 6.469638 | 2.0 | 16.202 | 2 | 41.939 | 16.368 | 32.942 | 2 |
| 2025-06-17T21:49:00 | 53.712338 | 6.469565 | 2.0 | 16.203 | 2 | 41.937 | 16.367 | 32.941 | 2 |
| 2025-06-17T21:50:00 | 53.712246 | 6.469491 | 2.0 | 16.206 | 2 | 41.939 | 16.369 | 32.941 | 2 |
| 2025-06-17T21:51:00 | 53.712128 | 6.469419 | 2.0 | 16.205 | 2 | 41.940 | 16.370 | 32.942 | 2 |
| 2025-06-17T21:52:00 | 53.712041 | 6.469340 | 2.0 | 16.204 | 2 | 41.941 | 16.370 | 32.942 | 2 |
| 2025-06-17T21:53:00 | 53.712016 | 6.469272 | 2.0 | 16.204 | 2 | 41.940 | 16.368 | 32.943 | 2 |
| 2025-06-17T21:54:00 | 53.711983 | 6.469208 | 2.0 | 16.202 | 2 | 41.940 | 16.368 | 32.943 | 2 |
| 2025-06-17T21:55:00 | 53.711933 | 6.469138 | 2.0 | 16.203 | 2 | 41.941 | 16.367 | 32.945 | 2 |
| 2025-06-17T21:56:00 | 53.711916 | 6.469081 | 2.0 | 16.199 | 2 | 41.941 | 16.367 | 32.945 | 2 |
| 2025-06-17T21:57:00 | 53.711892 | 6.469023 | 2.0 | 16.198 | 2 | 41.937 | 16.363 | 32.945 | 2 |
| 2025-06-17T21:58:00 | 53.711861 | 6.468969 | 2.0 | 16.198 | 2 | 41.937 | 16.364 | 32.944 | 2 |
| 2025-06-17T21:59:00 | 53.711871 | 6.468912 | 2.0 | 16.197 | 2 | 41.936 | 16.362 | 32.945 | 2 |
| 2025-06-17T22:00:00 | 53.711906 | 6.468867 | 2.0 | 16.199 | 2 | 41.938 | 16.363 | 32.946 | 2 |
| 2025-06-17T22:01:00 | 53.711902 | 6.468831 | 2.0 | 16.197 | 2 | 41.939 | 16.363 | 32.946 | 2 |
| 2025-06-17T22:02:00 | 53.711913 | 6.468800 | 2.0 | 16.198 | 2 | 41.940 | 16.362 | 32.948 | 2 |
| 2025-06-17T22:03:00 | 53.711965 | 6.468781 | 2.0 | 16.196 | 2 | 41.942 | 16.363 | 32.949 | 2 |
| 2025-06-17T22:04:00 | 53.711996 | 6.468783 | 2.0 | 16.197 | 2 | 41.941 | 16.361 | 32.950 | 2 |
| 2025-06-17T22:05:00 | 53.711991 | 6.468799 | 2.0 | 16.188 | 2 | 41.940 | 16.359 | 32.951 | 2 |
| 2025-06-17T22:06:00 | 53.712013 | 6.468822 | 2.0 | 16.195 | 2 | 41.936 | 16.356 | 32.950 | 2 |
| 2025-06-17T22:07:00 | 53.712068 | 6.468875 | 2.0 | 16.192 | 2 | 41.940 | 16.358 | 32.951 | 2 |
| 2025-06-17T22:08:00 | 53.712093 | 6.468941 | 2.0 | 16.195 | 2 | 41.941 | 16.357 | 32.953 | 2 |
| 2025-06-17T22:09:00 | 53.712103 | 6.469017 | 2.0 | 16.195 | 2 | 41.943 | 16.357 | 32.955 | 2 |
| 2025-06-17T22:10:00 | 53.712133 | 6.469097 | 2.0 | 16.196 | 2 | 41.948 | 16.360 | 32.957 | 2 |
| 2025-06-17T22:11:00 | 53.712156 | 6.469185 | 2.0 | 16.195 | 2 | 41.950 | 16.360 | 32.959 | 2 |
| 2025-06-17T22:12:00 | 53.712163 | 6.469261 | 2.0 | 16.193 | 2 | 41.949 | 16.358 | 32.959 | 2 |
| 2025-06-17T22:13:00 | 53.712189 | 6.469323 | 2.0 | 16.193 | 2 | 41.950 | 16.358 | 32.960 | 2 |
| 2025-06-17T22:14:00 | 53.712207 | 6.469384 | 2.0 | 16.196 | 2 | 41.951 | 16.358 | 32.961 | 2 |
| 2025-06-17T22:15:00 | 53.712209 | 6.469451 | 2.0 | 16.195 | 2 | 41.954 | 16.360 | 32.962 | 2 |
| 2025-06-17T22:16:00 | 53.712233 | 6.469518 | 2.0 | 16.197 | 2 | 41.953 | 16.358 | 32.963 | 2 |
| 2025-06-17T22:17:00 | 53.712254 | 6.469580 | 2.0 | 16.197 | 2 | 41.956 | 16.360 | 32.964 | 2 |
| 2025-06-17T22:18:00 | 53.712271 | 6.469606 | 2.0 | 16.195 | 2 | 41.956 | 16.360 | 32.964 | 2 |
| 2025-06-17T22:19:00 | 53.712297 | 6.469590 | 2.0 | 16.198 | 2 | 41.956 | 16.359 | 32.965 | 2 |
| 2025-06-17T22:20:00 | 53.712298 | 6.469537 | 2.0 | 16.198 | 2 | 41.959 | 16.360 | 32.966 | 2 |
| 2025-06-17T22:21:00 | 53.712341 | 6.469464 | 2.0 | 16.200 | 2 | 41.959 | 16.362 | 32.965 | 2 |
| 2025-06-17T22:22:00 | 53.712364 | 6.469377 | 2.0 | 16.196 | 2 | 41.961 | 16.363 | 32.966 | 2 |
| 2025-06-17T22:23:00 | 53.712391 | 6.469276 | 2.0 | 16.190 | 2 | 41.958 | 16.358 | 32.967 | 2 |
| 2025-06-17T22:24:00 | 53.712436 | 6.469183 | 2.0 | 16.188 | 2 | 41.954 | 16.354 | 32.967 | 2 |
| 2025-06-17T22:25:00 | 53.712464 | 6.469083 | 2.0 | 16.189 | 2 | 41.952 | 16.353 | 32.966 | 2 |
| 2025-06-17T22:26:00 | 53.712518 | 6.468981 | 2.0 | 16.188 | 2 | 41.952 | 16.353 | 32.966 | 2 |
| 2025-06-17T22:27:00 | 53.712549 | 6.468876 | 2.0 | 16.185 | 2 | 41.953 | 16.352 | 32.968 | 2 |
| 2025-06-17T22:28:00 | 53.712598 | 6.468764 | 2.0 | 16.181 | 2 | 41.948 | 16.349 | 32.966 | 2 |
| 2025-06-17T22:29:00 | 53.712626 | 6.468637 | 2.0 | 16.183 | 2 | 41.945 | 16.345 | 32.967 | 2 |
| 2025-06-17T22:30:00 | 53.712683 | 6.468517 | 2.0 | 16.181 | 2 | 41.945 | 16.347 | 32.965 | 2 |
| 2025-06-17T22:31:00 | 53.712708 | 6.468391 | 2.0 | 16.171 | 2 | 41.943 | 16.344 | 32.966 | 2 |
| 2025-06-17T22:32:00 | 53.712760 | 6.468271 | 2.0 | 16.174 | 2 | 41.936 | 16.335 | 32.967 | 2 |
| 2025-06-17T22:33:00 | 53.712806 | 6.468153 | 2.0 | 16.173 | 2 | 41.937 | 16.337 | 32.966 | 2 |
| 2025-06-17T22:34:00 | 53.712858 | 6.468029 | 2.0 | 16.172 | 2 | 41.937 | 16.336 | 32.967 | 2 |
| 2025-06-17T22:35:00 | 53.712902 | 6.467907 | 2.0 | 16.174 | 2 | 41.937 | 16.336 | 32.967 | 2 |
| 2025-06-17T22:36:00 | 53.712966 | 6.467786 | 2.0 | 16.170 | 2 | 41.939 | 16.338 | 32.967 | 2 |
| 2025-06-17T22:37:00 | 53.713013 | 6.467678 | 2.0 | 16.176 | 2 | 41.937 | 16.335 | 32.968 | 2 |
| 2025-06-17T22:38:00 | 53.713055 | 6.467575 | 2.0 | 16.174 | 2 | 41.942 | 16.340 | 32.968 | 2 |
| 2025-06-17T22:39:00 | 53.713102 | 6.467468 | 2.0 | 16.176 | 2 | 41.940 | 16.337 | 32.969 | 2 |
| 2025-06-17T22:40:00 | 53.713142 | 6.467351 | 2.0 | 16.173 | 2 | 41.942 | 16.339 | 32.969 | 2 |
| 2025-06-17T22:41:00 | 53.713192 | 6.467224 | 2.0 | 16.176 | 2 | 41.942 | 16.338 | 32.970 | 2 |
| 2025-06-17T22:42:00 | 53.713244 | 6.467079 | 2.0 | 16.173 | 2 | 41.942 | 16.338 | 32.970 | 2 |
| 2025-06-17T22:43:00 | 53.713300 | 6.466927 | 2.0 | 16.178 | 2 | 41.943 | 16.339 | 32.970 | 2 |
| 2025-06-17T22:44:00 | 53.713340 | 6.466772 | 2.0 | 16.176 | 2 | 41.945 | 16.340 | 32.971 | 2 |
| 2025-06-17T22:45:00 | 53.713407 | 6.466615 | 2.0 | 16.182 | 2 | 41.945 | 16.340 | 32.971 | 2 |
| 2025-06-17T22:46:00 | 53.713446 | 6.466465 | 2.0 | 16.175 | 2 | 41.950 | 16.345 | 32.971 | 2 |
| 2025-06-17T22:47:00 | 53.713479 | 6.466317 | 2.0 | 16.176 | 2 | 41.947 | 16.340 | 32.972 | 2 |
| 2025-06-17T22:48:00 | 53.713495 | 6.466168 | 2.0 | 16.179 | 2 | 41.945 | 16.339 | 32.972 | 2 |
| 2025-06-17T22:49:00 | 53.713509 | 6.466021 | 2.0 | 16.179 | 2 | 41.948 | 16.341 | 32.973 | 2 |
| 2025-06-17T22:50:00 | 53.713527 | 6.465870 | 2.0 | 16.177 | 2 | 41.952 | 16.344 | 32.974 | 2 |
| 2025-06-17T22:51:00 | 53.713541 | 6.465711 | 2.0 | 16.179 | 2 | 41.949 | 16.340 | 32.974 | 2 |
| 2025-06-17T22:52:00 | 53.713561 | 6.465562 | 2.0 | 16.181 | 2 | 41.954 | 16.344 | 32.975 | 2 |
| 2025-06-17T22:53:00 | 53.713568 | 6.465402 | 2.0 | 16.185 | 2 | 41.956 | 16.346 | 32.975 | 2 |
| 2025-06-17T22:54:00 | 53.713587 | 6.465247 | 2.0 | 16.182 | 2 | 41.958 | 16.347 | 32.976 | 2 |
| 2025-06-17T22:55:00 | 53.713589 | 6.465088 | 2.0 | 16.188 | 2 | 41.959 | 16.347 | 32.977 | 2 |
| 2025-06-17T22:56:00 | 53.713614 | 6.464928 | 2.0 | 16.183 | 2 | 41.962 | 16.351 | 32.977 | 2 |
| 2025-06-17T22:57:00 | 53.713603 | 6.464765 | 2.0 | 16.180 | 2 | 41.960 | 16.346 | 32.979 | 2 |
| 2025-06-17T22:58:00 | 53.713628 | 6.464616 | 2.0 | 16.184 | 2 | 41.958 | 16.344 | 32.979 | 2 |
| 2025-06-17T22:59:00 | 53.713639 | 6.464479 | 2.0 | 16.189 | 2 | 41.963 | 16.348 | 32.980 | 2 |
| 2025-06-17T23:00:00 | 53.713642 | 6.464337 | 2.0 | 16.187 | 2 | 41.967 | 16.352 | 32.980 | 2 |
| 2025-06-17T23:01:00 | 53.713689 | 6.464210 | 2.0 | 16.187 | 2 | 41.966 | 16.350 | 32.981 | 2 |
| 2025-06-17T23:02:00 | 53.713700 | 6.464080 | 2.0 | 16.183 | 2 | 41.966 | 16.349 | 32.982 | 2 |
| 2025-06-17T23:03:00 | 53.713746 | 6.463955 | 2.0 | 16.184 | 2 | 41.966 | 16.349 | 32.982 | 2 |
| 2025-06-17T23:04:00 | 53.713779 | 6.463830 | 2.0 | 16.191 | 2 | 41.967 | 16.349 | 32.983 | 2 |
| 2025-06-17T23:05:00 | 53.713808 | 6.463701 | 2.0 | 16.195 | 2 | 41.974 | 16.356 | 32.983 | 2 |
| 2025-06-17T23:06:00 | 53.713865 | 6.463608 | 2.0 | 16.188 | 2 | 41.977 | 16.358 | 32.984 | 2 |
| 2025-06-17T23:07:00 | 53.713868 | 6.463516 | 2.0 | 16.196 | 2 | 41.973 | 16.353 | 32.985 | 2 |
| 2025-06-17T23:08:00 | 53.713900 | 6.463422 | 2.0 | 16.198 | 2 | 41.980 | 16.360 | 32.985 | 2 |
| 2025-06-17T23:09:00 | 53.713931 | 6.463331 | 2.0 | 16.195 | 2 | 41.981 | 16.359 | 32.987 | 2 |
| 2025-06-17T23:10:00 | 53.713935 | 6.463231 | 2.0 | 16.190 | 2 | 41.980 | 16.357 | 32.987 | 2 |
| 2025-06-17T23:11:00 | 53.713991 | 6.463141 | 2.0 | 16.199 | 2 | 41.977 | 16.354 | 32.987 | 2 |
| 2025-06-17T23:12:00 | 53.713996 | 6.463059 | 2.0 | 16.203 | 2 | 41.986 | 16.362 | 32.988 | 2 |
| 2025-06-17T23:13:00 | 53.714010 | 6.462967 | 2.0 | 16.206 | 2 | 41.991 | 16.367 | 32.989 | 2 |
| 2025-06-17T23:14:00 | 53.714036 | 6.462860 | 2.0 | 16.206 | 2 | 41.994 | 16.368 | 32.991 | 2 |
| 2025-06-17T23:15:00 | 53.714056 | 6.462738 | 2.0 | 16.209 | 2 | 41.998 | 16.370 | 32.992 | 2 |
| 2025-06-17T23:16:00 | 53.714099 | 6.462623 | 2.0 | 16.210 | 2 | 42.003 | 16.373 | 32.994 | 2 |
| 2025-06-17T23:17:00 | 53.714115 | 6.462496 | 2.0 | 16.213 | 2 | 42.004 | 16.374 | 32.994 | 2 |
| 2025-06-17T23:18:00 | 53.714168 | 6.462375 | 2.0 | 16.217 | 2 | 42.007 | 16.377 | 32.995 | 2 |
| 2025-06-17T23:19:00 | 53.714197 | 6.462252 | 2.0 | 16.217 | 2 | 42.012 | 16.379 | 32.997 | 2 |
| 2025-06-17T23:20:00 | 53.714248 | 6.462124 | 2.0 | 16.216 | 2 | 42.014 | 16.380 | 32.998 | 2 |
| 2025-06-17T23:21:00 | 53.714284 | 6.461997 | 2.0 | 16.219 | 2 | 42.013 | 16.379 | 32.998 | 2 |
| 2025-06-17T23:22:00 | 53.714336 | 6.461876 | 2.0 | 16.216 | 2 | 42.016 | 16.381 | 32.999 | 2 |
| 2025-06-17T23:23:00 | 53.714378 | 6.461748 | 2.0 | 16.214 | 2 | 42.016 | 16.379 | 33.001 | 2 |
| 2025-06-17T23:24:00 | 53.714436 | 6.461606 | 2.0 | 16.216 | 2 | 42.016 | 16.378 | 33.002 | 2 |
| 2025-06-17T23:25:00 | 53.714480 | 6.461463 | 2.0 | 16.216 | 2 | 42.016 | 16.378 | 33.002 | 2 |
| 2025-06-17T23:26:00 | 53.714525 | 6.461310 | 2.0 | 16.213 | 2 | 42.016 | 16.378 | 33.002 | 2 |
| 2025-06-17T23:27:00 | 53.714585 | 6.461159 | 2.0 | 16.211 | 2 | 42.015 | 16.377 | 33.002 | 2 |
| 2025-06-17T23:28:00 | 53.714630 | 6.461004 | 2.0 | 16.212 | 2 | 42.014 | 16.374 | 33.003 | 2 |
| 2025-06-17T23:29:00 | 53.714685 | 6.460838 | 2.0 | 16.209 | 2 | 42.015 | 16.375 | 33.003 | 2 |
| 2025-06-17T23:30:00 | 53.714729 | 6.460673 | 2.0 | 16.206 | 2 | 42.013 | 16.371 | 33.005 | 2 |
| 2025-06-17T23:31:00 | 53.714795 | 6.460507 | 2.0 | 16.205 | 2 | 42.011 | 16.369 | 33.005 | 2 |
| 2025-06-17T23:32:00 | 53.714855 | 6.460350 | 2.0 | 16.206 | 2 | 42.011 | 16.368 | 33.005 | 2 |
| 2025-06-17T23:33:00 | 53.714924 | 6.460215 | 2.0 | 16.201 | 2 | 42.011 | 16.368 | 33.005 | 2 |
| 2025-06-17T23:34:00 | 53.714976 | 6.460086 | 2.0 | 16.199 | 2 | 42.007 | 16.363 | 33.006 | 2 |
| 2025-06-17T23:35:00 | 53.715060 | 6.459958 | 2.0 | 16.198 | 2 | 42.006 | 16.362 | 33.006 | 2 |
| 2025-06-17T23:36:00 | 53.715119 | 6.459816 | 2.0 | 16.195 | 2 | 42.005 | 16.360 | 33.007 | 2 |
| 2025-06-17T23:37:00 | 53.715193 | 6.459670 | 2.0 | 16.193 | 2 | 42.004 | 16.358 | 33.008 | 2 |
| 2025-06-17T23:38:00 | 53.715241 | 6.459519 | 2.0 | 16.195 | 2 | 42.002 | 16.356 | 33.008 | 2 |
| 2025-06-17T23:39:00 | 53.715303 | 6.459363 | 2.0 | 16.193 | 2 | 42.004 | 16.358 | 33.008 | 2 |
| 2025-06-17T23:40:00 | 53.715355 | 6.459185 | 2.0 | 16.194 | 2 | 42.003 | 16.357 | 33.008 | 2 |
| 2025-06-17T23:41:00 | 53.715430 | 6.459006 | 2.0 | 16.187 | 2 | 42.003 | 16.356 | 33.008 | 2 |
| 2025-06-17T23:42:00 | 53.715486 | 6.458824 | 2.0 | 16.184 | 2 | 41.999 | 16.351 | 33.009 | 2 |
| 2025-06-17T23:43:00 | 53.715570 | 6.458636 | 2.0 | 16.187 | 2 | 41.997 | 16.348 | 33.010 | 2 |
| 2025-06-17T23:44:00 | 53.715621 | 6.458443 | 2.0 | 16.183 | 2 | 41.998 | 16.348 | 33.011 | 2 |
| 2025-06-17T23:45:00 | 53.715688 | 6.458242 | 2.0 | 16.179 | 2 | 41.996 | 16.345 | 33.011 | 2 |
| 2025-06-17T23:46:00 | 53.715727 | 6.458046 | 2.0 | 16.175 | 2 | 41.993 | 16.342 | 33.011 | 2 |
| 2025-06-17T23:47:00 | 53.715765 | 6.457834 | 2.0 | 16.170 | 2 | 41.991 | 16.338 | 33.013 | 2 |
| 2025-06-17T23:48:00 | 53.715817 | 6.457613 | 2.0 | 16.174 | 2 | 41.987 | 16.333 | 33.013 | 2 |
| 2025-06-17T23:49:00 | 53.715851 | 6.457374 | 2.0 | 16.175 | 2 | 41.990 | 16.337 | 33.013 | 2 |
| 2025-06-17T23:50:00 | 53.715900 | 6.457125 | 2.0 | 16.171 | 2 | 41.990 | 16.337 | 33.013 | 2 |
| 2025-06-17T23:51:00 | 53.715927 | 6.456870 | 2.0 | 16.169 | 2 | 41.988 | 16.334 | 33.013 | 2 |
| 2025-06-17T23:52:00 | 53.715977 | 6.456605 | 2.0 | 16.168 | 2 | 41.987 | 16.331 | 33.015 | 2 |
| 2025-06-17T23:53:00 | 53.716009 | 6.456329 | 2.0 | 16.167 | 2 | 41.986 | 16.330 | 33.015 | 2 |
| 2025-06-17T23:54:00 | 53.716067 | 6.456044 | 2.0 | 16.169 | 2 | 41.987 | 16.331 | 33.015 | 2 |
| 2025-06-17T23:55:00 | 53.716098 | 6.455760 | 2.0 | 16.170 | 2 | 41.989 | 16.332 | 33.016 | 2 |
| 2025-06-17T23:56:00 | 53.716163 | 6.455468 | 2.0 | 16.168 | 2 | 41.991 | 16.332 | 33.018 | 2 |
| 2025-06-17T23:57:00 | 53.716183 | 6.455168 | 2.0 | 16.169 | 2 | 41.991 | 16.331 | 33.019 | 2 |
| 2025-06-17T23:58:00 | 53.716241 | 6.454867 | 2.0 | 16.171 | 2 | 41.994 | 16.332 | 33.020 | 2 |
| 2025-06-17T23:59:00 | 53.716283 | 6.454573 | 2.0 | 16.170 | 2 | 41.996 | 16.334 | 33.020 | 2 |
| 2025-06-18T00:00:00 | 53.716319 | 6.454268 | 2.0 | 16.172 | 2 | 41.997 | 16.333 | 33.022 | 2 |
| 2025-06-18T00:01:00 | 53.716398 | 6.453962 | 2.0 | 16.170 | 2 | 41.999 | 16.335 | 33.022 | 2 |
| 2025-06-18T00:02:00 | 53.716414 | 6.453657 | 2.0 | 16.168 | 2 | 42.001 | 16.333 | 33.026 | 2 |
| 2025-06-18T00:03:00 | 53.716467 | 6.453356 | 2.0 | 16.172 | 2 | 42.001 | 16.331 | 33.027 | 2 |
| 2025-06-18T00:04:00 | 53.716513 | 6.453065 | 2.0 | 16.171 | 2 | 42.005 | 16.334 | 33.028 | 2 |
| 2025-06-18T00:05:00 | 53.716568 | 6.452768 | 2.0 | 16.173 | 2 | 42.006 | 16.334 | 33.029 | 2 |
| 2025-06-18T00:06:00 | 53.716612 | 6.452472 | 2.0 | 16.171 | 2 | 42.009 | 16.335 | 33.031 | 2 |
| 2025-06-18T00:07:00 | 53.716640 | 6.452178 | 2.0 | 16.171 | 2 | 42.011 | 16.334 | 33.034 | 2 |
| 2025-06-18T00:08:00 | 53.716696 | 6.451884 | 2.0 | 16.173 | 2 | 42.012 | 16.334 | 33.035 | 2 |
| 2025-06-18T00:09:00 | 53.716733 | 6.451586 | 2.0 | 16.171 | 2 | 42.014 | 16.335 | 33.035 | 2 |
| 2025-06-18T00:10:00 | 53.716781 | 6.451280 | 2.0 | 16.173 | 2 | 42.015 | 16.334 | 33.037 | 2 |
| 2025-06-18T00:11:00 | 53.716816 | 6.450964 | 2.0 | 16.171 | 2 | 42.017 | 16.335 | 33.038 | 2 |
| 2025-06-18T00:12:00 | 53.716852 | 6.450638 | 2.0 | 16.169 | 2 | 42.017 | 16.333 | 33.040 | 2 |
| 2025-06-18T00:13:00 | 53.716882 | 6.450307 | 2.0 | 16.169 | 2 | 42.017 | 16.332 | 33.041 | 2 |
| 2025-06-18T00:14:00 | 53.716902 | 6.449970 | 2.0 | 16.165 | 2 | 42.017 | 16.331 | 33.041 | 2 |
| 2025-06-18T00:15:00 | 53.716928 | 6.449636 | 2.0 | 16.160 | 2 | 42.017 | 16.328 | 33.044 | 2 |
| 2025-06-18T00:16:00 | 53.716941 | 6.449295 | 2.0 | 16.154 | 2 | 42.015 | 16.322 | 33.047 | 2 |
| 2025-06-18T00:17:00 | 53.716965 | 6.448944 | 2.0 | 16.145 | 2 | 42.012 | 16.315 | 33.050 | 2 |
| 2025-06-18T00:18:00 | 53.716995 | 6.448594 | 2.0 | 16.142 | 2 | 42.009 | 16.308 | 33.053 | 2 |
| 2025-06-18T00:19:00 | 53.716995 | 6.448253 | 2.0 | 16.140 | 2 | 42.008 | 16.306 | 33.054 | 2 |
| 2025-06-18T00:20:00 | 53.717037 | 6.447911 | 2.0 | 16.139 | 2 | 42.007 | 16.303 | 33.056 | 2 |
| 2025-06-18T00:21:00 | 53.717049 | 6.447564 | 2.0 | 16.130 | 2 | 42.007 | 16.301 | 33.057 | 2 |
| 2025-06-18T00:22:00 | 53.717100 | 6.447209 | 2.0 | 16.123 | 2 | 42.001 | 16.291 | 33.061 | 2 |
| 2025-06-18T00:23:00 | 53.717100 | 6.446872 | 2.0 | 16.124 | 2 | 41.999 | 16.287 | 33.062 | 2 |
| 2025-06-18T00:24:00 | 53.717148 | 6.446545 | 2.0 | 16.124 | 2 | 42.000 | 16.287 | 33.063 | 2 |
| 2025-06-18T00:25:00 | 53.717177 | 6.446236 | 2.0 | 16.119 | 2 | 42.000 | 16.286 | 33.064 | 2 |
| 2025-06-18T00:26:00 | 53.717167 | 6.445932 | 2.0 | 16.118 | 2 | 41.996 | 16.281 | 33.064 | 2 |
| 2025-06-18T00:27:00 | 53.717200 | 6.445622 | 2.0 | 16.121 | 2 | 41.998 | 16.282 | 33.065 | 2 |
| 2025-06-18T00:28:00 | 53.717193 | 6.445306 | 2.0 | 16.125 | 2 | 42.001 | 16.286 | 33.065 | 2 |
| 2025-06-18T00:29:00 | 53.717232 | 6.444993 | 2.0 | 16.125 | 2 | 42.003 | 16.287 | 33.066 | 2 |
| 2025-06-18T00:30:00 | 53.717230 | 6.444681 | 2.0 | 16.128 | 2 | 42.004 | 16.289 | 33.065 | 2 |
| 2025-06-18T00:31:00 | 53.717250 | 6.444370 | 2.0 | 16.133 | 2 | 42.006 | 16.291 | 33.065 | 2 |
| 2025-06-18T00:32:00 | 53.717251 | 6.444057 | 2.0 | 16.133 | 2 | 42.008 | 16.296 | 33.063 | 2 |
| 2025-06-18T00:33:00 | 53.717272 | 6.443742 | 2.0 | 16.134 | 2 | 42.008 | 16.296 | 33.063 | 2 |
| 2025-06-18T00:34:00 | 53.717275 | 6.443430 | 2.0 | 16.135 | 2 | 42.008 | 16.297 | 33.062 | 2 |
| 2025-06-18T00:35:00 | 53.717284 | 6.443111 | 2.0 | 16.140 | 2 | 42.007 | 16.300 | 33.058 | 2 |
| 2025-06-18T00:36:00 | 53.717300 | 6.442790 | 2.0 | 16.145 | 2 | 42.008 | 16.303 | 33.057 | 2 |
| 2025-06-18T00:37:00 | 53.717301 | 6.442469 | 2.0 | 16.147 | 2 | 42.007 | 16.307 | 33.053 | 2 |
| 2025-06-18T00:38:00 | 53.717324 | 6.442158 | 2.0 | 16.148 | 2 | 42.008 | 16.309 | 33.052 | 2 |
| 2025-06-18T00:39:00 | 53.717328 | 6.441850 | 2.0 | 16.152 | 2 | 42.005 | 16.311 | 33.047 | 2 |
| 2025-06-18T00:40:00 | 53.717364 | 6.441545 | 2.0 | 16.150 | 2 | 42.005 | 16.313 | 33.046 | 2 |
| 2025-06-18T00:41:00 | 53.717370 | 6.441249 | 2.0 | 16.152 | 2 | 42.003 | 16.313 | 33.044 | 2 |
| 2025-06-18T00:42:00 | 53.717400 | 6.440957 | 2.0 | 16.150 | 2 | 41.999 | 16.313 | 33.040 | 2 |
| 2025-06-18T00:43:00 | 53.717396 | 6.440677 | 2.0 | 16.154 | 2 | 41.998 | 16.314 | 33.039 | 2 |
| 2025-06-18T00:44:00 | 53.717433 | 6.440398 | 2.0 | 16.155 | 2 | 41.998 | 16.316 | 33.037 | 2 |
| 2025-06-18T00:45:00 | 53.717439 | 6.440125 | 2.0 | 16.157 | 2 | 41.999 | 16.317 | 33.037 | 2 |
| 2025-06-18T00:46:00 | 53.717475 | 6.439844 | 2.0 | 16.159 | 2 | 42.000 | 16.319 | 33.036 | 2 |
| 2025-06-18T00:47:00 | 53.717487 | 6.439564 | 2.0 | 16.159 | 2 | 41.999 | 16.321 | 33.034 | 2 |
| 2025-06-18T00:48:00 | 53.717506 | 6.439285 | 2.0 | 16.160 | 2 | 41.996 | 16.321 | 33.031 | 2 |
| 2025-06-18T00:49:00 | 53.717533 | 6.439000 | 2.0 | 16.161 | 2 | 41.995 | 16.322 | 33.030 | 2 |
| 2025-06-18T00:50:00 | 53.717542 | 6.438708 | 2.0 | 16.162 | 2 | 41.993 | 16.323 | 33.027 | 2 |
| 2025-06-18T00:51:00 | 53.717573 | 6.438412 | 2.0 | 16.163 | 2 | 41.992 | 16.324 | 33.025 | 2 |
| 2025-06-18T00:52:00 | 53.717584 | 6.438113 | 2.0 | 16.165 | 2 | 41.989 | 16.326 | 33.021 | 2 |
| 2025-06-18T00:53:00 | 53.717620 | 6.437809 | 2.0 | 16.167 | 2 | 41.991 | 16.328 | 33.021 | 2 |
| 2025-06-18T00:54:00 | 53.717619 | 6.437500 | 2.0 | 16.167 | 2 | 41.990 | 16.329 | 33.019 | 2 |
| 2025-06-18T00:55:00 | 53.717678 | 6.437191 | 2.0 | 16.169 | 2 | 41.985 | 16.329 | 33.015 | 2 |
| 2025-06-18T00:56:00 | 53.717691 | 6.436887 | 2.0 | 16.173 | 2 | 41.983 | 16.331 | 33.012 | 2 |
| 2025-06-18T00:57:00 | 53.717734 | 6.436580 | 2.0 | 16.175 | 2 | 41.981 | 16.335 | 33.006 | 2 |
| 2025-06-18T00:58:00 | 53.717749 | 6.436278 | 2.0 | 16.174 | 2 | 41.978 | 16.336 | 33.003 | 2 |
| 2025-06-18T00:59:00 | 53.717785 | 6.435976 | 2.0 | 16.177 | 2 | 41.978 | 16.336 | 33.003 | 2 |
| 2025-06-18T01:00:00 | 53.717803 | 6.435675 | 2.0 | 16.179 | 2 | 41.977 | 16.339 | 33.000 | 2 |
| 2025-06-18T01:01:00 | 53.717835 | 6.435376 | 2.0 | 16.181 | 2 | 41.976 | 16.341 | 32.997 | 2 |
| 2025-06-18T01:02:00 | 53.717847 | 6.435084 | 2.0 | 16.182 | 2 | 41.975 | 16.343 | 32.995 | 2 |
| 2025-06-18T01:03:00 | 53.717863 | 6.434782 | 2.0 | 16.185 | 2 | 41.973 | 16.344 | 32.992 | 2 |
| 2025-06-18T01:04:00 | 53.717880 | 6.434468 | 2.0 | 16.186 | 2 | 41.975 | 16.347 | 32.991 | 2 |
| 2025-06-18T01:05:00 | 53.717901 | 6.434136 | 2.0 | 16.188 | 2 | 41.971 | 16.349 | 32.986 | 2 |
| 2025-06-18T01:06:00 | 53.717901 | 6.433805 | 2.0 | 16.188 | 2 | 41.974 | 16.350 | 32.988 | 2 |
| 2025-06-18T01:07:00 | 53.717937 | 6.433474 | 2.0 | 16.192 | 2 | 41.970 | 16.351 | 32.984 | 2 |
| 2025-06-18T01:08:00 | 53.717947 | 6.433142 | 2.0 | 16.195 | 2 | 41.974 | 16.355 | 32.984 | 2 |
| 2025-06-18T01:09:00 | 53.717982 | 6.432795 | 2.0 | 16.195 | 2 | 41.973 | 16.357 | 32.981 | 2 |
| 2025-06-18T01:10:00 | 53.718000 | 6.432447 | 2.0 | 16.197 | 2 | 41.970 | 16.357 | 32.979 | 2 |
| 2025-06-18T01:11:00 | 53.718026 | 6.432096 | 2.0 | 16.200 | 2 | 41.972 | 16.360 | 32.978 | 2 |
| 2025-06-18T01:12:00 | 53.718034 | 6.431747 | 2.0 | 16.203 | 2 | 41.971 | 16.362 | 32.975 | 2 |
| 2025-06-18T01:13:00 | 53.718063 | 6.431389 | 2.0 | 16.204 | 2 | 41.971 | 16.365 | 32.973 | 2 |
| 2025-06-18T01:14:00 | 53.718072 | 6.431025 | 2.0 | 16.207 | 2 | 41.969 | 16.366 | 32.970 | 2 |
| 2025-06-18T01:15:00 | 53.718100 | 6.430663 | 2.0 | 16.208 | 2 | 41.968 | 16.368 | 32.968 | 2 |
| 2025-06-18T01:16:00 | 53.718110 | 6.430305 | 2.0 | 16.210 | 2 | 41.969 | 16.371 | 32.966 | 2 |
| 2025-06-18T01:17:00 | 53.718135 | 6.429946 | 2.0 | 16.212 | 2 | 41.970 | 16.372 | 32.966 | 2 |
| 2025-06-18T01:18:00 | 53.718139 | 6.429576 | 2.0 | 16.213 | 2 | 41.970 | 16.374 | 32.965 | 2 |
| 2025-06-18T01:19:00 | 53.718172 | 6.429201 | 2.0 | 16.215 | 2 | 41.970 | 16.376 | 32.963 | 2 |
| 2025-06-18T01:20:00 | 53.718184 | 6.428816 | 2.0 | 16.218 | 2 | 41.970 | 16.378 | 32.961 | 2 |
| 2025-06-18T01:21:00 | 53.718214 | 6.428428 | 2.0 | 16.219 | 2 | 41.970 | 16.380 | 32.960 | 2 |
| 2025-06-18T01:22:00 | 53.718223 | 6.428032 | 2.0 | 16.220 | 2 | 41.967 | 16.380 | 32.957 | 2 |
| 2025-06-18T01:23:00 | 53.718272 | 6.427640 | 2.0 | 16.224 | 2 | 41.968 | 16.383 | 32.955 | 2 |
| 2025-06-18T01:24:00 | 53.718288 | 6.427255 | 2.0 | 16.224 | 2 | 41.970 | 16.386 | 32.955 | 2 |
| 2025-06-18T01:25:00 | 53.718330 | 6.426870 | 2.0 | 16.227 | 2 | 41.970 | 16.386 | 32.955 | 2 |
| 2025-06-18T01:26:00 | 53.718333 | 6.426484 | 2.0 | 16.226 | 2 | 41.970 | 16.387 | 32.954 | 2 |
| 2025-06-18T01:27:00 | 53.718372 | 6.426102 | 2.0 | 16.228 | 2 | 41.971 | 16.388 | 32.954 | 2 |
| 2025-06-18T01:28:00 | 53.718375 | 6.425717 | 2.0 | 16.229 | 2 | 41.972 | 16.390 | 32.953 | 2 |
| 2025-06-18T01:29:00 | 53.718408 | 6.425325 | 2.0 | 16.229 | 2 | 41.972 | 16.391 | 32.952 | 2 |
| 2025-06-18T01:30:00 | 53.718409 | 6.424932 | 2.0 | 16.234 | 2 | 41.971 | 16.391 | 32.951 | 2 |
| 2025-06-18T01:31:00 | 53.718438 | 6.424530 | 2.0 | 16.236 | 2 | 41.973 | 16.396 | 32.949 | 2 |
| 2025-06-18T01:32:00 | 53.718432 | 6.424122 | 2.0 | 16.259 | 2 | 41.975 | 16.404 | 32.944 | 2 |
| 2025-06-18T01:33:00 | 53.718441 | 6.423719 | 2.0 | 16.294 | 2 | 41.984 | 16.423 | 32.936 | 2 |
| 2025-06-18T01:34:00 | 53.718407 | 6.423322 | 2.0 | 16.356 | 2 | 42.002 | 16.469 | 32.914 | 2 |
| 2025-06-18T01:35:00 | 53.718403 | 6.422935 | 2.0 | 16.374 | 2 | 42.024 | 16.515 | 32.896 | 2 |
| 2025-06-18T01:36:00 | 53.718365 | 6.422560 | 2.0 | 16.373 | 2 | 42.036 | 16.532 | 32.892 | 2 |
| 2025-06-18T01:37:00 | 53.718371 | 6.422195 | 2.0 | 16.367 | 2 | 42.038 | 16.533 | 32.893 | 2 |
| 2025-06-18T01:38:00 | 53.718340 | 6.421837 | 2.0 | 16.368 | 2 | 42.037 | 16.529 | 32.895 | 2 |
| 2025-06-18T01:39:00 | 53.718333 | 6.421478 | 2.0 | 16.358 | 2 | 42.039 | 16.527 | 32.899 | 2 |
| 2025-06-18T01:40:00 | 53.718308 | 6.421124 | 2.0 | 16.352 | 2 | 42.036 | 16.519 | 32.903 | 2 |
| 2025-06-18T01:41:00 | 53.718308 | 6.420774 | 2.0 | 16.351 | 2 | 42.033 | 16.513 | 32.905 | 2 |
| 2025-06-18T01:42:00 | 53.718287 | 6.420404 | 2.0 | 16.347 | 2 | 42.033 | 16.511 | 32.907 | 2 |
| 2025-06-18T01:43:00 | 53.718285 | 6.420032 | 2.0 | 16.343 | 2 | 42.032 | 16.508 | 32.908 | 2 |
| 2025-06-18T01:44:00 | 53.718280 | 6.419654 | 2.0 | 16.339 | 2 | 42.030 | 16.503 | 32.911 | 2 |
| 2025-06-18T01:45:00 | 53.718280 | 6.419275 | 2.0 | 16.337 | 2 | 42.029 | 16.500 | 32.912 | 2 |
| 2025-06-18T01:46:00 | 53.718281 | 6.418898 | 2.0 | 16.334 | 2 | 42.027 | 16.498 | 32.912 | 2 |
| 2025-06-18T01:47:00 | 53.718282 | 6.418523 | 2.0 | 16.331 | 2 | 42.027 | 16.495 | 32.915 | 2 |
| 2025-06-18T01:48:00 | 53.718278 | 6.418142 | 2.0 | 16.333 | 2 | 42.025 | 16.492 | 32.915 | 2 |
| 2025-06-18T01:49:00 | 53.718283 | 6.417763 | 2.0 | 16.335 | 2 | 42.026 | 16.495 | 32.914 | 2 |
| 2025-06-18T01:50:00 | 53.718292 | 6.417376 | 2.0 | 16.332 | 2 | 42.026 | 16.495 | 32.914 | 2 |
| 2025-06-18T01:51:00 | 53.718306 | 6.416987 | 2.0 | 16.332 | 2 | 42.026 | 16.494 | 32.915 | 2 |
| 2025-06-18T01:52:00 | 53.718329 | 6.416587 | 2.0 | 16.332 | 2 | 42.027 | 16.494 | 32.915 | 2 |
| 2025-06-18T01:53:00 | 53.718348 | 6.416179 | 2.0 | 16.331 | 2 | 42.026 | 16.494 | 32.915 | 2 |
| 2025-06-18T01:54:00 | 53.718373 | 6.415757 | 2.0 | 16.331 | 2 | 42.025 | 16.492 | 32.915 | 2 |
| 2025-06-18T01:55:00 | 53.718406 | 6.415327 | 2.0 | 16.331 | 2 | 42.027 | 16.492 | 32.917 | 2 |
| 2025-06-18T01:56:00 | 53.718434 | 6.414889 | 2.0 | 16.331 | 2 | 42.025 | 16.492 | 32.915 | 2 |
| 2025-06-18T01:57:00 | 53.718468 | 6.414435 | 2.0 | 16.330 | 2 | 42.026 | 16.492 | 32.916 | 2 |
| 2025-06-18T01:58:00 | 53.718503 | 6.413967 | 2.0 | 16.333 | 2 | 42.026 | 16.492 | 32.916 | 2 |
| 2025-06-18T01:59:00 | 53.718530 | 6.413495 | 2.0 | 16.331 | 2 | 42.026 | 16.493 | 32.915 | 2 |
| 2025-06-18T02:00:00 | 53.718567 | 6.413015 | 2.0 | 16.330 | 2 | 42.025 | 16.492 | 32.915 | 2 |
| 2025-06-18T02:01:00 | 53.718600 | 6.412536 | 2.0 | 16.330 | 2 | 42.023 | 16.491 | 32.914 | 2 |
| 2025-06-18T02:02:00 | 53.718636 | 6.412047 | 2.0 | 16.332 | 2 | 42.025 | 16.492 | 32.915 | 2 |
| 2025-06-18T02:03:00 | 53.718676 | 6.411554 | 2.0 | 16.332 | 2 | 42.027 | 16.493 | 32.916 | 2 |
| 2025-06-18T02:04:00 | 53.718714 | 6.411050 | 2.0 | 16.328 | 2 | 42.026 | 16.491 | 32.917 | 2 |
| 2025-06-18T02:05:00 | 53.718745 | 6.410534 | 2.0 | 16.329 | 2 | 42.026 | 16.490 | 32.918 | 2 |
| 2025-06-18T02:06:00 | 53.718787 | 6.409997 | 2.0 | 16.330 | 2 | 42.026 | 16.490 | 32.918 | 2 |
| 2025-06-18T02:07:00 | 53.718808 | 6.409452 | 2.0 | 16.326 | 2 | 42.027 | 16.490 | 32.919 | 2 |
| 2025-06-18T02:08:00 | 53.718858 | 6.408895 | 2.0 | 16.326 | 2 | 42.026 | 16.488 | 32.919 | 2 |
| 2025-06-18T02:09:00 | 53.718876 | 6.408337 | 2.0 | 16.325 | 2 | 42.026 | 16.487 | 32.920 | 2 |
| 2025-06-18T02:10:00 | 53.718914 | 6.407771 | 2.0 | 16.323 | 2 | 42.025 | 16.486 | 32.920 | 2 |
| 2025-06-18T02:11:00 | 53.718963 | 6.407218 | 2.0 | 16.322 | 2 | 42.024 | 16.483 | 32.922 | 2 |
| 2025-06-18T02:12:00 | 53.718913 | 6.406701 | 2.0 | 16.319 | 2 | 42.025 | 16.483 | 32.923 | 2 |
| 2025-06-18T02:13:00 | 53.718858 | 6.406216 | 2.0 | 16.317 | 2 | 42.023 | 16.480 | 32.923 | 2 |
| 2025-06-18T02:14:00 | 53.718803 | 6.405765 | 2.0 | 16.318 | 2 | 42.023 | 16.479 | 32.924 | 2 |
| 2025-06-18T02:15:00 | 53.718754 | 6.405355 | 2.0 | 16.315 | 2 | 42.023 | 16.479 | 32.924 | 2 |
| 2025-06-18T02:16:00 | 53.718710 | 6.404979 | 2.0 | 16.313 | 2 | 42.022 | 16.476 | 32.926 | 2 |
| 2025-06-18T02:17:00 | 53.718669 | 6.404623 | 2.0 | 16.311 | 2 | 42.020 | 16.473 | 32.927 | 2 |
| 2025-06-18T02:18:00 | 53.718624 | 6.404281 | 2.0 | 16.311 | 2 | 42.019 | 16.472 | 32.927 | 2 |
| 2025-06-18T02:19:00 | 53.718588 | 6.403961 | 2.0 | 16.302 | 2 | 42.019 | 16.470 | 32.928 | 2 |
| 2025-06-18T02:20:00 | 53.718557 | 6.403668 | 2.0 | 16.307 | 2 | 42.016 | 16.466 | 32.929 | 2 |
| 2025-06-18T02:21:00 | 53.718534 | 6.403389 | 2.0 | 16.308 | 2 | 42.017 | 16.467 | 32.929 | 2 |
| 2025-06-18T02:22:00 | 53.718510 | 6.403121 | 2.0 | 16.306 | 2 | 42.019 | 16.469 | 32.929 | 2 |
| 2025-06-18T02:23:00 | 53.718492 | 6.402858 | 2.0 | 16.301 | 2 | 42.016 | 16.465 | 32.930 | 2 |
| 2025-06-18T02:24:00 | 53.718476 | 6.402607 | 2.0 | 16.303 | 2 | 42.014 | 16.463 | 32.930 | 2 |
| 2025-06-18T02:25:00 | 53.718466 | 6.402372 | 2.0 | 16.302 | 2 | 42.015 | 16.463 | 32.930 | 2 |
| 2025-06-18T02:26:00 | 53.718453 | 6.402150 | 2.0 | 16.302 | 2 | 42.015 | 16.464 | 32.930 | 2 |
| 2025-06-18T02:27:00 | 53.718435 | 6.401940 | 2.0 | 16.304 | 2 | 42.015 | 16.463 | 32.930 | 2 |
| 2025-06-18T02:28:00 | 53.718423 | 6.401742 | 2.0 | 16.301 | 2 | 42.016 | 16.464 | 32.931 | 2 |
| 2025-06-18T02:29:00 | 53.718407 | 6.401543 | 2.0 | 16.296 | 2 | 42.014 | 16.461 | 32.931 | 2 |
| 2025-06-18T02:30:00 | 53.718394 | 6.401355 | 2.0 | 16.297 | 2 | 42.010 | 16.457 | 32.931 | 2 |
| 2025-06-18T02:31:00 | 53.718383 | 6.401172 | 2.0 | 16.299 | 2 | 42.011 | 16.459 | 32.930 | 2 |
| 2025-06-18T02:32:00 | 53.718380 | 6.400988 | 2.0 | 16.299 | 2 | 42.013 | 16.460 | 32.931 | 2 |
| 2025-06-18T02:33:00 | 53.718369 | 6.400807 | 2.0 | 16.296 | 2 | 42.014 | 16.461 | 32.931 | 2 |
| 2025-06-18T02:34:00 | 53.718357 | 6.400622 | 2.0 | 16.294 | 2 | 42.011 | 16.456 | 32.933 | 2 |
| 2025-06-18T02:35:00 | 53.718342 | 6.400435 | 2.0 | 16.295 | 2 | 42.012 | 16.457 | 32.933 | 2 |
| 2025-06-18T02:36:00 | 53.718319 | 6.400256 | 2.0 | 16.299 | 2 | 42.009 | 16.456 | 32.931 | 2 |
| 2025-06-18T02:37:00 | 53.718300 | 6.400081 | 2.0 | 16.302 | 2 | 42.013 | 16.460 | 32.931 | 2 |
| 2025-06-18T02:38:00 | 53.718277 | 6.399913 | 2.0 | 16.301 | 2 | 42.015 | 16.463 | 32.930 | 2 |
| 2025-06-18T02:39:00 | 53.718260 | 6.399747 | 2.0 | 16.298 | 2 | 42.016 | 16.462 | 32.932 | 2 |
| 2025-06-18T02:40:00 | 53.718248 | 6.399576 | 2.0 | 16.297 | 2 | 42.012 | 16.458 | 32.932 | 2 |
| 2025-06-18T02:41:00 | 53.718238 | 6.399397 | 2.0 | 16.299 | 2 | 42.013 | 16.458 | 32.933 | 2 |
| 2025-06-18T02:42:00 | 53.718229 | 6.399218 | 2.0 | 16.300 | 2 | 42.015 | 16.461 | 32.932 | 2 |
| 2025-06-18T02:43:00 | 53.718216 | 6.399043 | 2.0 | 16.299 | 2 | 42.016 | 16.462 | 32.932 | 2 |
| 2025-06-18T02:44:00 | 53.718198 | 6.398870 | 2.0 | 16.295 | 2 | 42.015 | 16.460 | 32.933 | 2 |
| 2025-06-18T02:45:00 | 53.718175 | 6.398696 | 2.0 | 16.294 | 2 | 42.013 | 16.457 | 32.934 | 2 |
| 2025-06-18T02:46:00 | 53.718153 | 6.398517 | 2.0 | 16.293 | 2 | 42.013 | 16.455 | 32.935 | 2 |
| 2025-06-18T02:47:00 | 53.718134 | 6.398332 | 2.0 | 16.293 | 2 | 42.013 | 16.454 | 32.936 | 2 |
| 2025-06-18T02:48:00 | 53.718120 | 6.398139 | 2.0 | 16.293 | 2 | 42.013 | 16.454 | 32.936 | 2 |
| 2025-06-18T02:49:00 | 53.718104 | 6.397944 | 2.0 | 16.292 | 2 | 42.015 | 16.454 | 32.938 | 2 |
| 2025-06-18T02:50:00 | 53.718092 | 6.397780 | 2.0 | 16.290 | 2 | 42.015 | 16.453 | 32.939 | 2 |
| 2025-06-18T02:51:00 | 53.718122 | 6.397673 | 2.0 | 16.282 | 2 | 42.013 | 16.451 | 32.939 | 2 |
| 2025-06-18T02:52:00 | 53.718211 | 6.397659 | 2.0 | 16.281 | 2 | 42.008 | 16.444 | 32.940 | 2 |
| 2025-06-18T02:53:00 | 53.718347 | 6.397771 | 2.0 | 16.289 | 2 | 42.007 | 16.443 | 32.940 | 2 |
| 2025-06-18T02:54:00 | 53.718499 | 6.397971 | 2.0 | 16.290 | 2 | 42.012 | 16.450 | 32.939 | 2 |
| 2025-06-18T02:55:00 | 53.718670 | 6.398187 | 2.0 | 16.289 | 2 | 42.012 | 16.451 | 32.938 | 2 |
| 2025-06-18T02:56:00 | 53.718893 | 6.398348 | 2.0 | 16.290 | 2 | 42.010 | 16.449 | 32.938 | 2 |
| 2025-06-18T02:57:00 | 53.719434 | 6.398305 | 2.0 | 16.290 | 2 | 42.010 | 16.449 | 32.938 | 2 |
| 2025-06-18T02:58:00 | 53.720528 | 6.397968 | 2.0 | 16.287 | 2 | 42.011 | 16.449 | 32.939 | 2 |
| 2025-06-18T02:59:00 | 53.722084 | 6.397422 | 2.0 | 16.287 | 2 | 42.012 | 16.448 | 32.940 | 2 |
| 2025-06-18T03:00:00 | 53.723895 | 6.396879 | 2.0 | 16.288 | 2 | 42.017 | 16.450 | 32.943 | 2 |
| 2025-06-18T03:01:00 | 53.725722 | 6.396370 | 2.0 | 16.283 | 2 | 42.019 | 16.450 | 32.945 | 2 |
| 2025-06-18T03:02:00 | 53.727480 | 6.395840 | 2.0 | 16.270 | 2 | 42.018 | 16.444 | 32.949 | 2 |
| 2025-06-18T03:03:00 | 53.729157 | 6.395363 | 2.0 | 16.264 | 2 | 42.015 | 16.431 | 32.957 | 2 |
| 2025-06-18T03:04:00 | 53.730767 | 6.394879 | 2.0 | 16.266 | 2 | 42.014 | 16.426 | 32.960 | 2 |
| 2025-06-18T03:05:00 | 53.732297 | 6.394369 | 2.0 | 16.260 | 2 | 42.016 | 16.427 | 32.961 | 2 |
| 2025-06-18T03:06:00 | 53.733762 | 6.393897 | 2.0 | 16.259 | 2 | 42.015 | 16.422 | 32.964 | 2 |
| 2025-06-18T03:07:00 | 53.735184 | 6.393462 | 2.0 | 16.255 | 2 | 42.015 | 16.422 | 32.964 | 2 |
| 2025-06-18T03:08:00 | 53.736587 | 6.393078 | 2.0 | 16.255 | 2 | 42.019 | 16.418 | 32.971 | 2 |
| 2025-06-18T03:09:00 | 53.737973 | 6.392684 | 2.0 | 16.253 | 2 | 42.026 | 16.417 | 32.978 | 2 |
| 2025-06-18T03:10:00 | 53.739370 | 6.392258 | 2.0 | 16.249 | 2 | 42.028 | 16.414 | 32.982 | 2 |
| 2025-06-18T03:11:00 | 53.740826 | 6.391829 | 2.0 | 16.233 | 2 | 42.026 | 16.408 | 32.986 | 2 |
| 2025-06-18T03:12:00 | 53.742317 | 6.391427 | 2.0 | 16.207 | 2 | 42.019 | 16.391 | 32.993 | 2 |
| 2025-06-18T03:13:00 | 53.743821 | 6.390963 | 2.0 | 16.190 | 2 | 42.011 | 16.369 | 33.005 | 2 |
| 2025-06-18T03:14:00 | 53.745341 | 6.390515 | 2.0 | 16.163 | 2 | 42.004 | 16.350 | 33.014 | 2 |
| 2025-06-18T03:15:00 | 53.746854 | 6.390033 | 2.0 | 16.137 | 2 | 41.992 | 16.321 | 33.028 | 2 |
| 2025-06-18T03:16:00 | 53.748332 | 6.389527 | 2.0 | 16.124 | 2 | 41.982 | 16.299 | 33.037 | 2 |
| 2025-06-18T03:17:00 | 53.749785 | 6.389078 | 2.0 | 16.126 | 2 | 41.975 | 16.290 | 33.038 | 2 |
| 2025-06-18T03:18:00 | 53.751221 | 6.388663 | 2.0 | 16.110 | 2 | 41.973 | 16.287 | 33.039 | 2 |
| 2025-06-18T03:19:00 | 53.752660 | 6.388261 | 2.0 | 16.100 | 2 | 41.969 | 16.273 | 33.047 | 2 |
| 2025-06-18T03:20:00 | 53.754099 | 6.387840 | 2.0 | 16.092 | 2 | 41.964 | 16.263 | 33.051 | 2 |
| 2025-06-18T03:21:00 | 53.755534 | 6.387416 | 2.0 | 16.086 | 2 | 41.961 | 16.254 | 33.056 | 2 |
| 2025-06-18T03:22:00 | 53.756971 | 6.386996 | 2.0 | 16.079 | 2 | 41.961 | 16.248 | 33.061 | 2 |
| 2025-06-18T03:23:00 | 53.758401 | 6.386539 | 2.0 | 16.075 | 2 | 41.956 | 16.242 | 33.062 | 2 |
| 2025-06-18T03:24:00 | 53.759831 | 6.386103 | 2.0 | 16.068 | 2 | 41.957 | 16.238 | 33.066 | 2 |
| 2025-06-18T03:25:00 | 53.761266 | 6.385690 | 2.0 | 16.053 | 2 | 41.954 | 16.229 | 33.071 | 2 |
| 2025-06-18T03:26:00 | 53.762703 | 6.385262 | 2.0 | 16.038 | 2 | 41.947 | 16.214 | 33.077 | 2 |
| 2025-06-18T03:27:00 | 53.764149 | 6.384853 | 2.0 | 16.028 | 2 | 41.941 | 16.200 | 33.083 | 2 |
| 2025-06-18T03:28:00 | 53.765601 | 6.384430 | 2.0 | 16.026 | 2 | 41.940 | 16.192 | 33.089 | 2 |
| 2025-06-18T03:29:00 | 53.767053 | 6.383996 | 2.0 | 16.019 | 2 | 41.944 | 16.189 | 33.095 | 2 |
| 2025-06-18T03:30:00 | 53.768500 | 6.383541 | 2.0 | 16.009 | 2 | 41.942 | 16.181 | 33.100 | 2 |
| 2025-06-18T03:31:00 | 53.769948 | 6.383051 | 2.0 | 16.000 | 2 | 41.937 | 16.172 | 33.103 | 2 |
| 2025-06-18T03:32:00 | 53.771408 | 6.382593 | 2.0 | 15.992 | 2 | 41.932 | 16.162 | 33.107 | 2 |
| 2025-06-18T03:33:00 | 53.772869 | 6.382157 | 2.0 | 15.983 | 2 | 41.930 | 16.154 | 33.112 | 2 |
| 2025-06-18T03:34:00 | 53.774335 | 6.381732 | 2.0 | 15.980 | 2 | 41.929 | 16.148 | 33.116 | 2 |
| 2025-06-18T03:35:00 | 53.775800 | 6.381308 | 2.0 | 15.978 | 2 | 41.931 | 16.144 | 33.121 | 2 |
| 2025-06-18T03:36:00 | 53.777266 | 6.380880 | 2.0 | 15.972 | 2 | 41.932 | 16.140 | 33.125 | 2 |
| 2025-06-18T03:37:00 | 53.778682 | 6.380240 | 2.0 | 15.961 | 2 | 41.932 | 16.134 | 33.130 | 2 |
| 2025-06-18T03:38:00 | 53.780045 | 6.379336 | 2.0 | 15.953 | 2 | 41.925 | 16.124 | 33.133 | 2 |
| 2025-06-18T03:39:00 | 53.781424 | 6.378465 | 2.0 | 15.946 | 2 | 41.921 | 16.115 | 33.137 | 2 |
| 2025-06-18T03:40:00 | 53.782812 | 6.377628 | 2.0 | 15.940 | 2 | 41.922 | 16.111 | 33.141 | 2 |
| 2025-06-18T03:41:00 | 53.784173 | 6.376701 | 2.0 | 15.931 | 2 | 41.920 | 16.102 | 33.146 | 2 |
| 2025-06-18T03:42:00 | 53.785467 | 6.375570 | 2.0 | 15.925 | 2 | 41.918 | 16.094 | 33.151 | 2 |
| 2025-06-18T03:43:00 | 53.786766 | 6.374411 | 2.0 | 15.914 | 2 | 41.919 | 16.088 | 33.157 | 2 |
| 2025-06-18T03:44:00 | 53.788065 | 6.373261 | 2.0 | 15.900 | 2 | 41.919 | 16.076 | 33.167 | 2 |
| 2025-06-18T03:45:00 | 53.789352 | 6.372068 | 2.0 | 15.891 | 2 | 41.915 | 16.063 | 33.175 | 2 |
| 2025-06-18T03:46:00 | 53.790639 | 6.370867 | 2.0 | 15.887 | 2 | 41.911 | 16.054 | 33.179 | 2 |
| 2025-06-18T03:47:00 | 53.791941 | 6.369680 | 2.0 | 15.884 | 2 | 41.909 | 16.051 | 33.179 | 2 |
| 2025-06-18T03:48:00 | 53.793322 | 6.368987 | 2.0 | 15.876 | 2 | 41.907 | 16.048 | 33.180 | 2 |
| 2025-06-18T03:49:00 | 53.794759 | 6.368879 | 2.0 | 15.862 | 2 | 41.905 | 16.038 | 33.187 | 2 |
| 2025-06-18T03:50:00 | 53.796206 | 6.368621 | 2.0 | 15.859 | 2 | 41.900 | 16.026 | 33.192 | 2 |
| 2025-06-18T03:51:00 | 53.797662 | 6.368275 | 2.0 | 15.856 | 2 | 41.900 | 16.023 | 33.195 | 2 |
| 2025-06-18T03:52:00 | 53.799132 | 6.367968 | 2.0 | 15.838 | 2 | 41.899 | 16.017 | 33.199 | 2 |
| 2025-06-18T03:53:00 | 53.800604 | 6.367739 | 2.0 | 15.819 | 2 | 41.892 | 15.999 | 33.208 | 2 |
| 2025-06-18T03:54:00 | 53.802076 | 6.367530 | 2.0 | 15.812 | 2 | 41.886 | 15.982 | 33.217 | 2 |
| 2025-06-18T03:55:00 | 53.803541 | 6.367246 | 2.0 | 15.808 | 2 | 41.887 | 15.976 | 33.223 | 2 |
| 2025-06-18T03:56:00 | 53.805008 | 6.366927 | 2.0 | 15.803 | 2 | 41.888 | 15.972 | 33.227 | 2 |
| 2025-06-18T03:57:00 | 53.806472 | 6.366628 | 2.0 | 15.789 | 2 | 41.888 | 15.966 | 33.232 | 2 |
| 2025-06-18T03:58:00 | 53.807944 | 6.366391 | 2.0 | 15.778 | 2 | 41.883 | 15.953 | 33.238 | 2 |
| 2025-06-18T03:59:00 | 53.809310 | 6.365734 | 2.0 | 15.774 | 2 | 41.879 | 15.943 | 33.243 | 2 |
| 2025-06-18T04:00:00 | 53.810342 | 6.364221 | 2.0 | 15.768 | 2 | 41.880 | 15.937 | 33.249 | 2 |
| 2025-06-18T04:01:00 | 53.811374 | 6.362598 | 2.0 | 15.765 | 2 | 41.880 | 15.932 | 33.253 | 2 |
| 2025-06-18T04:02:00 | 53.812471 | 6.361039 | 2.0 | 15.760 | 2 | 41.881 | 15.928 | 33.258 | 2 |
| 2025-06-18T04:03:00 | 53.813605 | 6.359495 | 2.0 | 15.761 | 2 | 41.879 | 15.924 | 33.259 | 2 |
| 2025-06-18T04:04:00 | 53.814740 | 6.357909 | 2.0 | 15.758 | 2 | 41.879 | 15.925 | 33.258 | 2 |
| 2025-06-18T04:05:00 | 53.815890 | 6.356324 | 2.0 | 15.750 | 2 | 41.878 | 15.921 | 33.261 | 2 |
| 2025-06-18T04:06:00 | 53.817045 | 6.354714 | 2.0 | 15.739 | 2 | 41.874 | 15.912 | 33.265 | 2 |
| 2025-06-18T04:07:00 | 53.818177 | 6.353048 | 2.0 | 15.741 | 2 | 41.872 | 15.904 | 33.270 | 2 |
| 2025-06-18T04:08:00 | 53.819310 | 6.351379 | 2.0 | 15.737 | 2 | 41.874 | 15.905 | 33.271 | 2 |
| 2025-06-18T04:09:00 | 53.820465 | 6.349734 | 2.0 | 15.730 | 2 | 41.874 | 15.900 | 33.275 | 2 |
| 2025-06-18T04:10:00 | 53.821632 | 6.348106 | 2.0 | 15.725 | 2 | 41.873 | 15.894 | 33.279 | 2 |
| 2025-06-18T04:11:00 | 53.822779 | 6.346501 | 2.0 | 15.719 | 2 | 41.872 | 15.889 | 33.282 | 2 |
| 2025-06-18T04:12:00 | 53.823879 | 6.344960 | 2.0 | 15.710 | 2 | 41.870 | 15.883 | 33.286 | 2 |
| 2025-06-18T04:13:00 | 53.824942 | 6.343450 | 2.0 | 15.699 | 2 | 41.867 | 15.873 | 33.291 | 2 |
| 2025-06-18T04:14:00 | 53.825984 | 6.341953 | 2.0 | 15.693 | 2 | 41.863 | 15.864 | 33.295 | 2 |
| 2025-06-18T04:15:00 | 53.827002 | 6.340480 | 2.0 | 15.688 | 2 | 41.861 | 15.858 | 33.299 | 2 |
| 2025-06-18T04:16:00 | 53.828019 | 6.339009 | 2.0 | 15.678 | 2 | 41.859 | 15.851 | 33.303 | 2 |
| 2025-06-18T04:17:00 | 53.829046 | 6.337564 | 2.0 | 15.670 | 2 | 41.854 | 15.841 | 33.307 | 2 |
| 2025-06-18T04:18:00 | 53.830072 | 6.336133 | 2.0 | 15.659 | 2 | 41.848 | 15.833 | 33.308 | 2 |
| 2025-06-18T04:19:00 | 53.831073 | 6.334688 | 2.0 | 15.660 | 2 | 41.845 | 15.825 | 33.312 | 2 |
| 2025-06-18T04:20:00 | 53.832079 | 6.333244 | 2.0 | 15.658 | 2 | 41.846 | 15.825 | 33.313 | 2 |
| 2025-06-18T04:21:00 | 53.833097 | 6.331803 | 2.0 | 15.657 | 2 | 41.847 | 15.823 | 33.316 | 2 |
| 2025-06-18T04:22:00 | 53.834119 | 6.330354 | 2.0 | 15.653 | 2 | 41.848 | 15.821 | 33.318 | 2 |
| 2025-06-18T04:23:00 | 53.835146 | 6.328906 | 2.0 | 15.649 | 2 | 41.847 | 15.816 | 33.322 | 2 |
| 2025-06-18T04:24:00 | 53.836158 | 6.327474 | 2.0 | 15.646 | 2 | 41.846 | 15.813 | 33.323 | 2 |
| 2025-06-18T04:25:00 | 53.837161 | 6.326067 | 2.0 | 15.643 | 2 | 41.846 | 15.811 | 33.325 | 2 |
| 2025-06-18T04:26:00 | 53.838152 | 6.324660 | 2.0 | 15.640 | 2 | 41.846 | 15.807 | 33.328 | 2 |
| 2025-06-18T04:27:00 | 53.839133 | 6.323258 | 2.0 | 15.638 | 2 | 41.846 | 15.805 | 33.330 | 2 |
| 2025-06-18T04:28:00 | 53.840104 | 6.321855 | 2.0 | 15.636 | 2 | 41.845 | 15.802 | 33.332 | 2 |
| 2025-06-18T04:29:00 | 53.841077 | 6.320468 | 2.0 | 15.634 | 2 | 41.846 | 15.800 | 33.334 | 2 |
| 2025-06-18T04:30:00 | 53.842052 | 6.319091 | 2.0 | 15.630 | 2 | 41.846 | 15.798 | 33.336 | 2 |
| 2025-06-18T04:31:00 | 53.843034 | 6.317722 | 2.0 | 15.626 | 2 | 41.845 | 15.794 | 33.338 | 2 |
| 2025-06-18T04:32:00 | 53.844015 | 6.316338 | 2.0 | 15.624 | 2 | 41.843 | 15.790 | 33.340 | 2 |
| 2025-06-18T04:33:00 | 53.844987 | 6.314960 | 2.0 | 15.622 | 2 | 41.843 | 15.788 | 33.342 | 2 |
| 2025-06-18T04:34:00 | 53.845947 | 6.313585 | 2.0 | 15.621 | 2 | 41.843 | 15.787 | 33.343 | 2 |
| 2025-06-18T04:35:00 | 53.846902 | 6.312194 | 2.0 | 15.620 | 2 | 41.844 | 15.785 | 33.345 | 2 |
| 2025-06-18T04:36:00 | 53.847866 | 6.310812 | 2.0 | 15.618 | 2 | 41.845 | 15.784 | 33.347 | 2 |
| 2025-06-18T04:37:00 | 53.848845 | 6.309449 | 2.0 | 15.617 | 2 | 41.846 | 15.783 | 33.349 | 2 |
| 2025-06-18T04:38:00 | 53.849826 | 6.308080 | 2.0 | 15.614 | 2 | 41.846 | 15.781 | 33.350 | 2 |
| 2025-06-18T04:39:00 | 53.850806 | 6.306717 | 2.0 | 15.613 | 2 | 41.846 | 15.779 | 33.352 | 2 |
| 2025-06-18T04:40:00 | 53.851782 | 6.305331 | 2.0 | 15.610 | 2 | 41.847 | 15.777 | 33.355 | 2 |
| 2025-06-18T04:41:00 | 53.852749 | 6.303905 | 2.0 | 15.607 | 2 | 41.847 | 15.774 | 33.357 | 2 |
| 2025-06-18T04:42:00 | 53.853718 | 6.302490 | 2.0 | 15.604 | 2 | 41.846 | 15.771 | 33.359 | 2 |
| 2025-06-18T04:43:00 | 53.854691 | 6.301094 | 2.0 | 15.600 | 2 | 41.846 | 15.768 | 33.361 | 2 |
| 2025-06-18T04:44:00 | 53.855662 | 6.299712 | 2.0 | 15.598 | 2 | 41.846 | 15.765 | 33.364 | 2 |
| 2025-06-18T04:45:00 | 53.856631 | 6.298350 | 2.0 | 15.596 | 2 | 41.846 | 15.762 | 33.366 | 2 |
| 2025-06-18T04:46:00 | 53.857583 | 6.297002 | 2.0 | 15.594 | 2 | 41.846 | 15.760 | 33.368 | 2 |
| 2025-06-18T04:47:00 | 53.858532 | 6.295660 | 2.0 | 15.592 | 2 | 41.846 | 15.758 | 33.370 | 2 |
| 2025-06-18T04:48:00 | 53.859472 | 6.294304 | 2.0 | 15.587 | 2 | 41.845 | 15.756 | 33.371 | 2 |
| 2025-06-18T04:49:00 | 53.860402 | 6.292952 | 2.0 | 15.583 | 2 | 41.842 | 15.751 | 33.372 | 2 |
| 2025-06-18T04:50:00 | 53.861340 | 6.291620 | 2.0 | 15.580 | 2 | 41.840 | 15.748 | 33.373 | 2 |
| 2025-06-18T04:51:00 | 53.862288 | 6.290326 | 2.0 | 15.576 | 2 | 41.839 | 15.744 | 33.375 | 2 |
| 2025-06-18T04:52:00 | 53.863234 | 6.289031 | 2.0 | 15.574 | 2 | 41.838 | 15.741 | 33.377 | 2 |
| 2025-06-18T04:53:00 | 53.864170 | 6.287719 | 2.0 | 15.573 | 2 | 41.838 | 15.739 | 33.379 | 2 |
| 2025-06-18T04:54:00 | 53.865091 | 6.286377 | 2.0 | 15.570 | 2 | 41.837 | 15.736 | 33.380 | 2 |
| 2025-06-18T04:55:00 | 53.865990 | 6.285002 | 2.0 | 15.564 | 2 | 41.836 | 15.733 | 33.382 | 2 |
| 2025-06-18T04:56:00 | 53.866879 | 6.283615 | 2.0 | 15.561 | 2 | 41.834 | 15.729 | 33.384 | 2 |
| 2025-06-18T04:57:00 | 53.867770 | 6.282227 | 2.0 | 15.558 | 2 | 41.832 | 15.725 | 33.385 | 2 |
| 2025-06-18T04:58:00 | 53.868669 | 6.280867 | 2.0 | 15.555 | 2 | 41.830 | 15.722 | 33.386 | 2 |
| 2025-06-18T04:59:00 | 53.869569 | 6.279515 | 2.0 | 15.550 | 2 | 41.829 | 15.719 | 33.388 | 2 |
| 2025-06-18T05:00:00 | 53.870476 | 6.278155 | 2.0 | 15.546 | 2 | 41.827 | 15.714 | 33.390 | 2 |
| 2025-06-18T05:01:00 | 53.871372 | 6.276781 | 2.0 | 15.544 | 2 | 41.826 | 15.711 | 33.392 | 2 |
| 2025-06-18T05:02:00 | 53.872263 | 6.275407 | 2.0 | 15.538 | 2 | 41.825 | 15.707 | 33.394 | 2 |
| 2025-06-18T05:03:00 | 53.873166 | 6.274037 | 2.0 | 15.534 | 2 | 41.824 | 15.703 | 33.397 | 2 |
| 2025-06-18T05:04:00 | 53.874070 | 6.272662 | 2.0 | 15.531 | 2 | 41.822 | 15.698 | 33.399 | 2 |
| 2025-06-18T05:05:00 | 53.874981 | 6.271293 | 2.0 | 15.525 | 2 | 41.821 | 15.695 | 33.401 | 2 |
| 2025-06-18T05:06:00 | 53.875892 | 6.269904 | 2.0 | 15.520 | 2 | 41.819 | 15.690 | 33.403 | 2 |
| 2025-06-18T05:07:00 | 53.876795 | 6.268491 | 2.0 | 15.515 | 2 | 41.815 | 15.683 | 33.406 | 2 |
| 2025-06-18T05:08:00 | 53.877696 | 6.267075 | 2.0 | 15.513 | 2 | 41.813 | 15.680 | 33.406 | 2 |
| 2025-06-18T05:09:00 | 53.878595 | 6.265685 | 2.0 | 15.513 | 2 | 41.813 | 15.678 | 33.408 | 2 |
| 2025-06-18T05:10:00 | 53.879571 | 6.264209 | 2.0 | 15.512 | 2 | 41.812 | 15.676 | 33.409 | 2 |
| 2025-06-18T05:11:00 | 53.880666 | 6.262587 | 2.0 | 15.510 | 2 | 41.812 | 15.675 | 33.410 | 2 |
| 2025-06-18T05:12:00 | 53.881835 | 6.260874 | 2.0 | 15.506 | 2 | 41.812 | 15.673 | 33.411 | 2 |
| 2025-06-18T05:13:00 | 53.883035 | 6.259084 | 2.0 | 15.505 | 2 | 41.812 | 15.670 | 33.414 | 2 |
| 2025-06-18T05:14:00 | 53.884248 | 6.257237 | 2.0 | 15.502 | 2 | 41.811 | 15.668 | 33.415 | 2 |
| 2025-06-18T05:15:00 | 53.885470 | 6.255346 | 2.0 | 15.497 | 2 | 41.810 | 15.664 | 33.417 | 2 |
| 2025-06-18T05:16:00 | 53.886706 | 6.253442 | 2.0 | 15.493 | 2 | 41.808 | 15.660 | 33.419 | 2 |
| 2025-06-18T05:17:00 | 53.887950 | 6.251527 | 2.0 | 15.493 | 2 | 41.808 | 15.658 | 33.420 | 2 |
| 2025-06-18T05:18:00 | 53.889196 | 6.249612 | 2.0 | 15.487 | 2 | 41.808 | 15.655 | 33.423 | 2 |
| 2025-06-18T05:19:00 | 53.890447 | 6.247706 | 2.0 | 15.484 | 2 | 41.806 | 15.651 | 33.425 | 2 |
| 2025-06-18T05:20:00 | 53.891699 | 6.245803 | 2.0 | 15.480 | 2 | 41.805 | 15.649 | 33.425 | 2 |
| 2025-06-18T05:21:00 | 53.892934 | 6.243884 | 2.0 | 15.477 | 2 | 41.802 | 15.643 | 33.428 | 2 |
| 2025-06-18T05:22:00 | 53.894148 | 6.242021 | 2.0 | 15.475 | 2 | 41.802 | 15.642 | 33.429 | 2 |
| 2025-06-18T05:23:00 | 53.895238 | 6.240335 | 2.0 | 15.468 | 2 | 41.802 | 15.639 | 33.431 | 2 |
| 2025-06-18T05:24:00 | 53.896210 | 6.238818 | 2.0 | 15.467 | 2 | 41.801 | 15.633 | 33.435 | 2 |
| 2025-06-18T05:25:00 | 53.896942 | 6.237439 | 2.0 | 15.471 | 2 | 41.802 | 15.632 | 33.437 | 2 |
| 2025-06-18T05:26:00 | 53.897218 | 6.236101 | 2.0 | 15.470 | 2 | 41.808 | 15.634 | 33.441 | 2 |
| 2025-06-18T05:27:00 | 53.897455 | 6.234950 | 2.0 | 15.471 | 2 | 41.809 | 15.635 | 33.441 | 2 |
| 2025-06-18T05:28:00 | 53.897826 | 6.234316 | 2.0 | 15.466 | 2 | 41.810 | 15.633 | 33.443 | 2 |
| 2025-06-18T05:29:00 | 53.898108 | 6.234144 | 2.0 | 15.465 | 2 | 41.808 | 15.631 | 33.443 | 2 |
| 2025-06-18T05:30:00 | 53.898258 | 6.234104 | 2.0 | 15.464 | 2 | 41.806 | 15.629 | 33.443 | 2 |
| 2025-06-18T05:31:00 | 53.898375 | 6.234131 | 2.0 | 15.460 | 2 | 41.802 | 15.625 | 33.443 | 2 |
| 2025-06-18T05:32:00 | 53.898465 | 6.234219 | 2.0 | 15.459 | 2 | 41.799 | 15.624 | 33.441 | 2 |
| 2025-06-18T05:33:00 | 53.898519 | 6.234347 | 2.0 | 15.459 | 2 | 41.797 | 15.622 | 33.441 | 2 |
| 2025-06-18T05:34:00 | 53.898563 | 6.234532 | 2.0 | 15.466 | 2 | 41.797 | 15.624 | 33.439 | 2 |
| 2025-06-18T05:35:00 | 53.898567 | 6.234740 | 2.0 | 15.469 | 2 | 41.802 | 15.629 | 33.440 | 2 |
| 2025-06-18T05:36:00 | 53.898519 | 6.234941 | 2.0 | 15.469 | 2 | 41.807 | 15.634 | 33.440 | 2 |
| 2025-06-18T05:37:00 | 53.898438 | 6.235064 | 2.0 | 15.466 | 2 | 41.806 | 15.633 | 33.440 | 2 |
| 2025-06-18T05:38:00 | 53.898339 | 6.235116 | 2.0 | 15.465 | 2 | 41.803 | 15.630 | 33.440 | 2 |
| 2025-06-18T05:39:00 | 53.898231 | 6.235100 | 2.0 | 15.466 | 2 | 41.801 | 15.629 | 33.439 | 2 |
| 2025-06-18T05:40:00 | 53.898128 | 6.235073 | 2.0 | 15.467 | 2 | 41.801 | 15.630 | 33.438 | 2 |
| 2025-06-18T05:41:00 | 53.898066 | 6.235075 | 2.0 | 15.464 | 2 | 41.802 | 15.630 | 33.439 | 2 |
| 2025-06-18T05:42:00 | 53.898065 | 6.235140 | 2.0 | 15.470 | 2 | 41.800 | 15.630 | 33.437 | 2 |
| 2025-06-18T05:43:00 | 53.898089 | 6.235238 | 2.0 | 15.470 | 2 | 41.803 | 15.633 | 33.437 | 2 |
| 2025-06-18T05:44:00 | 53.898127 | 6.235334 | 2.0 | 15.470 | 2 | 41.804 | 15.635 | 33.436 | 2 |
| 2025-06-18T05:45:00 | 53.898165 | 6.235432 | 2.0 | 15.470 | 2 | 41.803 | 15.634 | 33.436 | 2 |
| 2025-06-18T05:46:00 | 53.898193 | 6.235523 | 2.0 | 15.465 | 2 | 41.802 | 15.633 | 33.436 | 2 |
| 2025-06-18T05:47:00 | 53.898204 | 6.235599 | 2.0 | 15.462 | 2 | 41.799 | 15.629 | 33.437 | 2 |
| 2025-06-18T05:48:00 | 53.898198 | 6.235669 | 2.0 | 15.463 | 2 | 41.795 | 15.625 | 33.437 | 2 |
| 2025-06-18T05:49:00 | 53.898233 | 6.235742 | 2.0 | 15.470 | 2 | 41.797 | 15.628 | 33.436 | 2 |
| 2025-06-18T05:50:00 | 53.898303 | 6.235803 | 2.0 | 15.463 | 2 | 41.803 | 15.633 | 33.437 | 2 |
| 2025-06-18T05:51:00 | 53.898395 | 6.235857 | 2.0 | 15.471 | 2 | 41.800 | 15.630 | 33.437 | 2 |
| 2025-06-18T05:52:00 | 53.898477 | 6.235905 | 2.0 | 15.475 | 2 | 41.805 | 15.635 | 33.437 | 2 |
| 2025-06-18T05:53:00 | 53.898525 | 6.235820 | 2.0 | 15.467 | 2 | 41.807 | 15.638 | 33.437 | 2 |
| 2025-06-18T05:54:00 | 53.898549 | 6.235841 | 2.0 | 15.463 | 2 | 41.801 | 15.631 | 33.437 | 2 |
| 2025-06-18T05:55:00 | 53.898593 | 6.235881 | 2.0 | 15.466 | 2 | 41.798 | 15.628 | 33.437 | 2 |
| 2025-06-18T05:56:00 | 53.898643 | 6.235737 | 2.0 | 15.471 | 2 | 41.800 | 15.630 | 33.437 | 2 |
| 2025-06-18T05:57:00 | 53.898689 | 6.235604 | 2.0 | 15.468 | 2 | 41.804 | 15.634 | 33.437 | 2 |
| 2025-06-18T05:58:00 | 53.898723 | 6.235558 | 2.0 | 15.467 | 2 | 41.800 | 15.631 | 33.436 | 2 |
| 2025-06-18T05:59:00 | 53.898755 | 6.235586 | 2.0 | 15.469 | 2 | 41.801 | 15.631 | 33.437 | 2 |
| 2025-06-18T06:00:00 | 53.898778 | 6.235647 | 2.0 | 15.473 | 2 | 41.803 | 15.633 | 33.437 | 2 |
| 2025-06-18T06:01:00 | 53.898788 | 6.235746 | 2.0 | 15.469 | 2 | 41.804 | 15.635 | 33.436 | 2 |
| 2025-06-18T06:02:00 | 53.898815 | 6.235855 | 2.0 | 15.470 | 2 | 41.804 | 15.633 | 33.438 | 2 |
| 2025-06-18T06:03:00 | 53.898848 | 6.235966 | 2.0 | 15.473 | 2 | 41.804 | 15.633 | 33.438 | 2 |
| 2025-06-18T06:04:00 | 53.898870 | 6.236080 | 2.0 | 15.476 | 2 | 41.808 | 15.637 | 33.438 | 2 |
| 2025-06-18T06:05:00 | 53.898882 | 6.236185 | 2.0 | 15.459 | 2 | 41.805 | 15.632 | 33.440 | 2 |
| 2025-06-18T06:06:00 | 53.898892 | 6.236285 | 2.0 | 15.461 | 2 | 41.796 | 15.623 | 33.439 | 2 |
| 2025-06-18T06:07:00 | 53.898894 | 6.236390 | 2.0 | 15.471 | 2 | 41.798 | 15.626 | 33.439 | 2 |
| 2025-06-18T06:08:00 | 53.898904 | 6.236491 | 2.0 | 15.471 | 2 | 41.806 | 15.633 | 33.440 | 2 |
| 2025-06-18T06:09:00 | 53.898930 | 6.236585 | 2.0 | 15.462 | 2 | 41.806 | 15.632 | 33.441 | 2 |
| 2025-06-18T06:10:00 | 53.898972 | 6.236667 | 2.0 | 15.459 | 2 | 41.802 | 15.627 | 33.441 | 2 |
| 2025-06-18T06:11:00 | 53.899017 | 6.236734 | 2.0 | 15.457 | 2 | 41.796 | 15.619 | 33.443 | 2 |
| 2025-06-18T06:12:00 | 53.899059 | 6.236789 | 2.0 | 15.463 | 2 | 41.795 | 15.620 | 33.441 | 2 |
| 2025-06-18T06:13:00 | 53.899096 | 6.236837 | 2.0 | 15.463 | 2 | 41.803 | 15.628 | 33.441 | 2 |
| 2025-06-18T06:14:00 | 53.899123 | 6.236879 | 2.0 | 15.468 | 2 | 41.804 | 15.627 | 33.443 | 2 |
| 2025-06-18T06:15:00 | 53.899128 | 6.236909 | 2.0 | 15.461 | 2 | 41.808 | 15.630 | 33.444 | 2 |
| 2025-06-18T06:16:00 | 53.899095 | 6.236937 | 2.0 | 15.462 | 2 | 41.804 | 15.626 | 33.444 | 2 |
| 2025-06-18T06:17:00 | 53.899050 | 6.236974 | 2.0 | 15.468 | 2 | 41.803 | 15.624 | 33.445 | 2 |
| 2025-06-18T06:18:00 | 53.899029 | 6.237053 | 2.0 | 15.461 | 2 | 41.808 | 15.629 | 33.445 | 2 |
| 2025-06-18T06:19:00 | 53.899011 | 6.237160 | 2.0 | 15.457 | 2 | 41.806 | 15.625 | 33.447 | 2 |
| 2025-06-18T06:20:00 | 53.898994 | 6.237292 | 2.0 | 15.469 | 2 | 41.803 | 15.621 | 33.447 | 2 |
| 2025-06-18T06:21:00 | 53.898982 | 6.237430 | 2.0 | 15.459 | 2 | 41.810 | 15.629 | 33.447 | 2 |
| 2025-06-18T06:22:00 | 53.898967 | 6.237554 | 2.0 | 15.459 | 2 | 41.806 | 15.623 | 33.448 | 2 |
| 2025-06-18T06:23:00 | 53.898950 | 6.237668 | 2.0 | 15.450 | 2 | 41.803 | 15.620 | 33.448 | 2 |
| 2025-06-18T06:24:00 | 53.898930 | 6.237772 | 2.0 | 15.452 | 2 | 41.800 | 15.617 | 33.448 | 2 |
| 2025-06-18T06:25:00 | 53.898911 | 6.237869 | 2.0 | 15.462 | 2 | 41.800 | 15.616 | 33.449 | 2 |
| 2025-06-18T06:26:00 | 53.898896 | 6.237961 | 2.0 | 15.442 | 2 | 41.809 | 15.626 | 33.448 | 2 |
| 2025-06-18T06:27:00 | 53.898892 | 6.238051 | 2.0 | 15.440 | 2 | 41.795 | 15.609 | 33.450 | 2 |
| 2025-06-18T06:28:00 | 53.898905 | 6.238139 | 2.0 | 15.451 | 2 | 41.791 | 15.606 | 33.449 | 2 |
| 2025-06-18T06:29:00 | 53.898924 | 6.238225 | 2.0 | 15.454 | 2 | 41.800 | 15.616 | 33.449 | 2 |
| 2025-06-18T06:30:00 | 53.898929 | 6.238306 | 2.0 | 15.445 | 2 | 41.801 | 15.614 | 33.452 | 2 |
| 2025-06-18T06:31:00 | 53.898906 | 6.238370 | 2.0 | 15.451 | 2 | 41.797 | 15.610 | 33.451 | 2 |
| 2025-06-18T06:32:00 | 53.898861 | 6.238410 | 2.0 | 15.438 | 2 | 41.797 | 15.608 | 33.453 | 2 |
| 2025-06-18T06:33:00 | 53.898788 | 6.238420 | 2.0 | 15.442 | 2 | 41.793 | 15.606 | 33.451 | 2 |
| 2025-06-18T06:34:00 | 53.898696 | 6.238385 | 2.0 | 15.444 | 2 | 41.794 | 15.605 | 33.453 | 2 |
| 2025-06-18T06:35:00 | 53.898595 | 6.238294 | 2.0 | 15.452 | 2 | 41.797 | 15.609 | 33.452 | 2 |
| 2025-06-18T06:36:00 | 53.898489 | 6.238140 | 2.0 | 15.456 | 2 | 41.803 | 15.616 | 33.452 | 2 |
| 2025-06-18T06:37:00 | 53.898385 | 6.237937 | 2.0 | 15.453 | 2 | 41.806 | 15.619 | 33.452 | 2 |
| 2025-06-18T06:38:00 | 53.898281 | 6.237703 | 2.0 | 15.443 | 2 | 41.803 | 15.615 | 33.452 | 2 |
| 2025-06-18T06:39:00 | 53.898117 | 6.237359 | 2.0 | 15.459 | 2 | 41.795 | 15.608 | 33.451 | 2 |
| 2025-06-18T06:40:00 | 53.897928 | 6.237354 | 2.0 | 15.460 | 2 | 41.809 | 15.622 | 33.452 | 2 |
| 2025-06-18T06:41:00 | 53.898039 | 6.238137 | 2.0 | 15.461 | 2 | 41.811 | 15.624 | 33.452 | 2 |
| 2025-06-18T06:42:00 | 53.898309 | 6.239662 | 2.0 | 15.449 | 2 | 41.809 | 15.618 | 33.455 | 2 |
| 2025-06-18T06:43:00 | 53.898672 | 6.241747 | 2.0 | 15.438 | 2 | 41.803 | 15.609 | 33.458 | 2 |
| 2025-06-18T06:44:00 | 53.899095 | 6.244242 | 2.0 | 15.436 | 2 | 41.802 | 15.605 | 33.460 | 2 |
| 2025-06-18T06:45:00 | 53.899556 | 6.246943 | 2.0 | 15.428 | 2 | 41.802 | 15.600 | 33.464 | 2 |
| 2025-06-18T06:46:00 | 53.900020 | 6.249758 | 2.0 | 15.426 | 2 | 41.798 | 15.593 | 33.467 | 2 |
| 2025-06-18T06:47:00 | 53.900492 | 6.252620 | 2.0 | 15.413 | 2 | 41.800 | 15.589 | 33.472 | 2 |
| 2025-06-18T06:48:00 | 53.900957 | 6.255505 | 2.0 | 15.401 | 2 | 41.796 | 15.577 | 33.478 | 2 |
| 2025-06-18T06:49:00 | 53.901435 | 6.258396 | 2.0 | 15.401 | 2 | 41.793 | 15.568 | 33.483 | 2 |
| 2025-06-18T06:50:00 | 53.901897 | 6.261296 | 2.0 | 15.384 | 2 | 41.794 | 15.563 | 33.489 | 2 |
| 2025-06-18T06:51:00 | 53.902366 | 6.264197 | 2.0 | 15.379 | 2 | 41.789 | 15.550 | 33.495 | 2 |
| 2025-06-18T06:52:00 | 53.902845 | 6.267090 | 2.0 | 15.376 | 2 | 41.787 | 15.545 | 33.498 | 2 |
| 2025-06-18T06:53:00 | 53.903344 | 6.270025 | 2.0 | 15.391 | 2 | 41.788 | 15.545 | 33.499 | 2 |
| 2025-06-18T06:54:00 | 53.903881 | 6.273091 | 2.0 | 15.410 | 2 | 41.792 | 15.555 | 33.494 | 2 |
| 2025-06-18T06:55:00 | 53.904462 | 6.276212 | 2.0 | 15.430 | 2 | 41.777 | 15.580 | 33.459 | 2 |
| 2025-06-18T06:56:00 | 53.905031 | 6.279170 | 2.0 | 15.437 | 2 | 41.764 | 15.594 | 33.435 | 2 |
| 2025-06-18T06:57:00 | 53.905591 | 6.282173 | 2.0 | 15.444 | 2 | 41.759 | 15.608 | 33.419 | 2 |
| 2025-06-18T06:58:00 | 53.906242 | 6.285734 | 2.0 | 15.475 | 2 | 41.746 | 15.612 | 33.404 | 2 |
| 2025-06-18T06:59:00 | 53.906951 | 6.289558 | 2.0 | 15.487 | 2 | 41.756 | 15.642 | 33.388 | 2 |
| 2025-06-18T07:00:00 | 53.907702 | 6.293675 | 2.0 | 15.499 | 2 | 41.746 | 15.653 | 33.369 | 2 |
| 2025-06-18T07:01:00 | 53.908479 | 6.297978 | 2.0 | 15.508 | 2 | 41.748 | 15.665 | 33.361 | 2 |
| 2025-06-18T07:02:00 | 53.909267 | 6.302309 | 2.0 | 15.504 | 2 | 41.749 | 15.671 | 33.357 | 2 |
| 2025-06-18T07:03:00 | 53.910030 | 6.306567 | 2.0 | 15.491 | 2 | 41.743 | 15.666 | 33.356 | 2 |
| 2025-06-18T07:04:00 | 53.910772 | 6.310833 | 2.0 | 15.485 | 2 | 41.739 | 15.657 | 33.360 | 2 |
| 2025-06-18T07:05:00 | 53.911500 | 6.315089 | 2.0 | 15.443 | 2 | 41.749 | 15.637 | 33.386 | 2 |
| 2025-06-18T07:06:00 | 53.912218 | 6.319316 | 2.0 | 15.438 | 2 | 41.739 | 15.609 | 33.400 | 2 |
| 2025-06-18T07:07:00 | 53.912907 | 6.323540 | 2.0 | 15.446 | 2 | 41.734 | 15.605 | 33.399 | 2 |
| 2025-06-18T07:08:00 | 53.913584 | 6.327743 | 2.0 | 15.462 | 2 | 41.747 | 15.616 | 33.402 | 2 |
| 2025-06-18T07:09:00 | 53.914253 | 6.331938 | 2.0 | 15.451 | 2 | 41.759 | 15.624 | 33.405 | 2 |
| 2025-06-18T07:10:00 | 53.914915 | 6.336136 | 2.0 | 15.436 | 2 | 41.752 | 15.613 | 33.409 | 2 |
| 2025-06-18T07:11:00 | 53.915561 | 6.340325 | 2.0 | 15.436 | 2 | 41.754 | 15.604 | 33.418 | 2 |
| 2025-06-18T07:12:00 | 53.916207 | 6.344526 | 2.0 | 15.427 | 2 | 41.750 | 15.600 | 33.418 | 2 |
| 2025-06-18T07:13:00 | 53.916853 | 6.348747 | 2.0 | 15.412 | 2 | 41.752 | 15.594 | 33.425 | 2 |
| 2025-06-18T07:14:00 | 53.917512 | 6.352974 | 2.0 | 15.386 | 2 | 41.758 | 15.575 | 33.446 | 2 |
| 2025-06-18T07:15:00 | 53.918226 | 6.357161 | 2.0 | 15.384 | 2 | 41.754 | 15.553 | 33.461 | 2 |
| 2025-06-18T07:16:00 | 53.918952 | 6.361320 | 2.0 | 15.418 | 2 | 41.734 | 15.558 | 33.439 | 2 |
| 2025-06-18T07:17:00 | 53.919680 | 6.365463 | 2.0 | 15.436 | 2 | 41.743 | 15.590 | 33.420 | 2 |
| 2025-06-18T07:18:00 | 53.920414 | 6.369600 | 2.0 | 15.473 | 2 | 41.752 | 15.610 | 33.411 | 2 |
| 2025-06-18T07:19:00 | 53.921152 | 6.373740 | 2.0 | 15.457 | 2 | 41.769 | 15.631 | 33.408 | 2 |
| 2025-06-18T07:20:00 | 53.921894 | 6.377904 | 2.0 | 15.451 | 2 | 41.757 | 15.620 | 33.407 | 2 |
| 2025-06-18T07:21:00 | 53.922641 | 6.382067 | 2.0 | 15.459 | 2 | 41.750 | 15.622 | 33.399 | 2 |
| 2025-06-18T07:22:00 | 53.923385 | 6.386232 | 2.0 | 15.475 | 2 | 41.747 | 15.624 | 33.395 | 2 |
| 2025-06-18T07:23:00 | 53.924123 | 6.390396 | 2.0 | 15.477 | 2 | 41.757 | 15.640 | 33.390 | 2 |
| 2025-06-18T07:24:00 | 53.924859 | 6.394567 | 2.0 | 15.484 | 2 | 41.753 | 15.641 | 33.386 | 2 |
| 2025-06-18T07:25:00 | 53.925606 | 6.398727 | 2.0 | 15.505 | 2 | 41.757 | 15.657 | 33.376 | 2 |
| 2025-06-18T07:26:00 | 53.926350 | 6.402878 | 2.0 | 15.512 | 2 | 41.757 | 15.668 | 33.366 | 2 |
| 2025-06-18T07:27:00 | 53.927101 | 6.407031 | 2.0 | 15.529 | 2 | 41.752 | 15.681 | 33.351 | 2 |
| 2025-06-18T07:28:00 | 53.927844 | 6.411073 | 2.0 | 15.532 | 2 | 41.751 | 15.694 | 33.339 | 2 |
| 2025-06-18T07:29:00 | 53.928196 | 6.414078 | 2.0 | 15.555 | 2 | 41.742 | 15.697 | 33.329 | 2 |
| 2025-06-18T07:30:00 | 53.928102 | 6.416114 | 2.0 | 15.588 | 2 | 41.750 | 15.731 | 33.307 | 2 |
| 2025-06-18T07:31:00 | 53.928108 | 6.417727 | 2.0 | 15.580 | 2 | 41.747 | 15.743 | 33.294 | 2 |
| 2025-06-18T07:32:00 | 53.928111 | 6.419047 | 2.0 | 15.576 | 2 | 41.739 | 15.741 | 33.289 | 2 |
| 2025-06-18T07:33:00 | 53.928119 | 6.420147 | 2.0 | 15.587 | 2 | 41.737 | 15.744 | 33.284 | 2 |
| 2025-06-18T07:34:00 | 53.928099 | 6.420981 | 2.0 | 15.600 | 2 | 41.739 | 15.749 | 33.282 | 2 |
| 2025-06-18T07:35:00 | 53.927917 | 6.421473 | 2.0 | 15.577 | 2 | 41.741 | 15.758 | 33.276 | 2 |
| 2025-06-18T07:36:00 | 53.927887 | 6.421812 | 2.0 | 15.625 | 2 | 41.738 | 15.754 | 33.277 | 2 |
| 2025-06-18T07:37:00 | 53.928019 | 6.422028 | 2.0 | 15.620 | 2 | 41.759 | 15.782 | 33.272 | 2 |
| 2025-06-18T07:38:00 | 53.928135 | 6.422210 | 2.0 | 15.618 | 2 | 41.759 | 15.781 | 33.273 | 2 |
| 2025-06-18T07:39:00 | 53.928181 | 6.422340 | 2.0 | 15.654 | 2 | 41.762 | 15.787 | 33.270 | 2 |
| 2025-06-18T07:40:00 | 53.928210 | 6.422442 | 2.0 | 15.661 | 2 | 41.783 | 15.815 | 33.266 | 2 |
| 2025-06-18T07:41:00 | 53.928277 | 6.422522 | 2.0 | 15.655 | 2 | 41.787 | 15.819 | 33.266 | 2 |
| 2025-06-18T07:42:00 | 53.928350 | 6.422585 | 2.0 | 15.688 | 2 | 41.792 | 15.824 | 33.266 | 2 |
| 2025-06-18T07:43:00 | 53.928400 | 6.422639 | 2.0 | 15.639 | 2 | 41.811 | 15.841 | 33.269 | 2 |
| 2025-06-18T07:44:00 | 53.928420 | 6.422676 | 2.0 | 15.644 | 2 | 41.782 | 15.806 | 33.272 | 2 |
| 2025-06-18T07:45:00 | 53.928412 | 6.422684 | 2.0 | 15.648 | 2 | 41.776 | 15.806 | 33.267 | 2 |
| 2025-06-18T07:46:00 | 53.928370 | 6.422664 | 2.0 | 15.593 | 2 | 41.763 | 15.800 | 33.260 | 2 |
| 2025-06-18T07:47:00 | 53.928353 | 6.422655 | 2.0 | 15.647 | 2 | 41.727 | 15.765 | 33.258 | 2 |
| 2025-06-18T07:48:00 | 53.928398 | 6.422631 | 2.0 | 15.651 | 2 | 41.761 | 15.811 | 33.249 | 2 |
| 2025-06-18T07:49:00 | 53.928469 | 6.422613 | 2.0 | 15.655 | 2 | 41.769 | 15.821 | 33.248 | 2 |
| 2025-06-18T07:50:00 | 53.928500 | 6.422639 | 2.0 | 15.622 | 2 | 41.760 | 15.807 | 33.252 | 2 |
| 2025-06-18T07:51:00 | 53.928516 | 6.422714 | 2.0 | 15.624 | 2 | 41.738 | 15.786 | 33.250 | 2 |
| 2025-06-18T07:52:00 | 53.928531 | 6.422800 | 2.0 | 15.583 | 2 | 41.735 | 15.783 | 33.250 | 2 |
| 2025-06-18T07:53:00 | 53.928535 | 6.422868 | 2.0 | 15.671 | 2 | 41.713 | 15.760 | 33.250 | 2 |
| 2025-06-18T07:54:00 | 53.928479 | 6.422888 | 2.0 | 15.664 | 2 | 41.772 | 15.835 | 33.239 | 2 |
| 2025-06-18T07:55:00 | 53.928339 | 6.422652 | 2.0 | 15.622 | 2 | 41.759 | 15.804 | 33.254 | 2 |
| 2025-06-18T07:56:00 | 53.928162 | 6.421906 | 2.0 | 15.605 | 2 | 41.735 | 15.777 | 33.255 | 2 |
| 2025-06-18T07:57:00 | 53.928075 | 6.420409 | 2.0 | 15.698 | 2 | 41.744 | 15.791 | 33.251 | 2 |
| 2025-06-18T07:58:00 | 53.927944 | 6.418001 | 2.0 | 15.659 | 2 | 41.796 | 15.840 | 33.256 | 2 |
| 2025-06-18T07:59:00 | 53.927745 | 6.414798 | 2.0 | 15.618 | 2 | 41.786 | 15.821 | 33.263 | 2 |
| 2025-06-18T08:00:00 | 53.927504 | 6.411197 | 2.0 | 15.590 | 2 | 41.758 | 15.781 | 33.272 | 2 |
| 2025-06-18T08:01:00 | 53.927214 | 6.407061 | 2.0 | 15.574 | 2 | 41.739 | 15.751 | 33.280 | 2 |
| 2025-06-18T08:02:00 | 53.926897 | 6.402517 | 2.0 | 15.594 | 2 | 41.734 | 15.741 | 33.284 | 2 |
| 2025-06-18T08:03:00 | 53.926556 | 6.397863 | 2.0 | 15.607 | 2 | 41.754 | 15.753 | 33.292 | 2 |
| 2025-06-18T08:04:00 | 53.926211 | 6.393185 | 2.0 | 15.582 | 2 | 41.791 | 15.769 | 33.311 | 2 |
| 2025-06-18T08:05:00 | 53.925860 | 6.388497 | 2.0 | 15.543 | 2 | 41.797 | 15.749 | 33.334 | 2 |
| 2025-06-18T08:06:00 | 53.925500 | 6.383807 | 2.0 | 15.541 | 2 | 41.779 | 15.715 | 33.346 | 2 |
| 2025-06-18T08:07:00 | 53.925132 | 6.379123 | 2.0 | 15.520 | 2 | 41.779 | 15.700 | 33.359 | 2 |
| 2025-06-18T08:08:00 | 53.924761 | 6.374439 | 2.0 | 15.500 | 2 | 41.779 | 15.683 | 33.373 | 2 |
| 2025-06-18T08:09:00 | 53.924394 | 6.369763 | 2.0 | 15.495 | 2 | 41.771 | 15.666 | 33.381 | 2 |
| 2025-06-18T08:10:00 | 53.924019 | 6.365093 | 2.0 | 15.528 | 2 | 41.783 | 15.672 | 33.386 | 2 |
| 2025-06-18T08:11:00 | 53.923643 | 6.360434 | 2.0 | 15.515 | 2 | 41.809 | 15.695 | 33.390 | 2 |
| 2025-06-18T08:12:00 | 53.923277 | 6.355784 | 2.0 | 15.501 | 2 | 41.800 | 15.679 | 33.396 | 2 |
| 2025-06-18T08:13:00 | 53.922900 | 6.351140 | 2.0 | 15.519 | 2 | 41.794 | 15.667 | 33.400 | 2 |
| 2025-06-18T08:14:00 | 53.922522 | 6.346499 | 2.0 | 15.518 | 2 | 41.813 | 15.682 | 33.405 | 2 |
| 2025-06-18T08:15:00 | 53.922142 | 6.341858 | 2.0 | 15.446 | 2 | 41.809 | 15.665 | 33.415 | 2 |
| 2025-06-18T08:16:00 | 53.921751 | 6.337217 | 2.0 | 15.456 | 2 | 41.772 | 15.618 | 33.422 | 2 |
| 2025-06-18T08:17:00 | 53.921357 | 6.332589 | 2.0 | 15.432 | 2 | 41.775 | 15.621 | 33.422 | 2 |
| 2025-06-18T08:18:00 | 53.920964 | 6.327975 | 2.0 | 15.466 | 2 | 41.780 | 15.611 | 33.435 | 2 |
| 2025-06-18T08:19:00 | 53.920528 | 6.323389 | 2.0 | 15.410 | 2 | 41.821 | 15.621 | 33.463 | 2 |
| 2025-06-18T08:20:00 | 53.920059 | 6.318827 | 2.0 | 15.406 | 2 | 41.797 | 15.577 | 33.479 | 2 |
| 2025-06-18T08:21:00 | 53.919596 | 6.314280 | 2.0 | 15.427 | 2 | 41.778 | 15.572 | 33.467 | 2 |
| 2025-06-18T08:22:00 | 53.919133 | 6.309730 | 2.0 | 15.401 | 2 | 41.781 | 15.592 | 33.452 | 2 |
| 2025-06-18T08:23:00 | 53.918667 | 6.305181 | 2.0 | 15.441 | 2 | 41.764 | 15.582 | 33.446 | 2 |
| 2025-06-18T08:24:00 | 53.918307 | 6.300724 | 2.0 | 15.474 | 2 | 41.788 | 15.619 | 33.436 | 2 |
| 2025-06-18T08:25:00 | 53.918046 | 6.296746 | 2.0 | 15.464 | 2 | 41.806 | 15.643 | 33.431 | 2 |
| 2025-06-18T08:26:00 | 53.917827 | 6.292912 | 2.0 | 15.488 | 2 | 41.794 | 15.632 | 33.430 | 2 |
| 2025-06-18T08:27:00 | 53.917116 | 6.289501 | 2.0 | 15.548 | 2 | 41.816 | 15.666 | 33.421 | 2 |
| 2025-06-18T08:28:00 | 53.916263 | 6.286182 | 2.0 | 15.529 | 2 | 41.855 | 15.712 | 33.417 | 2 |
| 2025-06-18T08:29:00 | 53.915564 | 6.283370 | 2.0 | 15.535 | 2 | 41.840 | 15.698 | 33.415 | 2 |
| 2025-06-18T08:30:00 | 53.915114 | 6.280985 | 2.0 | 15.575 | 2 | 41.835 | 15.702 | 33.407 | 2 |
| 2025-06-18T08:31:00 | 53.914955 | 6.278851 | 2.0 | 15.637 | 2 | 41.872 | 15.755 | 33.395 | 2 |
| 2025-06-18T08:32:00 | 53.915055 | 6.277241 | 2.0 | 15.602 | 2 | 41.896 | 15.793 | 33.385 | 2 |
| 2025-06-18T08:33:00 | 53.915376 | 6.276914 | 2.0 | 15.617 | 2 | 41.878 | 15.774 | 33.385 | 2 |
| 2025-06-18T08:34:00 | 53.915483 | 6.276944 | 2.0 | 15.544 | 2 | 41.868 | 15.750 | 33.396 | 2 |
| 2025-06-18T08:35:00 | 53.915519 | 6.277048 | 2.0 | 15.586 | 2 | 41.843 | 15.719 | 33.400 | 2 |
| 2025-06-18T08:36:00 | 53.915538 | 6.277175 | 2.0 | 15.632 | 2 | 41.871 | 15.755 | 33.395 | 2 |
| 2025-06-18T08:37:00 | 53.915547 | 6.277310 | 2.0 | 15.630 | 2 | 41.897 | 15.782 | 33.395 | 2 |
| 2025-06-18T08:38:00 | 53.915537 | 6.277458 | 2.0 | 15.629 | 2 | 41.914 | 15.798 | 33.396 | 2 |
| 2025-06-18T08:39:00 | 53.915512 | 6.277620 | 2.0 | 15.673 | 2 | 41.915 | 15.797 | 33.398 | 2 |
| 2025-06-18T08:40:00 | 53.915465 | 6.277793 | 2.0 | 15.690 | 2 | 41.952 | 15.839 | 33.396 | 2 |
| 2025-06-18T08:41:00 | 53.915433 | 6.277995 | 2.0 | 15.583 | 2 | 41.943 | 15.814 | 33.409 | 2 |
| 2025-06-18T08:42:00 | 53.915457 | 6.278191 | 2.0 | 15.613 | 2 | 41.892 | 15.766 | 33.404 | 2 |
| 2025-06-18T08:43:00 | 53.915474 | 6.278254 | 2.0 | 15.526 | 2 | 41.887 | 15.755 | 33.409 | 2 |
| 2025-06-18T08:44:00 | 53.915471 | 6.278228 | 2.0 | 15.507 | 2 | 41.826 | 15.689 | 33.410 | 2 |
| 2025-06-18T08:45:00 | 53.915475 | 6.278221 | 2.0 | 15.551 | 2 | 41.812 | 15.679 | 33.406 | 2 |
| 2025-06-18T08:46:00 | 53.915476 | 6.278230 | 2.0 | 15.633 | 2 | 41.868 | 15.745 | 33.400 | 2 |
| 2025-06-18T08:47:00 | 53.915500 | 6.278244 | 2.0 | 15.637 | 2 | 41.917 | 15.792 | 33.404 | 2 |
| 2025-06-18T08:48:00 | 53.915566 | 6.278242 | 2.0 | 15.650 | 2 | 41.926 | 15.801 | 33.405 | 2 |
| 2025-06-18T08:49:00 | 53.915643 | 6.278221 | 2.0 | 15.654 | 2 | 41.937 | 15.813 | 33.404 | 2 |
| 2025-06-18T08:50:00 | 53.915748 | 6.278155 | 2.0 | 15.624 | 2 | 41.935 | 15.808 | 33.407 | 2 |
| 2025-06-18T08:51:00 | 53.915854 | 6.278016 | 2.0 | 15.649 | 2 | 41.916 | 15.788 | 33.407 | 2 |
| 2025-06-18T08:52:00 | 53.915943 | 6.277789 | 2.0 | 15.620 | 2 | 41.935 | 15.810 | 33.405 | 2 |
| 2025-06-18T08:53:00 | 53.915938 | 6.277466 | 2.0 | 15.644 | 2 | 41.917 | 15.789 | 33.407 | 2 |
| 2025-06-18T08:54:00 | 53.915831 | 6.277343 | 2.0 | 15.513 | 2 | 41.910 | 15.771 | 33.416 | 2 |
| 2025-06-18T08:55:00 | 53.915554 | 6.277213 | 2.0 | 15.527 | 2 | 41.831 | 15.693 | 33.411 | 2 |
| 2025-06-18T08:56:00 | 53.915487 | 6.276747 | 2.0 | 15.550 | 2 | 41.821 | 15.684 | 33.410 | 2 |
| 2025-06-18T08:57:00 | 53.915649 | 6.276576 | 2.0 | 15.592 | 2 | 41.866 | 15.743 | 33.400 | 2 |
| 2025-06-18T08:58:00 | 53.915746 | 6.276749 | 2.0 | 15.424 | 2 | 41.847 | 15.699 | 33.421 | 2 |
| 2025-06-18T08:59:00 | 53.915815 | 6.276987 | 2.0 | 15.454 | 2 | 41.759 | 15.611 | 33.417 | 2 |
| 2025-06-18T09:00:00 | 53.915831 | 6.277093 | 2.0 | 15.487 | 2 | 41.779 | 15.635 | 33.414 | 2 |
| 2025-06-18T09:01:00 | 53.915768 | 6.277041 | 2.0 | 15.513 | 2 | 41.812 | 15.673 | 33.411 | 2 |
| 2025-06-18T09:02:00 | 53.915703 | 6.277039 | 2.0 | 15.520 | 2 | 41.835 | 15.696 | 33.412 | 2 |
| 2025-06-18T09:03:00 | 53.915671 | 6.277126 | 2.0 | 15.560 | 2 | 41.845 | 15.707 | 33.412 | 2 |
| 2025-06-18T09:04:00 | 53.915683 | 6.277226 | 2.0 | 15.586 | 2 | 41.877 | 15.743 | 33.410 | 2 |
| 2025-06-18T09:05:00 | 53.915663 | 6.277300 | 2.0 | 15.608 | 2 | 41.912 | 15.782 | 33.408 | 2 |
| 2025-06-18T09:06:00 | 53.915629 | 6.277350 | 2.0 | 15.635 | 2 | 41.925 | 15.795 | 33.409 | 2 |
| 2025-06-18T09:07:00 | 53.915639 | 6.277342 | 2.0 | 15.492 | 2 | 41.930 | 15.792 | 33.416 | 2 |
| 2025-06-18T09:08:00 | 53.915655 | 6.277308 | 2.0 | 15.438 | 2 | 41.832 | 15.681 | 33.422 | 2 |
| 2025-06-18T09:09:00 | 53.915674 | 6.277274 | 2.0 | 15.491 | 2 | 41.793 | 15.646 | 33.417 | 2 |
| 2025-06-18T09:10:00 | 53.915690 | 6.277232 | 2.0 | 15.470 | 2 | 41.821 | 15.677 | 33.416 | 2 |
| 2025-06-18T09:11:00 | 53.915700 | 6.277185 | 2.0 | 15.606 | 2 | 41.834 | 15.695 | 33.412 | 2 |
| 2025-06-18T09:12:00 | 53.915695 | 6.277175 | 2.0 | 15.681 | 2 | 41.937 | 15.808 | 33.408 | 2 |
| 2025-06-18T09:13:00 | 53.915681 | 6.277198 | 2.0 | 15.626 | 2 | 41.997 | 15.871 | 33.409 | 2 |
| 2025-06-18T09:14:00 | 53.915655 | 6.277226 | 2.0 | 15.541 | 2 | 41.944 | 15.800 | 33.421 | 2 |
| 2025-06-18T09:15:00 | 53.915619 | 6.277276 | 2.0 | 15.471 | 2 | 41.877 | 15.730 | 33.421 | 2 |
| 2025-06-18T09:16:00 | 53.915593 | 6.277352 | 2.0 | 15.423 | 2 | 41.810 | 15.655 | 33.425 | 2 |
| 2025-06-18T09:17:00 | 53.915644 | 6.277368 | 2.0 | 15.524 | 2 | 41.781 | 15.631 | 33.419 | 2 |
| 2025-06-18T09:18:00 | 53.915738 | 6.277374 | 2.0 | 15.546 | 2 | 41.873 | 15.739 | 33.410 | 2 |
| 2025-06-18T09:19:00 | 53.915802 | 6.277329 | 2.0 | 15.507 | 2 | 41.876 | 15.726 | 33.424 | 2 |
| 2025-06-18T09:20:00 | 53.915804 | 6.277274 | 2.0 | 15.490 | 2 | 41.846 | 15.700 | 33.419 | 2 |
| 2025-06-18T09:21:00 | 53.915768 | 6.277279 | 2.0 | 15.493 | 2 | 41.836 | 15.689 | 33.419 | 2 |
| 2025-06-18T09:22:00 | 53.915722 | 6.277287 | 2.0 | 15.496 | 2 | 41.836 | 15.691 | 33.417 | 2 |
| 2025-06-18T09:23:00 | 53.915686 | 6.277279 | 2.0 | 15.486 | 2 | 41.839 | 15.693 | 33.418 | 2 |
| 2025-06-18T09:24:00 | 53.915669 | 6.277252 | 2.0 | 15.483 | 2 | 41.828 | 15.680 | 33.420 | 2 |
| 2025-06-18T09:25:00 | 53.915690 | 6.277171 | 2.0 | 15.490 | 2 | 41.827 | 15.679 | 33.420 | 2 |
| 2025-06-18T09:26:00 | 53.915731 | 6.277107 | 2.0 | 15.514 | 2 | 41.837 | 15.693 | 33.417 | 2 |
| 2025-06-18T09:27:00 | 53.915738 | 6.277065 | 2.0 | 15.525 | 2 | 41.859 | 15.719 | 33.414 | 2 |
| 2025-06-18T09:28:00 | 53.915726 | 6.277012 | 2.0 | 15.526 | 2 | 41.861 | 15.718 | 33.417 | 2 |
| 2025-06-18T09:29:00 | 53.915695 | 6.276971 | 2.0 | 15.529 | 2 | 41.867 | 15.725 | 33.416 | 2 |
| 2025-06-18T09:30:00 | 53.915691 | 6.277031 | 2.0 | 15.501 | 2 | 41.866 | 15.721 | 33.419 | 2 |
| 2025-06-18T09:31:00 | 53.915700 | 6.277130 | 2.0 | 15.475 | 2 | 41.841 | 15.692 | 33.421 | 2 |
| 2025-06-18T09:32:00 | 53.915657 | 6.277222 | 2.0 | 15.452 | 2 | 41.830 | 15.683 | 33.419 | 2 |
| 2025-06-18T09:33:00 | 53.915587 | 6.277311 | 2.0 | 15.372 | 2 | 41.794 | 15.635 | 33.427 | 2 |
| 2025-06-18T09:34:00 | 53.915568 | 6.277370 | 2.0 | 15.393 | 2 | 41.742 | 15.582 | 33.426 | 2 |
| 2025-06-18T09:35:00 | 53.915578 | 6.277404 | 2.0 | 15.411 | 2 | 41.754 | 15.598 | 33.423 | 2 |
| 2025-06-18T09:36:00 | 53.915553 | 6.277388 | 2.0 | 15.418 | 2 | 41.772 | 15.620 | 33.420 | 2 |
| 2025-06-18T09:37:00 | 53.915512 | 6.277393 | 2.0 | 15.432 | 2 | 41.776 | 15.621 | 33.423 | 2 |
| 2025-06-18T09:38:00 | 53.915470 | 6.277421 | 2.0 | 15.478 | 2 | 41.797 | 15.649 | 33.418 | 2 |
| 2025-06-18T09:39:00 | 53.915434 | 6.277439 | 2.0 | 15.458 | 2 | 41.817 | 15.667 | 33.421 | 2 |
| 2025-06-18T09:40:00 | 53.915422 | 6.277413 | 2.0 | 15.447 | 2 | 41.809 | 15.659 | 33.420 | 2 |
| 2025-06-18T09:41:00 | 53.915433 | 6.277356 | 2.0 | 15.471 | 2 | 41.805 | 15.654 | 33.421 | 2 |
| 2025-06-18T09:42:00 | 53.915472 | 6.277319 | 2.0 | 15.506 | 2 | 41.828 | 15.683 | 33.417 | 2 |
| 2025-06-18T09:43:00 | 53.915512 | 6.277299 | 2.0 | 15.558 | 2 | 41.852 | 15.710 | 33.416 | 2 |
| 2025-06-18T09:44:00 | 53.915536 | 6.277308 | 2.0 | 15.633 | 2 | 41.912 | 15.780 | 33.410 | 2 |
| 2025-06-18T09:45:00 | 53.915566 | 6.277317 | 2.0 | 15.727 | 2 | 41.969 | 15.838 | 33.412 | 2 |
| 2025-06-18T09:46:00 | 53.915583 | 6.277334 | 2.0 | 15.793 | 2 | 42.052 | 15.935 | 33.403 | 2 |
| 2025-06-18T09:47:00 | 53.915569 | 6.277378 | 2.0 | 15.889 | 2 | 42.113 | 16.003 | 33.400 | 2 |
| 2025-06-18T09:48:00 | 53.915550 | 6.277421 | 2.0 | 15.884 | 2 | 42.164 | 16.071 | 33.388 | 2 |
| 2025-06-18T09:49:00 | 53.915551 | 6.277446 | 2.0 | 15.909 | 2 | 42.175 | 16.092 | 33.380 | 2 |
| 2025-06-18T09:50:00 | 53.915556 | 6.277462 | 2.0 | 15.891 | 2 | 42.192 | 16.115 | 33.376 | 2 |
| 2025-06-18T09:51:00 | 53.915559 | 6.277468 | 2.0 | 15.904 | 2 | 42.178 | 16.099 | 33.377 | 2 |
| 2025-06-18T09:52:00 | 53.915576 | 6.277477 | 2.0 | 15.928 | 2 | 42.184 | 16.113 | 33.370 | 2 |
| 2025-06-18T09:53:00 | 53.915592 | 6.277483 | 2.0 | 15.939 | 2 | 42.198 | 16.133 | 33.366 | 2 |
| 2025-06-18T09:54:00 | 53.915599 | 6.277485 | 2.0 | 15.916 | 2 | 42.198 | 16.135 | 33.364 | 2 |
| 2025-06-18T09:55:00 | 53.915599 | 6.277493 | 2.0 | 15.950 | 2 | 42.187 | 16.125 | 33.363 | 2 |
| 2025-06-18T09:56:00 | 53.915615 | 6.277476 | 2.0 | 15.946 | 2 | 42.207 | 16.153 | 33.357 | 2 |
| 2025-06-18T09:57:00 | 53.915651 | 6.277453 | 2.0 | 15.968 | 2 | 42.207 | 16.153 | 33.357 | 2 |
| 2025-06-18T09:58:00 | 53.915676 | 6.277461 | 2.0 | 16.007 | 2 | 42.224 | 16.179 | 33.350 | 2 |
| 2025-06-18T09:59:00 | 53.915684 | 6.277483 | 2.0 | 15.991 | 2 | 42.261 | 16.222 | 33.347 | 2 |
| 2025-06-18T10:00:00 | 53.915677 | 6.277512 | 2.0 | 15.999 | 2 | 42.246 | 16.202 | 33.351 | 2 |
| 2025-06-18T10:01:00 | 53.915657 | 6.277560 | 2.0 | 15.978 | 2 | 42.243 | 16.199 | 33.350 | 2 |
| 2025-06-18T10:02:00 | 53.915630 | 6.277605 | 2.0 | 15.991 | 2 | 42.237 | 16.199 | 33.345 | 2 |
| 2025-06-18T10:03:00 | 53.915681 | 6.277754 | 2.0 | 15.900 | 2 | 42.223 | 16.177 | 33.351 | 2 |
| 2025-06-18T10:04:00 | 53.915961 | 6.278086 | 2.0 | 15.835 | 2 | 42.168 | 16.116 | 33.354 | 2 |
| 2025-06-18T10:05:00 | 53.916280 | 6.278466 | 2.0 | 15.808 | 2 | 42.098 | 16.040 | 33.356 | 2 |
| 2025-06-18T10:06:00 | 53.916552 | 6.278725 | 2.0 | 15.835 | 2 | 42.074 | 16.026 | 33.346 | 2 |
| 2025-06-18T10:07:00 | 53.916766 | 6.278937 | 2.0 | 15.791 | 2 | 42.087 | 16.034 | 33.351 | 2 |
| 2025-06-18T10:08:00 | 53.916882 | 6.279159 | 2.0 | 15.864 | 2 | 42.081 | 16.021 | 33.357 | 2 |
| 2025-06-18T10:09:00 | 53.916919 | 6.279207 | 2.0 | 15.883 | 2 | 42.122 | 16.071 | 33.351 | 2 |
| 2025-06-18T10:10:00 | 53.916910 | 6.279208 | 2.0 | 15.926 | 2 | 42.151 | 16.107 | 33.346 | 2 |
| 2025-06-18T10:11:00 | 53.916892 | 6.279234 | 2.0 | 15.931 | 2 | 42.177 | 16.133 | 33.348 | 2 |
| 2025-06-18T10:12:00 | 53.916863 | 6.279284 | 2.0 | 15.939 | 2 | 42.180 | 16.136 | 33.348 | 2 |
| 2025-06-18T10:13:00 | 53.916849 | 6.279244 | 2.0 | 15.896 | 2 | 42.195 | 16.153 | 33.347 | 2 |
| 2025-06-18T10:14:00 | 53.916843 | 6.279179 | 2.0 | 15.896 | 2 | 42.158 | 16.111 | 33.349 | 2 |
| 2025-06-18T10:15:00 | 53.916824 | 6.279120 | 2.0 | 15.860 | 2 | 42.157 | 16.112 | 33.347 | 2 |
| 2025-06-18T10:16:00 | 53.916836 | 6.279118 | 2.0 | 15.699 | 2 | 42.125 | 16.075 | 33.350 | 2 |
| 2025-06-18T10:17:00 | 53.916839 | 6.279176 | 2.0 | 15.697 | 2 | 42.002 | 15.933 | 33.361 | 2 |
| 2025-06-18T10:18:00 | 53.916828 | 6.279254 | 2.0 | 15.679 | 2 | 41.974 | 15.914 | 33.352 | 2 |
| 2025-06-18T10:19:00 | 53.916827 | 6.279247 | 2.0 | 15.622 | 2 | 41.957 | 15.894 | 33.354 | 2 |
| 2025-06-18T10:20:00 | 53.916827 | 6.279210 | 2.0 | 15.613 | 2 | 41.908 | 15.843 | 33.353 | 2 |
| 2025-06-18T10:21:00 | 53.916823 | 6.279263 | 2.0 | 15.637 | 2 | 41.894 | 15.834 | 33.348 | 2 |
| 2025-06-18T10:22:00 | 53.916793 | 6.279324 | 2.0 | 15.629 | 2 | 41.921 | 15.865 | 33.346 | 2 |
| 2025-06-18T10:23:00 | 53.916823 | 6.279289 | 2.0 | 15.620 | 2 | 41.908 | 15.848 | 33.349 | 2 |
| 2025-06-18T10:24:00 | 53.916848 | 6.279277 | 2.0 | 15.610 | 2 | 41.898 | 15.842 | 33.345 | 2 |
| 2025-06-18T10:25:00 | 53.916847 | 6.279287 | 2.0 | 15.608 | 2 | 41.886 | 15.828 | 33.346 | 2 |
| 2025-06-18T10:26:00 | 53.916825 | 6.279282 | 2.0 | 15.609 | 2 | 41.886 | 15.833 | 33.342 | 2 |
| 2025-06-18T10:27:00 | 53.916804 | 6.279278 | 2.0 | 15.644 | 2 | 41.879 | 15.824 | 33.343 | 2 |
| 2025-06-18T10:28:00 | 53.916792 | 6.279284 | 2.0 | 15.637 | 2 | 41.919 | 15.872 | 33.338 | 2 |
| 2025-06-18T10:29:00 | 53.916801 | 6.279250 | 2.0 | 15.616 | 2 | 41.903 | 15.851 | 33.342 | 2 |
| 2025-06-18T10:30:00 | 53.916834 | 6.279192 | 2.0 | 15.612 | 2 | 41.889 | 15.836 | 33.342 | 2 |
| 2025-06-18T10:31:00 | 53.916848 | 6.279162 | 2.0 | 15.627 | 2 | 41.880 | 15.829 | 33.340 | 2 |
| 2025-06-18T10:32:00 | 53.916852 | 6.279171 | 2.0 | 15.614 | 2 | 41.894 | 15.845 | 33.339 | 2 |
| 2025-06-18T10:33:00 | 53.916830 | 6.279207 | 2.0 | 15.652 | 2 | 41.892 | 15.845 | 33.337 | 2 |
| 2025-06-18T10:34:00 | 53.916836 | 6.279178 | 2.0 | 15.637 | 2 | 41.917 | 15.868 | 33.340 | 2 |
| 2025-06-18T10:35:00 | 53.916855 | 6.279112 | 2.0 | 15.633 | 2 | 41.915 | 15.868 | 33.338 | 2 |
| 2025-06-18T10:36:00 | 53.916857 | 6.279097 | 2.0 | 15.666 | 2 | 41.917 | 15.869 | 33.339 | 2 |
| 2025-06-18T10:37:00 | 53.916866 | 6.279097 | 2.0 | 15.633 | 2 | 41.927 | 15.878 | 33.341 | 2 |
| 2025-06-18T10:38:00 | 53.916874 | 6.279118 | 2.0 | 15.661 | 2 | 41.925 | 15.876 | 33.340 | 2 |
| 2025-06-18T10:39:00 | 53.916854 | 6.279174 | 2.0 | 15.664 | 2 | 41.922 | 15.871 | 33.342 | 2 |
| 2025-06-18T10:40:00 | 53.916851 | 6.279206 | 2.0 | 15.635 | 2 | 41.940 | 15.891 | 33.341 | 2 |
| 2025-06-18T10:41:00 | 53.916850 | 6.279173 | 2.0 | 15.656 | 2 | 41.925 | 15.874 | 33.342 | 2 |
| 2025-06-18T10:42:00 | 53.916850 | 6.279175 | 2.0 | 15.639 | 2 | 41.923 | 15.870 | 33.344 | 2 |
| 2025-06-18T10:43:00 | 53.916836 | 6.279169 | 2.0 | 15.655 | 2 | 41.923 | 15.871 | 33.343 | 2 |
| 2025-06-18T10:44:00 | 53.916851 | 6.279156 | 2.0 | 15.618 | 2 | 41.928 | 15.874 | 33.345 | 2 |
| 2025-06-18T10:45:00 | 53.916855 | 6.279146 | 2.0 | 15.621 | 2 | 41.901 | 15.845 | 33.345 | 2 |
| 2025-06-18T10:46:00 | 53.916857 | 6.279142 | 2.0 | 15.647 | 2 | 41.916 | 15.865 | 33.342 | 2 |
| 2025-06-18T10:47:00 | 53.916836 | 6.279103 | 2.0 | 15.637 | 2 | 41.921 | 15.868 | 33.344 | 2 |
| 2025-06-18T10:48:00 | 53.916852 | 6.279079 | 2.0 | 15.629 | 2 | 41.919 | 15.866 | 33.344 | 2 |
| 2025-06-18T10:49:00 | 53.916844 | 6.279090 | 2.0 | 15.625 | 2 | 41.913 | 15.862 | 33.342 | 2 |
| 2025-06-18T10:50:00 | 53.916859 | 6.279122 | 2.0 | 15.627 | 2 | 41.901 | 15.851 | 33.340 | 2 |
| 2025-06-18T10:51:00 | 53.916869 | 6.279141 | 2.0 | 15.622 | 2 | 41.897 | 15.844 | 33.343 | 2 |
| 2025-06-18T10:52:00 | 53.916868 | 6.279116 | 2.0 | 15.640 | 2 | 41.900 | 15.849 | 33.341 | 2 |
| 2025-06-18T10:53:00 | 53.916866 | 6.279077 | 2.0 | 15.661 | 2 | 41.918 | 15.867 | 33.342 | 2 |
| 2025-06-18T10:54:00 | 53.916866 | 6.279058 | 2.0 | 15.648 | 2 | 41.948 | 15.896 | 33.344 | 2 |
| 2025-06-18T10:55:00 | 53.916866 | 6.279034 | 2.0 | 15.649 | 2 | 41.921 | 15.864 | 33.347 | 2 |
| 2025-06-18T10:56:00 | 53.916864 | 6.279077 | 2.0 | 15.622 | 2 | 41.921 | 15.865 | 33.346 | 2 |
| 2025-06-18T10:57:00 | 53.916852 | 6.279121 | 2.0 | 15.639 | 2 | 41.908 | 15.849 | 33.348 | 2 |
| 2025-06-18T10:58:00 | 53.916858 | 6.279114 | 2.0 | 15.648 | 2 | 41.918 | 15.857 | 33.350 | 2 |
| 2025-06-18T10:59:00 | 53.916865 | 6.279106 | 2.0 | 15.647 | 2 | 41.937 | 15.880 | 33.348 | 2 |
| 2025-06-18T11:00:00 | 53.916869 | 6.279116 | 2.0 | 15.604 | 2 | 41.922 | 15.858 | 33.353 | 2 |
| 2025-06-18T11:01:00 | 53.916866 | 6.279143 | 2.0 | 15.610 | 2 | 41.898 | 15.832 | 33.354 | 2 |
| 2025-06-18T11:02:00 | 53.916865 | 6.279129 | 2.0 | 15.622 | 2 | 41.900 | 15.835 | 33.353 | 2 |
| 2025-06-18T11:03:00 | 53.916878 | 6.279050 | 2.0 | 15.647 | 2 | 41.913 | 15.849 | 33.353 | 2 |
| 2025-06-18T11:04:00 | 53.916895 | 6.278652 | 2.0 | 15.708 | 2 | 41.944 | 15.882 | 33.352 | 2 |
| 2025-06-18T11:05:00 | 53.916823 | 6.278059 | 2.0 | 15.748 | 2 | 41.986 | 15.922 | 33.356 | 2 |
| 2025-06-18T11:06:00 | 53.916277 | 6.278265 | 2.0 | 15.873 | 2 | 42.042 | 15.987 | 33.351 | 2 |
| 2025-06-18T11:07:00 | 53.915263 | 6.279333 | 2.0 | 15.883 | 2 | 42.171 | 16.113 | 33.359 | 2 |
| 2025-06-18T11:08:00 | 53.913662 | 6.280593 | 2.0 | 15.919 | 2 | 42.187 | 16.125 | 33.363 | 2 |
| 2025-06-18T11:09:00 | 53.911442 | 6.282067 | 2.0 | 15.739 | 2 | 42.163 | 16.102 | 33.361 | 2 |
| 2025-06-18T11:10:00 | 53.908883 | 6.283667 | 2.0 | 15.715 | 2 | 42.016 | 15.943 | 33.365 | 2 |
| 2025-06-18T11:11:00 | 53.906205 | 6.285191 | 2.0 | 15.990 | 2 | 42.037 | 15.982 | 33.351 | 2 |
| 2025-06-18T11:12:00 | 53.903486 | 6.286602 | 2.0 | 15.958 | 2 | 42.245 | 16.191 | 33.359 | 2 |
| 2025-06-18T11:13:00 | 53.900771 | 6.288168 | 2.0 | 15.911 | 2 | 42.204 | 16.152 | 33.355 | 2 |
| 2025-06-18T11:14:00 | 53.898043 | 6.289666 | 2.0 | 15.920 | 2 | 42.115 | 16.070 | 33.346 | 2 |
| 2025-06-18T11:15:00 | 53.895310 | 6.291198 | 2.0 | 15.969 | 2 | 42.156 | 16.127 | 33.334 | 2 |
| 2025-06-18T11:16:00 | 53.892571 | 6.292702 | 2.0 | 15.936 | 2 | 42.215 | 16.182 | 33.340 | 2 |
| 2025-06-18T11:17:00 | 53.889828 | 6.294162 | 2.0 | 15.813 | 2 | 42.127 | 16.090 | 33.339 | 2 |
| 2025-06-18T11:18:00 | 53.887085 | 6.295693 | 2.0 | 15.725 | 2 | 42.027 | 15.987 | 33.337 | 2 |
| 2025-06-18T11:19:00 | 53.884337 | 6.297242 | 2.0 | 15.951 | 2 | 42.014 | 15.975 | 33.336 | 2 |
| 2025-06-18T11:20:00 | 53.881596 | 6.298799 | 2.0 | 16.108 | 2 | 42.165 | 16.141 | 33.330 | 2 |
| 2025-06-18T11:21:00 | 53.878850 | 6.300264 | 2.0 | 16.092 | 2 | 42.286 | 16.274 | 33.325 | 2 |
| 2025-06-18T11:22:00 | 53.876113 | 6.301724 | 2.0 | 16.074 | 2 | 42.273 | 16.285 | 33.305 | 2 |
| 2025-06-18T11:23:00 | 53.873385 | 6.303262 | 2.0 | 15.859 | 2 | 42.208 | 16.233 | 33.291 | 2 |
| 2025-06-18T11:24:00 | 53.870650 | 6.304756 | 2.0 | 15.943 | 2 | 42.074 | 16.072 | 33.308 | 2 |
| 2025-06-18T11:25:00 | 53.867905 | 6.306277 | 2.0 | 15.966 | 2 | 42.133 | 16.134 | 33.308 | 2 |
| 2025-06-18T11:26:00 | 53.865150 | 6.307789 | 2.0 | 16.006 | 2 | 42.147 | 16.147 | 33.309 | 2 |
| 2025-06-18T11:27:00 | 53.862390 | 6.309325 | 2.0 | 16.123 | 2 | 42.202 | 16.205 | 33.309 | 2 |
| 2025-06-18T11:28:00 | 53.859619 | 6.310764 | 2.0 | 16.128 | 2 | 42.302 | 16.297 | 33.320 | 2 |
| 2025-06-18T11:29:00 | 53.856870 | 6.312317 | 2.0 | 16.159 | 2 | 42.325 | 16.323 | 33.319 | 2 |
| 2025-06-18T11:30:00 | 53.854122 | 6.313816 | 2.0 | 16.056 | 2 | 42.316 | 16.321 | 33.313 | 2 |
| 2025-06-18T11:31:00 | 53.851372 | 6.315341 | 2.0 | 16.087 | 2 | 42.229 | 16.241 | 33.303 | 2 |
| 2025-06-18T11:32:00 | 53.848611 | 6.316837 | 2.0 | 16.080 | 2 | 42.256 | 16.270 | 33.302 | 2 |
| 2025-06-18T11:33:00 | 53.845846 | 6.318375 | 2.0 | 16.167 | 2 | 42.261 | 16.275 | 33.303 | 2 |
| 2025-06-18T11:34:00 | 53.843072 | 6.319890 | 2.0 | 16.244 | 2 | 42.345 | 16.363 | 33.303 | 2 |
| 2025-06-18T11:35:00 | 53.840304 | 6.321428 | 2.0 | 16.226 | 2 | 42.409 | 16.426 | 33.306 | 2 |
| 2025-06-18T11:36:00 | 53.837527 | 6.322947 | 2.0 | 16.259 | 2 | 42.392 | 16.412 | 33.303 | 2 |
| 2025-06-18T11:37:00 | 53.834744 | 6.324483 | 2.0 | 16.309 | 2 | 42.410 | 16.434 | 33.301 | 2 |
| 2025-06-18T11:38:00 | 53.831948 | 6.325984 | 2.0 | 16.414 | 2 | 42.466 | 16.506 | 33.290 | 2 |
| 2025-06-18T11:39:00 | 53.829151 | 6.327588 | 2.0 | 16.511 | 2 | 42.559 | 16.615 | 33.280 | 2 |
| 2025-06-18T11:40:00 | 53.826338 | 6.329101 | 2.0 | 16.457 | 2 | 42.606 | 16.680 | 33.267 | 2 |
| 2025-06-18T11:41:00 | 53.823536 | 6.330623 | 2.0 | 16.399 | 2 | 42.523 | 16.608 | 33.255 | 2 |
| 2025-06-18T11:42:00 | 53.820743 | 6.332185 | 2.0 | 16.379 | 2 | 42.492 | 16.594 | 33.239 | 2 |
| 2025-06-18T11:43:00 | 53.817957 | 6.333729 | 2.0 | 16.372 | 2 | 42.446 | 16.545 | 33.240 | 2 |
| 2025-06-18T11:44:00 | 53.815167 | 6.335286 | 2.0 | 16.520 | 2 | 42.480 | 16.594 | 33.229 | 2 |
| 2025-06-18T11:45:00 | 53.812359 | 6.336782 | 2.0 | 16.490 | 2 | 42.562 | 16.677 | 33.231 | 2 |
| 2025-06-18T11:46:00 | 53.809562 | 6.338349 | 2.0 | 16.526 | 2 | 42.556 | 16.692 | 33.214 | 2 |
| 2025-06-18T11:47:00 | 53.806767 | 6.339887 | 2.0 | 16.391 | 2 | 42.519 | 16.659 | 33.209 | 2 |
| 2025-06-18T11:48:00 | 53.803972 | 6.341421 | 2.0 | 16.491 | 2 | 42.454 | 16.612 | 33.191 | 2 |
| 2025-06-18T11:49:00 | 53.801162 | 6.342938 | 2.0 | 16.645 | 2 | 42.524 | 16.696 | 33.183 | 2 |
| 2025-06-18T11:50:00 | 53.798346 | 6.344514 | 2.0 | 16.725 | 2 | 42.628 | 16.822 | 33.169 | 2 |
| 2025-06-18T11:51:00 | 53.795514 | 6.346044 | 2.0 | 16.618 | 2 | 42.648 | 16.868 | 33.148 | 2 |
| 2025-06-18T11:52:00 | 53.792696 | 6.347610 | 2.0 | 16.666 | 2 | 42.576 | 16.807 | 33.136 | 2 |
| 2025-06-18T11:53:00 | 53.789881 | 6.349146 | 2.0 | 16.732 | 2 | 42.626 | 16.869 | 33.128 | 2 |
| 2025-06-18T11:54:00 | 53.787053 | 6.350161 | 2.0 | 16.597 | 2 | 42.645 | 16.903 | 33.117 | 2 |
| 2025-06-18T11:55:00 | 53.784235 | 6.350430 | 2.0 | 16.853 | 2 | 42.534 | 16.779 | 33.123 | 2 |
| 2025-06-18T11:56:00 | 53.781392 | 6.350934 | 2.0 | 16.872 | 2 | 42.734 | 17.024 | 33.094 | 2 |
| 2025-06-18T11:57:00 | 53.778546 | 6.351383 | 2.0 | 17.001 | 2 | 42.793 | 17.085 | 33.095 | 2 |
| 2025-06-18T11:58:00 | 53.775694 | 6.351833 | 2.0 | 16.814 | 2 | 42.847 | 17.148 | 33.090 | 2 |
| 2025-06-18T11:59:00 | 53.772858 | 6.352189 | 2.0 | 16.682 | 2 | 42.677 | 16.954 | 33.103 | 2 |
| 2025-06-18T12:00:00 | 53.770024 | 6.352697 | 2.0 | 16.685 | 2 | 42.549 | 16.876 | 33.056 | 2 |
| 2025-06-18T12:01:00 | 53.767191 | 6.353068 | 2.0 | 16.646 | 2 | 42.500 | 16.853 | 33.032 | 2 |
| 2025-06-18T12:02:00 | 53.764365 | 6.353491 | 2.0 | 16.754 | 2 | 42.494 | 16.847 | 33.032 | 2 |
| 2025-06-18T12:03:00 | 53.761531 | 6.353932 | 2.0 | 16.743 | 2 | 42.569 | 16.939 | 33.021 | 2 |
| 2025-06-18T12:04:00 | 53.758718 | 6.354319 | 2.0 | 16.670 | 2 | 42.522 | 16.899 | 33.013 | 2 |
| 2025-06-18T12:05:00 | 53.755908 | 6.354790 | 2.0 | 16.673 | 2 | 42.457 | 16.851 | 32.996 | 2 |
| 2025-06-18T12:06:00 | 53.753111 | 6.355190 | 2.0 | 16.790 | 2 | 42.447 | 16.848 | 32.990 | 2 |
| 2025-06-18T12:07:00 | 53.750309 | 6.355611 | 2.0 | 16.781 | 2 | 42.528 | 16.955 | 32.973 | 2 |
| 2025-06-18T12:08:00 | 53.747505 | 6.355907 | 2.0 | 16.576 | 2 | 42.540 | 16.941 | 32.995 | 2 |
| 2025-06-18T12:09:00 | 53.744700 | 6.356334 | 2.0 | 16.534 | 2 | 42.366 | 16.737 | 33.011 | 2 |
| 2025-06-18T12:10:00 | 53.741901 | 6.356786 | 2.0 | 16.739 | 2 | 42.335 | 16.733 | 32.987 | 2 |
| 2025-06-18T12:11:00 | 53.739106 | 6.357044 | 2.0 | 16.682 | 2 | 42.530 | 16.986 | 32.949 | 2 |
| 2025-06-18T12:12:00 | 53.736335 | 6.357237 | 2.0 | 16.692 | 2 | 42.469 | 16.888 | 32.976 | 2 |
| 2025-06-18T12:13:00 | 53.733535 | 6.357556 | 2.0 | 16.718 | 2 | 42.410 | 16.856 | 32.952 | 2 |
| 2025-06-18T12:14:00 | 53.730768 | 6.357751 | 2.0 | 16.815 | 2 | 42.430 | 16.904 | 32.930 | 2 |
| 2025-06-18T12:15:00 | 53.728007 | 6.358053 | 2.0 | 16.794 | 2 | 42.462 | 16.960 | 32.911 | 2 |
| 2025-06-18T12:16:00 | 53.725783 | 6.358393 | 2.0 | 17.002 | 2 | 42.520 | 17.060 | 32.880 | 2 |
| 2025-06-18T12:17:00 | 53.724123 | 6.359107 | 2.0 | 16.916 | 2 | 42.621 | 17.159 | 32.886 | 2 |
| 2025-06-18T12:18:00 | 53.722899 | 6.359473 | 2.0 | 16.686 | 2 | 42.505 | 17.012 | 32.906 | 2 |
| 2025-06-18T12:19:00 | 53.722214 | 6.359195 | 2.0 | 16.660 | 2 | 42.405 | 16.924 | 32.892 | 2 |
| 2025-06-18T12:20:00 | 53.722191 | 6.358885 | 2.0 | 16.683 | 2 | 42.362 | 16.860 | 32.907 | 2 |
| 2025-06-18T12:21:00 | 53.722219 | 6.358480 | 2.0 | 16.853 | 2 | 42.354 | 16.862 | 32.898 | 2 |
| 2025-06-18T12:22:00 | 53.722213 | 6.358164 | 2.0 | 16.772 | 2 | 42.513 | 17.047 | 32.884 | 2 |
| 2025-06-18T12:23:00 | 53.722225 | 6.358017 | 2.0 | 16.690 | 2 | 42.404 | 16.887 | 32.921 | 2 |
| 2025-06-18T12:24:00 | 53.722201 | 6.357982 | 2.0 | 16.725 | 2 | 42.366 | 16.856 | 32.913 | 2 |
| 2025-06-18T12:25:00 | 53.722170 | 6.358021 | 2.0 | 16.815 | 2 | 42.420 | 16.927 | 32.902 | 2 |
| 2025-06-18T12:26:00 | 53.722130 | 6.358085 | 2.0 | 16.719 | 2 | 42.459 | 16.937 | 32.928 | 2 |
| 2025-06-18T12:27:00 | 53.722093 | 6.358109 | 2.0 | 16.904 | 2 | 42.456 | 16.963 | 32.904 | 2 |
| 2025-06-18T12:28:00 | 53.722062 | 6.358093 | 2.0 | 16.754 | 2 | 42.543 | 17.026 | 32.928 | 2 |
| 2025-06-18T12:29:00 | 53.722048 | 6.358093 | 2.0 | 16.595 | 2 | 42.399 | 16.852 | 32.945 | 2 |
| 2025-06-18T12:30:00 | 53.722034 | 6.358097 | 2.0 | 16.545 | 2 | 42.342 | 16.807 | 32.933 | 2 |
| 2025-06-18T12:31:00 | 53.722014 | 6.358098 | 2.0 | 16.750 | 2 | 42.319 | 16.776 | 32.938 | 2 |
| 2025-06-18T12:32:00 | 53.721995 | 6.358082 | 2.0 | 16.688 | 2 | 42.422 | 16.894 | 32.931 | 2 |
| 2025-06-18T12:33:00 | 53.721974 | 6.358060 | 2.0 | 16.676 | 2 | 42.429 | 16.890 | 32.940 | 2 |
| 2025-06-18T12:34:00 | 53.721962 | 6.357892 | 2.0 | 16.722 | 2 | 42.394 | 16.841 | 32.950 | 2 |
| 2025-06-18T12:35:00 | 53.721972 | 6.357796 | 2.0 | 16.707 | 2 | 42.431 | 16.887 | 32.944 | 2 |
| 2025-06-18T12:36:00 | 53.721984 | 6.357785 | 2.0 | 16.664 | 2 | 42.424 | 16.871 | 32.951 | 2 |
| 2025-06-18T12:37:00 | 53.722005 | 6.357735 | 2.0 | 16.605 | 2 | 42.417 | 16.859 | 32.955 | 2 |
| 2025-06-18T12:38:00 | 53.722017 | 6.357699 | 2.0 | 16.653 | 2 | 42.364 | 16.796 | 32.961 | 2 |
| 2025-06-18T12:39:00 | 53.722016 | 6.357695 | 2.0 | 16.640 | 2 | 42.381 | 16.814 | 32.961 | 2 |
| 2025-06-18T12:40:00 | 53.722012 | 6.357695 | 2.0 | 16.616 | 2 | 42.374 | 16.805 | 32.962 | 2 |
| 2025-06-18T12:41:00 | 53.722010 | 6.357683 | 2.0 | 16.604 | 2 | 42.343 | 16.769 | 32.965 | 2 |
| 2025-06-18T12:42:00 | 53.722010 | 6.357674 | 2.0 | 16.572 | 2 | 42.340 | 16.771 | 32.961 | 2 |
| 2025-06-18T12:43:00 | 53.722006 | 6.357676 | 2.0 | 16.530 | 2 | 42.321 | 16.738 | 32.971 | 2 |
| 2025-06-18T12:44:00 | 53.722005 | 6.357677 | 2.0 | 16.554 | 2 | 42.297 | 16.715 | 32.969 | 2 |
| 2025-06-18T12:45:00 | 53.722005 | 6.357674 | 2.0 | 16.532 | 2 | 42.300 | 16.717 | 32.970 | 2 |
| 2025-06-18T12:46:00 | 53.722010 | 6.357670 | 2.0 | 16.564 | 2 | 42.295 | 16.715 | 32.967 | 2 |
| 2025-06-18T12:47:00 | 53.722036 | 6.357641 | 2.0 | 16.500 | 2 | 42.290 | 16.704 | 32.972 | 2 |
| 2025-06-18T12:48:00 | 53.722039 | 6.357602 | 2.0 | 16.545 | 2 | 42.271 | 16.683 | 32.973 | 2 |
| 2025-06-18T12:49:00 | 53.722034 | 6.357574 | 2.0 | 16.500 | 2 | 42.310 | 16.726 | 32.971 | 2 |
| 2025-06-18T12:50:00 | 53.722028 | 6.357508 | 2.0 | 16.529 | 2 | 42.273 | 16.673 | 32.983 | 2 |
| 2025-06-18T12:51:00 | 53.722031 | 6.357462 | 2.0 | 16.569 | 2 | 42.308 | 16.723 | 32.972 | 2 |
| 2025-06-18T12:52:00 | 53.722034 | 6.357437 | 2.0 | 16.399 | 2 | 42.306 | 16.704 | 32.986 | 2 |
| 2025-06-18T12:53:00 | 53.722036 | 6.357414 | 2.0 | 16.430 | 2 | 42.212 | 16.590 | 32.998 | 2 |
| 2025-06-18T12:54:00 | 53.722037 | 6.357374 | 2.0 | 16.459 | 2 | 42.227 | 16.609 | 32.995 | 2 |
| 2025-06-18T12:55:00 | 53.722036 | 6.357338 | 2.0 | 16.408 | 2 | 42.248 | 16.625 | 33.001 | 2 |
| 2025-06-18T12:56:00 | 53.722035 | 6.357317 | 2.0 | 16.361 | 2 | 42.205 | 16.568 | 33.010 | 2 |
| 2025-06-18T12:57:00 | 53.721976 | 6.357311 | 2.0 | 16.378 | 2 | 42.186 | 16.547 | 33.011 | 2 |
| 2025-06-18T12:58:00 | 53.721931 | 6.357409 | 2.0 | 16.503 | 2 | 42.206 | 16.564 | 33.014 | 2 |
| 2025-06-18T12:59:00 | 53.721896 | 6.357545 | 2.0 | 16.452 | 2 | 42.321 | 16.680 | 33.019 | 2 |
| 2025-06-18T13:00:00 | 53.721874 | 6.357701 | 2.0 | 16.410 | 2 | 42.271 | 16.611 | 33.032 | 2 |
| 2025-06-18T13:01:00 | 53.721856 | 6.357862 | 2.0 | 16.413 | 2 | 42.261 | 16.602 | 33.031 | 2 |
| 2025-06-18T13:02:00 | 53.721819 | 6.358028 | 2.0 | 16.422 | 2 | 42.234 | 16.566 | 33.037 | 2 |
| 2025-06-18T13:03:00 | 53.721784 | 6.358218 | 2.0 | 16.393 | 2 | 42.244 | 16.581 | 33.033 | 2 |
| 2025-06-18T13:04:00 | 53.721747 | 6.358428 | 2.0 | 16.388 | 2 | 42.246 | 16.576 | 33.039 | 2 |
| 2025-06-18T13:05:00 | 53.721709 | 6.358647 | 2.0 | 16.380 | 2 | 42.228 | 16.551 | 33.044 | 2 |
| 2025-06-18T13:06:00 | 53.721667 | 6.358878 | 2.0 | 16.366 | 2 | 42.227 | 16.553 | 33.042 | 2 |
| 2025-06-18T13:07:00 | 53.721613 | 6.359118 | 2.0 | 16.293 | 2 | 42.205 | 16.527 | 33.044 | 2 |
| 2025-06-18T13:08:00 | 53.721563 | 6.359373 | 2.0 | 16.304 | 2 | 42.145 | 16.470 | 33.039 | 2 |
| 2025-06-18T13:09:00 | 53.721509 | 6.359635 | 2.0 | 16.310 | 2 | 42.153 | 16.475 | 33.041 | 2 |
| 2025-06-18T13:10:00 | 53.721454 | 6.359898 | 2.0 | 16.295 | 2 | 42.162 | 16.479 | 33.046 | 2 |
| 2025-06-18T13:11:00 | 53.721408 | 6.360163 | 2.0 | 16.293 | 2 | 42.152 | 16.469 | 33.045 | 2 |
| 2025-06-18T13:12:00 | 53.721361 | 6.360432 | 2.0 | 16.257 | 2 | 42.140 | 16.455 | 33.047 | 2 |
| 2025-06-18T13:13:00 | 53.721300 | 6.360737 | 2.0 | 16.269 | 2 | 42.114 | 16.432 | 33.043 | 2 |
| 2025-06-18T13:14:00 | 53.721232 | 6.361064 | 2.0 | 16.284 | 2 | 42.126 | 16.445 | 33.043 | 2 |
| 2025-06-18T13:15:00 | 53.721171 | 6.361407 | 2.0 | 16.317 | 2 | 42.147 | 16.464 | 33.045 | 2 |
| 2025-06-18T13:16:00 | 53.721110 | 6.361757 | 2.0 | 16.291 | 2 | 42.166 | 16.479 | 33.049 | 2 |
| 2025-06-18T13:17:00 | 53.721060 | 6.362124 | 2.0 | 16.300 | 2 | 42.151 | 16.464 | 33.049 | 2 |
| 2025-06-18T13:18:00 | 53.721001 | 6.362506 | 2.0 | 16.319 | 2 | 42.161 | 16.476 | 33.048 | 2 |
| 2025-06-18T13:19:00 | 53.720927 | 6.362911 | 2.0 | 16.289 | 2 | 42.172 | 16.481 | 33.053 | 2 |
| 2025-06-18T13:20:00 | 53.720847 | 6.363344 | 2.0 | 16.281 | 2 | 42.151 | 16.461 | 33.051 | 2 |
| 2025-06-18T13:21:00 | 53.720757 | 6.363778 | 2.0 | 16.273 | 2 | 42.140 | 16.450 | 33.051 | 2 |
| 2025-06-18T13:22:00 | 53.720671 | 6.364224 | 2.0 | 16.270 | 2 | 42.135 | 16.443 | 33.052 | 2 |
| 2025-06-18T13:23:00 | 53.720595 | 6.364683 | 2.0 | 16.264 | 2 | 42.133 | 16.439 | 33.054 | 2 |
| 2025-06-18T13:24:00 | 53.720517 | 6.365113 | 2.0 | 16.265 | 2 | 42.129 | 16.434 | 33.054 | 2 |
| 2025-06-18T13:25:00 | 53.720438 | 6.365481 | 2.0 | 16.264 | 2 | 42.131 | 16.436 | 33.054 | 2 |
| 2025-06-18T13:26:00 | 53.720353 | 6.365805 | 2.0 | 16.265 | 2 | 42.128 | 16.432 | 33.055 | 2 |
| 2025-06-18T13:27:00 | 53.720267 | 6.366089 | 2.0 | 16.275 | 2 | 42.129 | 16.435 | 33.053 | 2 |
| 2025-06-18T13:28:00 | 53.720195 | 6.366349 | 2.0 | 16.299 | 2 | 42.147 | 16.451 | 33.056 | 2 |
| 2025-06-18T13:29:00 | 53.720138 | 6.366583 | 2.0 | 16.290 | 2 | 42.165 | 16.467 | 33.059 | 2 |
| 2025-06-18T13:30:00 | 53.720105 | 6.366778 | 2.0 | 16.278 | 2 | 42.157 | 16.456 | 33.061 | 2 |
| 2025-06-18T13:31:00 | 53.720089 | 6.366928 | 2.0 | 16.291 | 2 | 42.156 | 16.454 | 33.061 | 2 |
| 2025-06-18T13:32:00 | 53.720069 | 6.367042 | 2.0 | 16.265 | 2 | 42.158 | 16.449 | 33.067 | 2 |
| 2025-06-18T13:33:00 | 53.720052 | 6.367131 | 2.0 | 16.285 | 2 | 42.146 | 16.439 | 33.065 | 2 |
| 2025-06-18T13:34:00 | 53.720035 | 6.367211 | 2.0 | 16.349 | 2 | 42.169 | 16.457 | 33.070 | 2 |
| 2025-06-18T13:35:00 | 53.719994 | 6.367214 | 2.0 | 16.373 | 2 | 42.231 | 16.519 | 33.073 | 2 |
| 2025-06-18T13:36:00 | 53.719601 | 6.367354 | 2.0 | 16.367 | 2 | 42.249 | 16.535 | 33.076 | 2 |
| 2025-06-18T13:37:00 | 53.719279 | 6.368760 | 2.0 | 16.323 | 2 | 42.249 | 16.535 | 33.076 | 2 |
| 2025-06-18T13:38:00 | 53.719221 | 6.371156 | 2.0 | 16.301 | 2 | 42.179 | 16.481 | 33.059 | 2 |
| 2025-06-18T13:39:00 | 53.719039 | 6.374175 | 2.0 | 16.333 | 2 | 42.153 | 16.473 | 33.043 | 2 |
| 2025-06-18T13:40:00 | 53.718780 | 6.377532 | 2.0 | 16.333 | 2 | 42.167 | 16.504 | 33.030 | 2 |
| 2025-06-18T13:41:00 | 53.718485 | 6.380779 | 2.0 | 16.305 | 2 | 42.140 | 16.496 | 33.013 | 2 |
| 2025-06-18T13:42:00 | 53.718156 | 6.383826 | 2.0 | 16.346 | 2 | 42.101 | 16.478 | 32.993 | 2 |
| 2025-06-18T13:43:00 | 53.717813 | 6.386618 | 2.0 | 16.372 | 2 | 42.126 | 16.515 | 32.985 | 2 |
| 2025-06-18T13:44:00 | 53.717482 | 6.389213 | 2.0 | 16.376 | 2 | 42.142 | 16.544 | 32.975 | 2 |
| 2025-06-18T13:45:00 | 53.717142 | 6.391664 | 2.0 | 16.389 | 2 | 42.147 | 16.558 | 32.968 | 2 |
| 2025-06-18T13:46:00 | 53.716818 | 6.394040 | 2.0 | 16.407 | 2 | 42.147 | 16.565 | 32.962 | 2 |
| 2025-06-18T13:47:00 | 53.716515 | 6.396377 | 2.0 | 16.416 | 2 | 42.155 | 16.581 | 32.956 | 2 |
| 2025-06-18T13:48:00 | 53.716214 | 6.398687 | 2.0 | 16.409 | 2 | 42.155 | 16.585 | 32.952 | 2 |
| 2025-06-18T13:49:00 | 53.715914 | 6.400987 | 2.0 | 16.440 | 2 | 42.149 | 16.586 | 32.946 | 2 |
| 2025-06-18T13:50:00 | 53.715617 | 6.403293 | 2.0 | 16.471 | 2 | 42.177 | 16.617 | 32.945 | 2 |
| 2025-06-18T13:51:00 | 53.715323 | 6.405596 | 2.0 | 16.452 | 2 | 42.186 | 16.626 | 32.946 | 2 |
| 2025-06-18T13:52:00 | 53.715030 | 6.407891 | 2.0 | 16.486 | 2 | 42.177 | 16.628 | 32.936 | 2 |
| 2025-06-18T13:53:00 | 53.714748 | 6.410160 | 2.0 | 16.514 | 2 | 42.189 | 16.646 | 32.932 | 2 |
| 2025-06-18T13:54:00 | 53.714482 | 6.412298 | 2.0 | 16.535 | 2 | 42.217 | 16.678 | 32.930 | 2 |
| 2025-06-18T13:55:00 | 53.714231 | 6.414336 | 2.0 | 16.568 | 2 | 42.244 | 16.711 | 32.926 | 2 |
| 2025-06-18T13:56:00 | 53.714015 | 6.416320 | 2.0 | 16.550 | 2 | 42.257 | 16.730 | 32.922 | 2 |
| 2025-06-18T13:57:00 | 53.713770 | 6.418235 | 2.0 | 16.598 | 2 | 42.247 | 16.724 | 32.918 | 2 |
| 2025-06-18T13:58:00 | 53.713568 | 6.420136 | 2.0 | 16.620 | 2 | 42.285 | 16.766 | 32.917 | 2 |
| 2025-06-18T13:59:00 | 53.713345 | 6.421997 | 2.0 | 16.613 | 2 | 42.306 | 16.787 | 32.918 | 2 |
| 2025-06-18T14:00:00 | 53.713136 | 6.423850 | 2.0 | 16.605 | 2 | 42.291 | 16.773 | 32.916 | 2 |
| 2025-06-18T14:01:00 | 53.712936 | 6.425702 | 2.0 | 16.639 | 2 | 42.296 | 16.786 | 32.910 | 2 |
| 2025-06-18T14:02:00 | 53.712719 | 6.427543 | 2.0 | 16.655 | 2 | 42.311 | 16.808 | 32.905 | 2 |
| 2025-06-18T14:03:00 | 53.712502 | 6.429376 | 2.0 | 16.626 | 2 | 42.319 | 16.820 | 32.902 | 2 |
| 2025-06-18T14:04:00 | 53.712304 | 6.431208 | 2.0 | 16.684 | 2 | 42.296 | 16.798 | 32.900 | 2 |
| 2025-06-18T14:05:00 | 53.712080 | 6.433019 | 2.0 | 16.742 | 2 | 42.348 | 16.859 | 32.895 | 2 |
| 2025-06-18T14:06:00 | 53.711877 | 6.434838 | 2.0 | 16.733 | 2 | 42.385 | 16.896 | 32.897 | 2 |
| 2025-06-18T14:07:00 | 53.711666 | 6.436664 | 2.0 | 16.723 | 2 | 42.380 | 16.895 | 32.894 | 2 |
| 2025-06-18T14:08:00 | 53.711444 | 6.438480 | 2.0 | 16.715 | 2 | 42.374 | 16.891 | 32.892 | 2 |
| 2025-06-18T14:09:00 | 53.711236 | 6.440312 | 2.0 | 16.674 | 2 | 42.357 | 16.877 | 32.888 | 2 |
| 2025-06-18T14:10:00 | 53.711030 | 6.442140 | 2.0 | 16.633 | 2 | 42.312 | 16.830 | 32.888 | 2 |
| 2025-06-18T14:11:00 | 53.710802 | 6.443932 | 2.0 | 16.636 | 2 | 42.285 | 16.810 | 32.881 | 2 |
| 2025-06-18T14:12:00 | 53.710611 | 6.445741 | 2.0 | 16.640 | 2 | 42.280 | 16.807 | 32.879 | 2 |
| 2025-06-18T14:13:00 | 53.710385 | 6.447531 | 2.0 | 16.640 | 2 | 42.276 | 16.804 | 32.878 | 2 |
| 2025-06-18T14:14:00 | 53.710180 | 6.449348 | 2.0 | 16.630 | 2 | 42.273 | 16.806 | 32.874 | 2 |
| 2025-06-18T14:15:00 | 53.709970 | 6.451152 | 2.0 | 16.662 | 2 | 42.273 | 16.807 | 32.873 | 2 |
| 2025-06-18T14:16:00 | 53.709747 | 6.452941 | 2.0 | 16.662 | 2 | 42.295 | 16.836 | 32.868 | 2 |
| 2025-06-18T14:17:00 | 53.709537 | 6.454742 | 2.0 | 16.677 | 2 | 42.291 | 16.828 | 32.871 | 2 |
| 2025-06-18T14:18:00 | 53.709312 | 6.456536 | 2.0 | 16.727 | 2 | 42.310 | 16.855 | 32.866 | 2 |
| 2025-06-18T14:19:00 | 53.709303 | 6.458058 | 2.0 | 16.769 | 2 | 42.352 | 16.904 | 32.862 | 2 |
| 2025-06-18T14:20:00 | 53.709494 | 6.459006 | 2.0 | 16.777 | 2 | 42.380 | 16.934 | 32.862 | 2 |
| 2025-06-18T14:21:00 | 53.709652 | 6.459747 | 2.0 | 16.790 | 2 | 42.389 | 16.942 | 32.863 | 2 |
| 2025-06-18T14:22:00 | 53.709762 | 6.460418 | 2.0 | 16.805 | 2 | 42.405 | 16.961 | 32.861 | 2 |
| 2025-06-18T14:23:00 | 53.709841 | 6.461064 | 2.0 | 16.784 | 2 | 42.408 | 16.961 | 32.864 | 2 |
| 2025-06-18T14:24:00 | 53.709896 | 6.461693 | 2.0 | 16.795 | 2 | 42.400 | 16.954 | 32.863 | 2 |
| 2025-06-18T14:25:00 | 53.709913 | 6.462254 | 2.0 | 16.791 | 2 | 42.407 | 16.961 | 32.863 | 2 |
| 2025-06-18T14:26:00 | 53.709880 | 6.462757 | 2.0 | 16.728 | 2 | 42.394 | 16.943 | 32.866 | 2 |
| 2025-06-18T14:27:00 | 53.709819 | 6.463176 | 2.0 | 16.728 | 2 | 42.352 | 16.896 | 32.868 | 2 |
| 2025-06-18T14:28:00 | 53.709762 | 6.463504 | 2.0 | 16.710 | 2 | 42.346 | 16.892 | 32.867 | 2 |
| 2025-06-18T14:29:00 | 53.709699 | 6.463827 | 2.0 | 16.686 | 2 | 42.331 | 16.873 | 32.869 | 2 |
| 2025-06-18T14:30:00 | 53.709618 | 6.464140 | 2.0 | 16.678 | 2 | 42.314 | 16.852 | 32.872 | 2 |
| 2025-06-18T14:31:00 | 53.709530 | 6.464418 | 2.0 | 16.678 | 2 | 42.307 | 16.845 | 32.871 | 2 |
| 2025-06-18T14:32:00 | 53.709438 | 6.464674 | 2.0 | 16.677 | 2 | 42.307 | 16.846 | 32.870 | 2 |
| 2025-06-18T14:33:00 | 53.709358 | 6.464908 | 2.0 | 16.676 | 2 | 42.305 | 16.844 | 32.870 | 2 |
| 2025-06-18T14:34:00 | 53.709278 | 6.465099 | 2.0 | 16.677 | 2 | 42.304 | 16.843 | 32.870 | 2 |
| 2025-06-18T14:35:00 | 53.709192 | 6.465278 | 2.0 | 16.676 | 2 | 42.304 | 16.842 | 32.871 | 2 |
| 2025-06-18T14:36:00 | 53.709078 | 6.465472 | 2.0 | 16.713 | 2 | 42.309 | 16.850 | 32.869 | 2 |
| 2025-06-18T14:37:00 | 53.708967 | 6.465658 | 2.0 | 16.709 | 2 | 42.332 | 16.877 | 32.867 | 2 |
| 2025-06-18T14:38:00 | 53.708864 | 6.465833 | 2.0 | 16.715 | 2 | 42.333 | 16.877 | 32.868 | 2 |
| 2025-06-18T14:39:00 | 53.708814 | 6.465955 | 2.0 | 16.721 | 2 | 42.336 | 16.882 | 32.866 | 2 |
| 2025-06-18T14:40:00 | 53.708831 | 6.466007 | 2.0 | 16.711 | 2 | 42.339 | 16.887 | 32.865 | 2 |
| 2025-06-18T14:41:00 | 53.708892 | 6.465986 | 2.0 | 16.672 | 2 | 42.328 | 16.871 | 32.868 | 2 |
| 2025-06-18T14:42:00 | 53.708966 | 6.465902 | 2.0 | 16.649 | 2 | 42.297 | 16.836 | 32.870 | 2 |
| 2025-06-18T14:43:00 | 53.709033 | 6.465783 | 2.0 | 16.630 | 2 | 42.275 | 16.812 | 32.870 | 2 |
| 2025-06-18T14:44:00 | 53.709112 | 6.465642 | 2.0 | 16.643 | 2 | 42.262 | 16.796 | 32.872 | 2 |
| 2025-06-18T14:45:00 | 53.709197 | 6.465484 | 2.0 | 16.614 | 2 | 42.264 | 16.799 | 32.871 | 2 |
| 2025-06-18T14:46:00 | 53.709276 | 6.465319 | 2.0 | 16.610 | 2 | 42.252 | 16.785 | 32.873 | 2 |
| 2025-06-18T14:47:00 | 53.709355 | 6.465162 | 2.0 | 16.608 | 2 | 42.243 | 16.774 | 32.874 | 2 |
| 2025-06-18T14:48:00 | 53.709430 | 6.465001 | 2.0 | 16.595 | 2 | 42.240 | 16.770 | 32.874 | 2 |
| 2025-06-18T14:49:00 | 53.709493 | 6.464845 | 2.0 | 16.598 | 2 | 42.231 | 16.764 | 32.871 | 2 |
| 2025-06-18T14:50:00 | 53.709549 | 6.464705 | 2.0 | 16.593 | 2 | 42.234 | 16.764 | 32.874 | 2 |
| 2025-06-18T14:51:00 | 53.709600 | 6.464579 | 2.0 | 16.589 | 2 | 42.229 | 16.758 | 32.875 | 2 |
| 2025-06-18T14:52:00 | 53.709643 | 6.464469 | 2.0 | 16.596 | 2 | 42.228 | 16.759 | 32.873 | 2 |
| 2025-06-18T14:53:00 | 53.709676 | 6.464363 | 2.0 | 16.616 | 2 | 42.238 | 16.768 | 32.874 | 2 |
| 2025-06-18T14:54:00 | 53.709708 | 6.464260 | 2.0 | 16.626 | 2 | 42.252 | 16.784 | 32.873 | 2 |
| 2025-06-18T14:55:00 | 53.709745 | 6.464156 | 2.0 | 16.610 | 2 | 42.257 | 16.787 | 32.875 | 2 |
| 2025-06-18T14:56:00 | 53.709791 | 6.464056 | 2.0 | 16.629 | 2 | 42.248 | 16.777 | 32.876 | 2 |
| 2025-06-18T14:57:00 | 53.709830 | 6.463955 | 2.0 | 16.640 | 2 | 42.264 | 16.795 | 32.875 | 2 |
| 2025-06-18T14:58:00 | 53.709876 | 6.463856 | 2.0 | 16.642 | 2 | 42.278 | 16.811 | 32.874 | 2 |
| 2025-06-18T14:59:00 | 53.709918 | 6.463746 | 2.0 | 16.627 | 2 | 42.277 | 16.807 | 32.876 | 2 |
| 2025-06-18T15:00:00 | 53.709963 | 6.463637 | 2.0 | 16.641 | 2 | 42.268 | 16.798 | 32.876 | 2 |
| 2025-06-18T15:01:00 | 53.710023 | 6.463512 | 2.0 | 16.622 | 2 | 42.273 | 16.802 | 32.877 | 2 |
| 2025-06-18T15:02:00 | 53.710091 | 6.463377 | 2.0 | 16.610 | 2 | 42.260 | 16.788 | 32.877 | 2 |
| 2025-06-18T15:03:00 | 53.710167 | 6.463235 | 2.0 | 16.628 | 2 | 42.256 | 16.783 | 32.878 | 2 |
| 2025-06-18T15:04:00 | 53.710238 | 6.463071 | 2.0 | 16.649 | 2 | 42.268 | 16.797 | 32.877 | 2 |
| 2025-06-18T15:05:00 | 53.710305 | 6.462896 | 2.0 | 16.647 | 2 | 42.285 | 16.815 | 32.877 | 2 |
| 2025-06-18T15:06:00 | 53.710368 | 6.462721 | 2.0 | 16.653 | 2 | 42.287 | 16.816 | 32.878 | 2 |
| 2025-06-18T15:07:00 | 53.710423 | 6.462556 | 2.0 | 16.638 | 2 | 42.285 | 16.813 | 32.878 | 2 |
| 2025-06-18T15:08:00 | 53.710468 | 6.462397 | 2.0 | 16.645 | 2 | 42.278 | 16.806 | 32.878 | 2 |
| 2025-06-18T15:09:00 | 53.710513 | 6.462244 | 2.0 | 16.628 | 2 | 42.279 | 16.806 | 32.879 | 2 |
| 2025-06-18T15:10:00 | 53.710557 | 6.462090 | 2.0 | 16.658 | 2 | 42.276 | 16.804 | 32.878 | 2 |
| 2025-06-18T15:11:00 | 53.710600 | 6.461935 | 2.0 | 16.653 | 2 | 42.293 | 16.820 | 32.879 | 2 |
| 2025-06-18T15:12:00 | 53.710644 | 6.461785 | 2.0 | 16.642 | 2 | 42.290 | 16.816 | 32.880 | 2 |
| 2025-06-18T15:13:00 | 53.710684 | 6.461638 | 2.0 | 16.633 | 2 | 42.283 | 16.808 | 32.881 | 2 |
| 2025-06-18T15:14:00 | 53.710727 | 6.461504 | 2.0 | 16.626 | 2 | 42.275 | 16.800 | 32.880 | 2 |
| 2025-06-18T15:15:00 | 53.710773 | 6.461372 | 2.0 | 16.608 | 2 | 42.264 | 16.788 | 32.880 | 2 |
| 2025-06-18T15:16:00 | 53.710806 | 6.461233 | 2.0 | 16.609 | 2 | 42.251 | 16.775 | 32.880 | 2 |
| 2025-06-18T15:17:00 | 53.710806 | 6.461106 | 2.0 | 16.606 | 2 | 42.251 | 16.776 | 32.879 | 2 |
| 2025-06-18T15:18:00 | 53.710788 | 6.461009 | 2.0 | 16.611 | 2 | 42.249 | 16.774 | 32.879 | 2 |
| 2025-06-18T15:19:00 | 53.710753 | 6.460924 | 2.0 | 16.610 | 2 | 42.254 | 16.778 | 32.880 | 2 |
| 2025-06-18T15:20:00 | 53.710707 | 6.460856 | 2.0 | 16.605 | 2 | 42.251 | 16.774 | 32.881 | 2 |
| 2025-06-18T15:21:00 | 53.710682 | 6.460849 | 2.0 | 16.605 | 2 | 42.248 | 16.772 | 32.880 | 2 |
| 2025-06-18T15:22:00 | 53.710593 | 6.460797 | 2.0 | 16.599 | 2 | 42.246 | 16.769 | 32.880 | 2 |
| 2025-06-18T15:23:00 | 53.710564 | 6.460737 | 2.0 | 16.597 | 2 | 42.242 | 16.765 | 32.880 | 2 |
| 2025-06-18T15:24:00 | 53.710569 | 6.460629 | 2.0 | 16.590 | 2 | 42.239 | 16.762 | 32.880 | 2 |
| 2025-06-18T15:25:00 | 53.710577 | 6.460405 | 2.0 | 16.581 | 2 | 42.232 | 16.756 | 32.879 | 2 |
| 2025-06-18T15:26:00 | 53.710571 | 6.460231 | 2.0 | 16.576 | 2 | 42.224 | 16.746 | 32.880 | 2 |
| 2025-06-18T15:27:00 | 53.710539 | 6.460100 | 2.0 | 16.567 | 2 | 42.218 | 16.742 | 32.878 | 2 |
| 2025-06-18T15:28:00 | 53.710479 | 6.460004 | 2.0 | 16.556 | 2 | 42.209 | 16.731 | 32.879 | 2 |
| 2025-06-18T15:29:00 | 53.710422 | 6.459888 | 2.0 | 16.550 | 2 | 42.200 | 16.723 | 32.878 | 2 |
| 2025-06-18T15:30:00 | 53.710403 | 6.459800 | 2.0 | 16.549 | 2 | 42.195 | 16.717 | 32.879 | 2 |
| 2025-06-18T15:31:00 | 53.710398 | 6.459694 | 2.0 | 16.550 | 2 | 42.193 | 16.716 | 32.878 | 2 |
| 2025-06-18T15:32:00 | 53.710396 | 6.459530 | 2.0 | 16.551 | 2 | 42.195 | 16.716 | 32.880 | 2 |
| 2025-06-18T15:33:00 | 53.710407 | 6.459431 | 2.0 | 16.556 | 2 | 42.197 | 16.719 | 32.879 | 2 |
| 2025-06-18T15:34:00 | 53.710447 | 6.459245 | 2.0 | 16.551 | 2 | 42.197 | 16.721 | 32.877 | 2 |
| 2025-06-18T15:35:00 | 53.710498 | 6.459068 | 2.0 | 16.553 | 2 | 42.195 | 16.718 | 32.878 | 2 |
| 2025-06-18T15:36:00 | 53.710566 | 6.458881 | 2.0 | 16.553 | 2 | 42.198 | 16.720 | 32.879 | 2 |
| 2025-06-18T15:37:00 | 53.710634 | 6.458677 | 2.0 | 16.555 | 2 | 42.199 | 16.720 | 32.880 | 2 |
| 2025-06-18T15:38:00 | 53.710696 | 6.458466 | 2.0 | 16.549 | 2 | 42.200 | 16.720 | 32.881 | 2 |
| 2025-06-18T15:39:00 | 53.710763 | 6.458265 | 2.0 | 16.550 | 2 | 42.196 | 16.716 | 32.880 | 2 |
| 2025-06-18T15:40:00 | 53.710824 | 6.458079 | 2.0 | 16.546 | 2 | 42.196 | 16.716 | 32.880 | 2 |
| 2025-06-18T15:41:00 | 53.710861 | 6.457908 | 2.0 | 16.549 | 2 | 42.193 | 16.713 | 32.880 | 2 |
| 2025-06-18T15:42:00 | 53.710880 | 6.457751 | 2.0 | 16.551 | 2 | 42.196 | 16.715 | 32.881 | 2 |
| 2025-06-18T15:43:00 | 53.710873 | 6.457630 | 2.0 | 16.553 | 2 | 42.199 | 16.718 | 32.881 | 2 |
| 2025-06-18T15:44:00 | 53.710861 | 6.457592 | 2.0 | 16.552 | 2 | 42.200 | 16.719 | 32.881 | 2 |
| 2025-06-18T15:45:00 | 53.710820 | 6.457546 | 2.0 | 16.546 | 2 | 42.198 | 16.716 | 32.882 | 2 |
| 2025-06-18T15:46:00 | 53.710757 | 6.457400 | 2.0 | 16.545 | 2 | 42.194 | 16.712 | 32.882 | 2 |
| 2025-06-18T15:47:00 | 53.710787 | 6.457242 | 2.0 | 16.539 | 2 | 42.192 | 16.710 | 32.882 | 2 |
| 2025-06-18T15:48:00 | 53.710859 | 6.457076 | 2.0 | 16.533 | 2 | 42.184 | 16.704 | 32.880 | 2 |
| 2025-06-18T15:49:00 | 53.710946 | 6.456889 | 2.0 | 16.530 | 2 | 42.180 | 16.699 | 32.880 | 2 |
| 2025-06-18T15:50:00 | 53.711047 | 6.456663 | 2.0 | 16.531 | 2 | 42.178 | 16.697 | 32.880 | 2 |
| 2025-06-18T15:51:00 | 53.711160 | 6.456404 | 2.0 | 16.530 | 2 | 42.178 | 16.697 | 32.880 | 2 |
| 2025-06-18T15:52:00 | 53.711301 | 6.456116 | 2.0 | 16.532 | 2 | 42.177 | 16.696 | 32.880 | 2 |
| 2025-06-18T15:53:00 | 53.711453 | 6.455823 | 2.0 | 16.520 | 2 | 42.179 | 16.697 | 32.881 | 2 |
| 2025-06-18T15:54:00 | 53.711613 | 6.455523 | 2.0 | 16.525 | 2 | 42.165 | 16.683 | 32.880 | 2 |
| 2025-06-18T15:55:00 | 53.711767 | 6.455218 | 2.0 | 16.525 | 2 | 42.174 | 16.693 | 32.880 | 2 |
| 2025-06-18T15:56:00 | 53.711902 | 6.454942 | 2.0 | 16.519 | 2 | 42.174 | 16.691 | 32.882 | 2 |
| 2025-06-18T15:57:00 | 53.712010 | 6.454682 | 2.0 | 16.527 | 2 | 42.169 | 16.686 | 32.881 | 2 |
| 2025-06-18T15:58:00 | 53.712101 | 6.454445 | 2.0 | 16.532 | 2 | 42.176 | 16.693 | 32.882 | 2 |
| 2025-06-18T15:59:00 | 53.712171 | 6.454234 | 2.0 | 16.529 | 2 | 42.181 | 16.697 | 32.883 | 2 |
| 2025-06-18T16:00:00 | 53.712232 | 6.454036 | 2.0 | 16.521 | 2 | 42.176 | 16.692 | 32.883 | 2 |
| 2025-06-18T16:01:00 | 53.712289 | 6.453853 | 2.0 | 16.518 | 2 | 42.169 | 16.686 | 32.881 | 2 |
| 2025-06-18T16:02:00 | 53.712347 | 6.453678 | 2.0 | 16.524 | 2 | 42.169 | 16.686 | 32.881 | 2 |
| 2025-06-18T16:03:00 | 53.712403 | 6.453521 | 2.0 | 16.526 | 2 | 42.173 | 16.689 | 32.883 | 2 |
| 2025-06-18T16:04:00 | 53.712455 | 6.453380 | 2.0 | 16.531 | 2 | 42.175 | 16.692 | 32.882 | 2 |
| 2025-06-18T16:05:00 | 53.712499 | 6.453257 | 2.0 | 16.533 | 2 | 42.180 | 16.697 | 32.882 | 2 |
| 2025-06-18T16:06:00 | 53.712543 | 6.453129 | 2.0 | 16.532 | 2 | 42.181 | 16.699 | 32.881 | 2 |
| 2025-06-18T16:07:00 | 53.712568 | 6.453003 | 2.0 | 16.534 | 2 | 42.181 | 16.698 | 32.882 | 2 |
| 2025-06-18T16:08:00 | 53.712573 | 6.452889 | 2.0 | 16.535 | 2 | 42.183 | 16.699 | 32.883 | 2 |
| 2025-06-18T16:09:00 | 53.712568 | 6.452802 | 2.0 | 16.538 | 2 | 42.185 | 16.702 | 32.882 | 2 |
| 2025-06-18T16:10:00 | 53.712541 | 6.452708 | 2.0 | 16.535 | 2 | 42.186 | 16.703 | 32.882 | 2 |
| 2025-06-18T16:11:00 | 53.712497 | 6.452625 | 2.0 | 16.527 | 2 | 42.180 | 16.698 | 32.881 | 2 |
| 2025-06-18T16:12:00 | 53.712462 | 6.452418 | 2.0 | 16.533 | 2 | 42.176 | 16.694 | 32.881 | 2 |
| 2025-06-18T16:13:00 | 53.712493 | 6.452148 | 2.0 | 16.539 | 2 | 42.181 | 16.699 | 32.881 | 2 |
| 2025-06-18T16:14:00 | 53.712601 | 6.451792 | 2.0 | 16.523 | 2 | 42.186 | 16.703 | 32.882 | 2 |
| 2025-06-18T16:15:00 | 53.712764 | 6.451407 | 2.0 | 16.510 | 2 | 42.170 | 16.685 | 32.883 | 2 |
| 2025-06-18T16:16:00 | 53.712930 | 6.451006 | 2.0 | 16.524 | 2 | 42.161 | 16.678 | 32.881 | 2 |
| 2025-06-18T16:17:00 | 53.713107 | 6.450565 | 2.0 | 16.528 | 2 | 42.172 | 16.689 | 32.882 | 2 |
| 2025-06-18T16:18:00 | 53.713301 | 6.450090 | 2.0 | 16.528 | 2 | 42.177 | 16.692 | 32.884 | 2 |
| 2025-06-18T16:19:00 | 53.713518 | 6.449595 | 2.0 | 16.517 | 2 | 42.176 | 16.690 | 32.884 | 2 |
| 2025-06-18T16:20:00 | 53.713741 | 6.449095 | 2.0 | 16.517 | 2 | 42.169 | 16.685 | 32.882 | 2 |
| 2025-06-18T16:21:00 | 53.713959 | 6.448594 | 2.0 | 16.507 | 2 | 42.166 | 16.681 | 32.883 | 2 |
| 2025-06-18T16:22:00 | 53.714169 | 6.448097 | 2.0 | 16.514 | 2 | 42.158 | 16.673 | 32.883 | 2 |
| 2025-06-18T16:23:00 | 53.714377 | 6.447600 | 2.0 | 16.513 | 2 | 42.163 | 16.678 | 32.883 | 2 |
| 2025-06-18T16:24:00 | 53.714575 | 6.447098 | 2.0 | 16.511 | 2 | 42.163 | 16.678 | 32.883 | 2 |
| 2025-06-18T16:25:00 | 53.714768 | 6.446598 | 2.0 | 16.510 | 2 | 42.162 | 16.677 | 32.883 | 2 |
| 2025-06-18T16:26:00 | 53.714958 | 6.446104 | 2.0 | 16.510 | 2 | 42.160 | 16.674 | 32.884 | 2 |
| 2025-06-18T16:27:00 | 53.715145 | 6.445625 | 2.0 | 16.513 | 2 | 42.162 | 16.676 | 32.884 | 2 |
| 2025-06-18T16:28:00 | 53.715328 | 6.445162 | 2.0 | 16.508 | 2 | 42.163 | 16.677 | 32.884 | 2 |
| 2025-06-18T16:29:00 | 53.715507 | 6.444710 | 2.0 | 16.503 | 2 | 42.159 | 16.673 | 32.883 | 2 |
| 2025-06-18T16:30:00 | 53.715679 | 6.444269 | 2.0 | 16.499 | 2 | 42.153 | 16.667 | 32.883 | 2 |
| 2025-06-18T16:31:00 | 53.715848 | 6.443833 | 2.0 | 16.500 | 2 | 42.151 | 16.664 | 32.884 | 2 |
| 2025-06-18T16:32:00 | 53.716018 | 6.443404 | 2.0 | 16.506 | 2 | 42.154 | 16.668 | 32.883 | 2 |
| 2025-06-18T16:33:00 | 53.716183 | 6.442982 | 2.0 | 16.502 | 2 | 42.157 | 16.670 | 32.884 | 2 |
| 2025-06-18T16:34:00 | 53.716337 | 6.442556 | 2.0 | 16.506 | 2 | 42.156 | 16.668 | 32.885 | 2 |
| 2025-06-18T16:35:00 | 53.716478 | 6.442121 | 2.0 | 16.507 | 2 | 42.160 | 16.672 | 32.885 | 2 |
| 2025-06-18T16:36:00 | 53.716615 | 6.441705 | 2.0 | 16.505 | 2 | 42.160 | 16.671 | 32.886 | 2 |
| 2025-06-18T16:37:00 | 53.716733 | 6.441357 | 2.0 | 16.509 | 2 | 42.159 | 16.671 | 32.885 | 2 |
| 2025-06-18T16:38:00 | 53.716784 | 6.441049 | 2.0 | 16.513 | 2 | 42.163 | 16.674 | 32.886 | 2 |
| 2025-06-18T16:39:00 | 53.716730 | 6.440782 | 2.0 | 16.512 | 2 | 42.170 | 16.680 | 32.887 | 2 |
| 2025-06-18T16:40:00 | 53.716606 | 6.440580 | 2.0 | 16.509 | 2 | 42.167 | 16.676 | 32.888 | 2 |
| 2025-06-18T16:41:00 | 53.716433 | 6.440405 | 2.0 | 16.508 | 2 | 42.163 | 16.674 | 32.886 | 2 |
| 2025-06-18T16:42:00 | 53.716209 | 6.440216 | 2.0 | 16.502 | 2 | 42.161 | 16.673 | 32.885 | 2 |
| 2025-06-18T16:43:00 | 53.715975 | 6.440009 | 2.0 | 16.504 | 2 | 42.157 | 16.669 | 32.885 | 2 |
| 2025-06-18T16:44:00 | 53.715730 | 6.439813 | 2.0 | 16.510 | 2 | 42.158 | 16.670 | 32.885 | 2 |
| 2025-06-18T16:45:00 | 53.715476 | 6.439635 | 2.0 | 16.514 | 2 | 42.162 | 16.674 | 32.885 | 2 |
| 2025-06-18T16:46:00 | 53.715221 | 6.439472 | 2.0 | 16.511 | 2 | 42.167 | 16.679 | 32.885 | 2 |
| 2025-06-18T16:47:00 | 53.714960 | 6.439329 | 2.0 | 16.524 | 2 | 42.168 | 16.679 | 32.886 | 2 |
| 2025-06-18T16:48:00 | 53.714688 | 6.439184 | 2.0 | 16.529 | 2 | 42.177 | 16.689 | 32.886 | 2 |
| 2025-06-18T16:49:00 | 53.714426 | 6.439015 | 2.0 | 16.551 | 2 | 42.187 | 16.697 | 32.888 | 2 |
| 2025-06-18T16:50:00 | 53.714204 | 6.438847 | 2.0 | 16.575 | 2 | 42.208 | 16.720 | 32.888 | 2 |
| 2025-06-18T16:51:00 | 53.714037 | 6.438691 | 2.0 | 16.570 | 2 | 42.232 | 16.736 | 32.895 | 2 |
| 2025-06-18T16:52:00 | 53.713912 | 6.438553 | 2.0 | 16.562 | 2 | 42.232 | 16.735 | 32.896 | 2 |
| 2025-06-18T16:53:00 | 53.713815 | 6.438442 | 2.0 | 16.553 | 2 | 42.220 | 16.726 | 32.893 | 2 |
| 2025-06-18T16:54:00 | 53.713743 | 6.438381 | 2.0 | 16.548 | 2 | 42.210 | 16.719 | 32.890 | 2 |
| 2025-06-18T16:55:00 | 53.713684 | 6.438353 | 2.0 | 16.543 | 2 | 42.200 | 16.711 | 32.888 | 2 |
| 2025-06-18T16:56:00 | 53.713635 | 6.438345 | 2.0 | 16.543 | 2 | 42.196 | 16.709 | 32.886 | 2 |
| 2025-06-18T16:57:00 | 53.713594 | 6.438358 | 2.0 | 16.540 | 2 | 42.193 | 16.708 | 32.884 | 2 |
| 2025-06-18T16:58:00 | 53.713559 | 6.438365 | 2.0 | 16.537 | 2 | 42.189 | 16.705 | 32.883 | 2 |
| 2025-06-18T16:59:00 | 53.713521 | 6.438365 | 2.0 | 16.531 | 2 | 42.184 | 16.701 | 32.882 | 2 |
| 2025-06-18T17:00:00 | 53.713481 | 6.438353 | 2.0 | 16.534 | 2 | 42.178 | 16.697 | 32.880 | 2 |
| 2025-06-18T17:01:00 | 53.713438 | 6.438345 | 2.0 | 16.528 | 2 | 42.177 | 16.698 | 32.879 | 2 |
| 2025-06-18T17:02:00 | 53.713395 | 6.438328 | 2.0 | 16.527 | 2 | 42.171 | 16.694 | 32.877 | 2 |
| 2025-06-18T17:03:00 | 53.713343 | 6.438308 | 2.0 | 16.524 | 2 | 42.167 | 16.692 | 32.875 | 2 |
| 2025-06-18T17:04:00 | 53.713297 | 6.438279 | 2.0 | 16.521 | 2 | 42.165 | 16.690 | 32.875 | 2 |
| 2025-06-18T17:05:00 | 53.713250 | 6.438231 | 2.0 | 16.519 | 2 | 42.160 | 16.686 | 32.874 | 2 |
| 2025-06-18T17:06:00 | 53.713192 | 6.438192 | 2.0 | 16.520 | 2 | 42.157 | 16.685 | 32.872 | 2 |
| 2025-06-18T17:07:00 | 53.713132 | 6.438156 | 2.0 | 16.521 | 2 | 42.157 | 16.686 | 32.871 | 2 |
| 2025-06-18T17:08:00 | 53.713072 | 6.438109 | 2.0 | 16.522 | 2 | 42.158 | 16.687 | 32.871 | 2 |
| 2025-06-18T17:09:00 | 53.713012 | 6.438047 | 2.0 | 16.522 | 2 | 42.159 | 16.688 | 32.871 | 2 |
| 2025-06-18T17:10:00 | 53.712945 | 6.437990 | 2.0 | 16.522 | 2 | 42.157 | 16.687 | 32.870 | 2 |
| 2025-06-18T17:11:00 | 53.712878 | 6.437944 | 2.0 | 16.523 | 2 | 42.157 | 16.687 | 32.870 | 2 |
| 2025-06-18T17:12:00 | 53.712816 | 6.437895 | 2.0 | 16.524 | 2 | 42.157 | 16.689 | 32.869 | 2 |
| 2025-06-18T17:13:00 | 53.712756 | 6.437848 | 2.0 | 16.527 | 2 | 42.157 | 16.690 | 32.868 | 2 |
| 2025-06-18T17:14:00 | 53.712692 | 6.437794 | 2.0 | 16.528 | 2 | 42.159 | 16.692 | 32.868 | 2 |
| 2025-06-18T17:15:00 | 53.712628 | 6.437720 | 2.0 | 16.528 | 2 | 42.158 | 16.693 | 32.866 | 2 |
| 2025-06-18T17:16:00 | 53.712563 | 6.437634 | 2.0 | 16.533 | 2 | 42.152 | 16.694 | 32.860 | 2 |
| 2025-06-18T17:17:00 | 53.712499 | 6.437545 | 2.0 | 16.535 | 2 | 42.160 | 16.699 | 32.863 | 2 |
| 2025-06-18T17:18:00 | 53.712431 | 6.437467 | 2.0 | 16.536 | 2 | 42.161 | 16.701 | 32.862 | 2 |
| 2025-06-18T17:19:00 | 53.712359 | 6.437387 | 2.0 | 16.539 | 2 | 42.163 | 16.701 | 32.864 | 2 |
| 2025-06-18T17:20:00 | 53.712282 | 6.437313 | 2.0 | 16.541 | 2 | 42.166 | 16.704 | 32.864 | 2 |
| 2025-06-18T17:21:00 | 53.712209 | 6.437223 | 2.0 | 16.542 | 2 | 42.168 | 16.706 | 32.864 | 2 |
| 2025-06-18T17:22:00 | 53.712139 | 6.437131 | 2.0 | 16.544 | 2 | 42.169 | 16.707 | 32.864 | 2 |
| 2025-06-18T17:23:00 | 53.712057 | 6.437039 | 2.0 | 16.545 | 2 | 42.172 | 16.709 | 32.865 | 2 |
| 2025-06-18T17:24:00 | 53.711989 | 6.436928 | 2.0 | 16.545 | 2 | 42.171 | 16.709 | 32.864 | 2 |
| 2025-06-18T17:25:00 | 53.711914 | 6.436827 | 2.0 | 16.543 | 2 | 42.172 | 16.710 | 32.864 | 2 |
| 2025-06-18T17:26:00 | 53.711842 | 6.436699 | 2.0 | 16.545 | 2 | 42.170 | 16.709 | 32.863 | 2 |
| 2025-06-18T17:27:00 | 53.711766 | 6.436560 | 2.0 | 16.546 | 2 | 42.170 | 16.710 | 32.863 | 2 |
| 2025-06-18T17:28:00 | 53.711694 | 6.436412 | 2.0 | 16.548 | 2 | 42.171 | 16.711 | 32.863 | 2 |
| 2025-06-18T17:29:00 | 53.711624 | 6.436255 | 2.0 | 16.550 | 2 | 42.174 | 16.713 | 32.864 | 2 |
| 2025-06-18T17:30:00 | 53.711557 | 6.436098 | 2.0 | 16.552 | 2 | 42.176 | 16.716 | 32.863 | 2 |
| 2025-06-18T17:31:00 | 53.711489 | 6.435935 | 2.0 | 16.551 | 2 | 42.178 | 16.717 | 32.864 | 2 |
| 2025-06-18T17:32:00 | 53.711416 | 6.435790 | 2.0 | 16.552 | 2 | 42.177 | 16.716 | 32.864 | 2 |
| 2025-06-18T17:33:00 | 53.711347 | 6.435639 | 2.0 | 16.556 | 2 | 42.178 | 16.718 | 32.863 | 2 |
| 2025-06-18T17:34:00 | 53.711271 | 6.435482 | 2.0 | 16.555 | 2 | 42.180 | 16.719 | 32.864 | 2 |
| 2025-06-18T17:35:00 | 53.711194 | 6.435329 | 2.0 | 16.557 | 2 | 42.180 | 16.720 | 32.863 | 2 |
| 2025-06-18T17:36:00 | 53.711113 | 6.435172 | 2.0 | 16.557 | 2 | 42.182 | 16.721 | 32.864 | 2 |
| 2025-06-18T17:37:00 | 53.711034 | 6.435022 | 2.0 | 16.564 | 2 | 42.182 | 16.722 | 32.863 | 2 |
| 2025-06-18T17:38:00 | 53.710955 | 6.434882 | 2.0 | 16.558 | 2 | 42.186 | 16.727 | 32.863 | 2 |
| 2025-06-18T17:39:00 | 53.710874 | 6.434744 | 2.0 | 16.560 | 2 | 42.183 | 16.723 | 32.863 | 2 |
| 2025-06-18T17:40:00 | 53.710780 | 6.434628 | 2.0 | 16.563 | 2 | 42.184 | 16.724 | 32.863 | 2 |
| 2025-06-18T17:41:00 | 53.710678 | 6.434507 | 2.0 | 16.565 | 2 | 42.186 | 16.727 | 32.863 | 2 |
| 2025-06-18T17:42:00 | 53.710570 | 6.434380 | 2.0 | 16.569 | 2 | 42.189 | 16.730 | 32.863 | 2 |
| 2025-06-18T17:43:00 | 53.710463 | 6.434227 | 2.0 | 16.572 | 2 | 42.193 | 16.735 | 32.862 | 2 |
| 2025-06-18T17:44:00 | 53.710357 | 6.434063 | 2.0 | 16.574 | 2 | 42.195 | 16.737 | 32.862 | 2 |
| 2025-06-18T17:45:00 | 53.710258 | 6.433893 | 2.0 | 16.574 | 2 | 42.196 | 16.738 | 32.862 | 2 |
| 2025-06-18T17:46:00 | 53.710156 | 6.433723 | 2.0 | 16.575 | 2 | 42.196 | 16.738 | 32.862 | 2 |
| 2025-06-18T17:47:00 | 53.710054 | 6.433556 | 2.0 | 16.578 | 2 | 42.197 | 16.740 | 32.862 | 2 |
| 2025-06-18T17:48:00 | 53.709950 | 6.433390 | 2.0 | 16.580 | 2 | 42.200 | 16.743 | 32.862 | 2 |
| 2025-06-18T17:49:00 | 53.709839 | 6.433212 | 2.0 | 16.579 | 2 | 42.201 | 16.743 | 32.863 | 2 |
| 2025-06-18T17:50:00 | 53.709731 | 6.433023 | 2.0 | 16.581 | 2 | 42.202 | 16.745 | 32.862 | 2 |
| 2025-06-18T17:51:00 | 53.709627 | 6.432824 | 2.0 | 16.582 | 2 | 42.203 | 16.746 | 32.862 | 2 |
| 2025-06-18T17:52:00 | 53.709515 | 6.432630 | 2.0 | 16.586 | 2 | 42.204 | 16.747 | 32.862 | 2 |
| 2025-06-18T17:53:00 | 53.709398 | 6.432436 | 2.0 | 16.586 | 2 | 42.206 | 16.749 | 32.862 | 2 |
| 2025-06-18T17:54:00 | 53.709281 | 6.432243 | 2.0 | 16.586 | 2 | 42.207 | 16.750 | 32.862 | 2 |
| 2025-06-18T17:55:00 | 53.709167 | 6.432055 | 2.0 | 16.588 | 2 | 42.208 | 16.751 | 32.862 | 2 |
| 2025-06-18T17:56:00 | 53.709053 | 6.431870 | 2.0 | 16.590 | 2 | 42.209 | 16.752 | 32.862 | 2 |
| 2025-06-18T17:57:00 | 53.708934 | 6.431675 | 2.0 | 16.593 | 2 | 42.211 | 16.755 | 32.861 | 2 |
| 2025-06-18T17:58:00 | 53.708808 | 6.431469 | 2.0 | 16.593 | 2 | 42.213 | 16.757 | 32.862 | 2 |
| 2025-06-18T17:59:00 | 53.708678 | 6.431265 | 2.0 | 16.595 | 2 | 42.214 | 16.758 | 32.862 | 2 |
| 2025-06-18T18:00:00 | 53.708549 | 6.431051 | 2.0 | 16.599 | 2 | 42.217 | 16.760 | 32.863 | 2 |
| 2025-06-18T18:01:00 | 53.708422 | 6.430823 | 2.0 | 16.600 | 2 | 42.220 | 16.763 | 32.863 | 2 |
| 2025-06-18T18:02:00 | 53.708295 | 6.430592 | 2.0 | 16.601 | 2 | 42.221 | 16.764 | 32.863 | 2 |
| 2025-06-18T18:03:00 | 53.708173 | 6.430358 | 2.0 | 16.601 | 2 | 42.222 | 16.765 | 32.863 | 2 |
| 2025-06-18T18:04:00 | 53.708057 | 6.430121 | 2.0 | 16.602 | 2 | 42.222 | 16.765 | 32.863 | 2 |
| 2025-06-18T18:05:00 | 53.707934 | 6.429892 | 2.0 | 16.603 | 2 | 42.222 | 16.766 | 32.862 | 2 |
| 2025-06-18T18:06:00 | 53.707815 | 6.429654 | 2.0 | 16.604 | 2 | 42.222 | 16.767 | 32.861 | 2 |
| 2025-06-18T18:07:00 | 53.707699 | 6.429414 | 2.0 | 16.608 | 2 | 42.224 | 16.768 | 32.862 | 2 |
| 2025-06-18T18:08:00 | 53.707572 | 6.429191 | 2.0 | 16.606 | 2 | 42.229 | 16.774 | 32.862 | 2 |
| 2025-06-18T18:09:00 | 53.707438 | 6.428976 | 2.0 | 16.607 | 2 | 42.228 | 16.771 | 32.863 | 2 |
| 2025-06-18T18:10:00 | 53.707304 | 6.428756 | 2.0 | 16.608 | 2 | 42.227 | 16.771 | 32.862 | 2 |
| 2025-06-18T18:11:00 | 53.707169 | 6.428532 | 2.0 | 16.608 | 2 | 42.228 | 16.771 | 32.863 | 2 |
| 2025-06-18T18:12:00 | 53.707025 | 6.428309 | 2.0 | 16.608 | 2 | 42.229 | 16.772 | 32.863 | 2 |
| 2025-06-18T18:13:00 | 53.706871 | 6.428078 | 2.0 | 16.609 | 2 | 42.229 | 16.773 | 32.862 | 2 |
| 2025-06-18T18:14:00 | 53.706717 | 6.427849 | 2.0 | 16.609 | 2 | 42.229 | 16.772 | 32.863 | 2 |
| 2025-06-18T18:15:00 | 53.706561 | 6.427612 | 2.0 | 16.606 | 2 | 42.229 | 16.773 | 32.862 | 2 |
| 2025-06-18T18:16:00 | 53.706412 | 6.427365 | 2.0 | 16.605 | 2 | 42.227 | 16.770 | 32.863 | 2 |
| 2025-06-18T18:17:00 | 53.706266 | 6.427115 | 2.0 | 16.610 | 2 | 42.228 | 16.771 | 32.863 | 2 |
| 2025-06-18T18:18:00 | 53.706123 | 6.426875 | 2.0 | 16.615 | 2 | 42.231 | 16.775 | 32.862 | 2 |
| 2025-06-18T18:19:00 | 53.705972 | 6.426640 | 2.0 | 16.615 | 2 | 42.235 | 16.778 | 32.863 | 2 |
| 2025-06-18T18:20:00 | 53.705822 | 6.426392 | 2.0 | 16.616 | 2 | 42.236 | 16.780 | 32.863 | 2 |
| 2025-06-18T18:21:00 | 53.705679 | 6.426156 | 2.0 | 16.620 | 2 | 42.237 | 16.781 | 32.863 | 2 |
| 2025-06-18T18:22:00 | 53.705527 | 6.425932 | 2.0 | 16.622 | 2 | 42.239 | 16.783 | 32.863 | 2 |
| 2025-06-18T18:23:00 | 53.705360 | 6.425703 | 2.0 | 16.627 | 2 | 42.241 | 16.786 | 32.862 | 2 |
| 2025-06-18T18:24:00 | 53.705191 | 6.425491 | 2.0 | 16.630 | 2 | 42.245 | 16.791 | 32.862 | 2 |
| 2025-06-18T18:25:00 | 53.705025 | 6.425282 | 2.0 | 16.631 | 2 | 42.249 | 16.794 | 32.863 | 2 |
| 2025-06-18T18:26:00 | 53.704862 | 6.425063 | 2.0 | 16.633 | 2 | 42.251 | 16.796 | 32.863 | 2 |
| 2025-06-18T18:27:00 | 53.704703 | 6.424826 | 2.0 | 16.631 | 2 | 42.252 | 16.796 | 32.864 | 2 |
| 2025-06-18T18:28:00 | 53.704542 | 6.424589 | 2.0 | 16.634 | 2 | 42.251 | 16.796 | 32.863 | 2 |
| 2025-06-18T18:29:00 | 53.704386 | 6.424329 | 2.0 | 16.636 | 2 | 42.253 | 16.798 | 32.863 | 2 |
| 2025-06-18T18:30:00 | 53.704226 | 6.424073 | 2.0 | 16.638 | 2 | 42.255 | 16.800 | 32.863 | 2 |
| 2025-06-18T18:31:00 | 53.704057 | 6.423818 | 2.0 | 16.640 | 2 | 42.257 | 16.802 | 32.863 | 2 |
| 2025-06-18T18:32:00 | 53.703889 | 6.423557 | 2.0 | 16.642 | 2 | 42.259 | 16.804 | 32.863 | 2 |
| 2025-06-18T18:33:00 | 53.703730 | 6.423284 | 2.0 | 16.643 | 2 | 42.261 | 16.805 | 32.864 | 2 |
| 2025-06-18T18:34:00 | 53.703564 | 6.423014 | 2.0 | 16.644 | 2 | 42.262 | 16.807 | 32.863 | 2 |
| 2025-06-18T18:35:00 | 53.703381 | 6.422740 | 2.0 | 16.644 | 2 | 42.262 | 16.807 | 32.863 | 2 |
| 2025-06-18T18:36:00 | 53.703191 | 6.422467 | 2.0 | 16.647 | 2 | 42.262 | 16.808 | 32.862 | 2 |
| 2025-06-18T18:37:00 | 53.703004 | 6.422192 | 2.0 | 16.647 | 2 | 42.266 | 16.811 | 32.863 | 2 |
| 2025-06-18T18:38:00 | 53.702801 | 6.421915 | 2.0 | 16.642 | 2 | 42.264 | 16.809 | 32.863 | 2 |
| 2025-06-18T18:39:00 | 53.702604 | 6.421623 | 2.0 | 16.642 | 2 | 42.262 | 16.807 | 32.863 | 2 |
| 2025-06-18T18:40:00 | 53.702409 | 6.421325 | 2.0 | 16.644 | 2 | 42.262 | 16.807 | 32.863 | 2 |
| 2025-06-18T18:41:00 | 53.702211 | 6.421016 | 2.0 | 16.641 | 2 | 42.262 | 16.807 | 32.863 | 2 |
| 2025-06-18T18:42:00 | 53.702007 | 6.420693 | 2.0 | 16.642 | 2 | 42.260 | 16.805 | 32.863 | 2 |
| 2025-06-18T18:43:00 | 53.701799 | 6.420369 | 2.0 | 16.642 | 2 | 42.260 | 16.805 | 32.863 | 2 |
| 2025-06-18T18:44:00 | 53.701601 | 6.420034 | 2.0 | 16.647 | 2 | 42.260 | 16.807 | 32.861 | 2 |
| 2025-06-18T18:45:00 | 53.701400 | 6.419708 | 2.0 | 16.643 | 2 | 42.264 | 16.810 | 32.862 | 2 |
| 2025-06-18T18:46:00 | 53.701191 | 6.419397 | 2.0 | 16.641 | 2 | 42.261 | 16.807 | 32.862 | 2 |
| 2025-06-18T18:47:00 | 53.700986 | 6.419080 | 2.0 | 16.632 | 2 | 42.258 | 16.802 | 32.864 | 2 |
| 2025-06-18T18:48:00 | 53.700781 | 6.418757 | 2.0 | 16.632 | 2 | 42.251 | 16.796 | 32.863 | 2 |
| 2025-06-18T18:49:00 | 53.700578 | 6.418432 | 2.0 | 16.630 | 2 | 42.251 | 16.796 | 32.863 | 2 |
| 2025-06-18T18:50:00 | 53.700364 | 6.418153 | 2.0 | 16.631 | 2 | 42.250 | 16.795 | 32.863 | 2 |
| 2025-06-18T18:51:00 | 53.700166 | 6.417869 | 2.0 | 16.625 | 2 | 42.249 | 16.793 | 32.863 | 2 |
| 2025-06-18T18:52:00 | 53.699970 | 6.417580 | 2.0 | 16.626 | 2 | 42.245 | 16.789 | 32.863 | 2 |
| 2025-06-18T18:53:00 | 53.699770 | 6.417291 | 2.0 | 16.627 | 2 | 42.246 | 16.790 | 32.863 | 2 |
| 2025-06-18T18:54:00 | 53.699569 | 6.416990 | 2.0 | 16.628 | 2 | 42.248 | 16.791 | 32.864 | 2 |
| 2025-06-18T18:55:00 | 53.699362 | 6.416689 | 2.0 | 16.628 | 2 | 42.249 | 16.791 | 32.865 | 2 |
| 2025-06-18T18:56:00 | 53.699087 | 6.416342 | 2.0 | 16.625 | 2 | 42.248 | 16.790 | 32.865 | 2 |
| 2025-06-18T18:57:00 | 53.698784 | 6.415886 | 2.0 | 16.625 | 2 | 42.245 | 16.787 | 32.865 | 2 |
| 2025-06-18T18:58:00 | 53.698475 | 6.415317 | 2.0 | 16.629 | 2 | 42.246 | 16.788 | 32.865 | 2 |
| 2025-06-18T18:59:00 | 53.698175 | 6.414641 | 2.0 | 16.630 | 2 | 42.250 | 16.792 | 32.865 | 2 |
| 2025-06-18T19:00:00 | 53.697914 | 6.413887 | 2.0 | 16.632 | 2 | 42.249 | 16.793 | 32.863 | 2 |
| 2025-06-18T19:01:00 | 53.697737 | 6.413109 | 2.0 | 16.635 | 2 | 42.250 | 16.794 | 32.863 | 2 |
| 2025-06-18T19:02:00 | 53.697659 | 6.412484 | 2.0 | 16.638 | 2 | 42.254 | 16.798 | 32.864 | 2 |
| 2025-06-18T19:03:00 | 53.697607 | 6.412242 | 2.0 | 16.637 | 2 | 42.254 | 16.801 | 32.861 | 2 |
| 2025-06-18T19:04:00 | 53.697515 | 6.412238 | 2.0 | 16.632 | 2 | 42.253 | 16.800 | 32.861 | 2 |
| 2025-06-18T19:05:00 | 53.697453 | 6.412287 | 2.0 | 16.628 | 2 | 42.249 | 16.793 | 32.863 | 2 |
| 2025-06-18T19:06:00 | 53.697413 | 6.412392 | 2.0 | 16.628 | 2 | 42.247 | 16.792 | 32.862 | 2 |
| 2025-06-18T19:07:00 | 53.697367 | 6.412514 | 2.0 | 16.626 | 2 | 42.246 | 16.789 | 32.864 | 2 |
| 2025-06-18T19:08:00 | 53.697320 | 6.412653 | 2.0 | 16.622 | 2 | 42.247 | 16.788 | 32.866 | 2 |
| 2025-06-18T19:09:00 | 53.697294 | 6.412796 | 2.0 | 16.615 | 2 | 42.245 | 16.784 | 32.867 | 2 |
| 2025-06-18T19:10:00 | 53.697279 | 6.412911 | 2.0 | 16.617 | 2 | 42.240 | 16.779 | 32.867 | 2 |
| 2025-06-18T19:11:00 | 53.697255 | 6.413006 | 2.0 | 16.607 | 2 | 42.240 | 16.776 | 32.869 | 2 |
| 2025-06-18T19:12:00 | 53.697206 | 6.413093 | 2.0 | 16.606 | 2 | 42.236 | 16.770 | 32.871 | 2 |
| 2025-06-18T19:13:00 | 53.697165 | 6.413211 | 2.0 | 16.605 | 2 | 42.236 | 16.769 | 32.872 | 2 |
| 2025-06-18T19:14:00 | 53.697132 | 6.413376 | 2.0 | 16.596 | 2 | 42.234 | 16.765 | 32.873 | 2 |
| 2025-06-18T19:15:00 | 53.697132 | 6.413528 | 2.0 | 16.593 | 2 | 42.228 | 16.760 | 32.872 | 2 |
| 2025-06-18T19:16:00 | 53.697134 | 6.413632 | 2.0 | 16.588 | 2 | 42.227 | 16.755 | 32.875 | 2 |
| 2025-06-18T19:17:00 | 53.697119 | 6.413689 | 2.0 | 16.583 | 2 | 42.222 | 16.750 | 32.875 | 2 |
| 2025-06-18T19:18:00 | 53.697081 | 6.413717 | 2.0 | 16.582 | 2 | 42.220 | 16.746 | 32.877 | 2 |
| 2025-06-18T19:19:00 | 53.697026 | 6.413762 | 2.0 | 16.579 | 2 | 42.218 | 16.745 | 32.876 | 2 |
| 2025-06-18T19:20:00 | 53.696968 | 6.413866 | 2.0 | 16.579 | 2 | 42.216 | 16.742 | 32.876 | 2 |
| 2025-06-18T19:21:00 | 53.696930 | 6.414007 | 2.0 | 16.578 | 2 | 42.215 | 16.742 | 32.876 | 2 |
| 2025-06-18T19:22:00 | 53.696892 | 6.414172 | 2.0 | 16.579 | 2 | 42.218 | 16.743 | 32.877 | 2 |
| 2025-06-18T19:23:00 | 53.696872 | 6.414331 | 2.0 | 16.582 | 2 | 42.219 | 16.743 | 32.878 | 2 |
| 2025-06-18T19:24:00 | 53.696849 | 6.414506 | 2.0 | 16.582 | 2 | 42.222 | 16.745 | 32.879 | 2 |
| 2025-06-18T19:25:00 | 53.696848 | 6.414692 | 2.0 | 16.584 | 2 | 42.224 | 16.746 | 32.880 | 2 |
| 2025-06-18T19:26:00 | 53.696859 | 6.414858 | 2.0 | 16.583 | 2 | 42.229 | 16.748 | 32.883 | 2 |
| 2025-06-18T19:27:00 | 53.696858 | 6.415063 | 2.0 | 16.582 | 2 | 42.229 | 16.746 | 32.884 | 2 |
| 2025-06-18T19:28:00 | 53.696878 | 6.415259 | 2.0 | 16.580 | 2 | 42.229 | 16.743 | 32.887 | 2 |
| 2025-06-18T19:29:00 | 53.696885 | 6.415437 | 2.0 | 16.577 | 2 | 42.228 | 16.743 | 32.886 | 2 |
| 2025-06-18T19:30:00 | 53.696869 | 6.415666 | 2.0 | 16.576 | 2 | 42.226 | 16.739 | 32.888 | 2 |
| 2025-06-18T19:31:00 | 53.696875 | 6.415879 | 2.0 | 16.578 | 2 | 42.226 | 16.739 | 32.888 | 2 |
| 2025-06-18T19:32:00 | 53.696883 | 6.416094 | 2.0 | 16.578 | 2 | 42.229 | 16.740 | 32.889 | 2 |
| 2025-06-18T19:33:00 | 53.696884 | 6.416332 | 2.0 | 16.576 | 2 | 42.230 | 16.741 | 32.889 | 2 |
| 2025-06-18T19:34:00 | 53.696897 | 6.416564 | 2.0 | 16.574 | 2 | 42.230 | 16.739 | 32.891 | 2 |
| 2025-06-18T19:35:00 | 53.696920 | 6.416807 | 2.0 | 16.566 | 2 | 42.226 | 16.734 | 32.892 | 2 |
| 2025-06-18T19:36:00 | 53.696954 | 6.417065 | 2.0 | 16.569 | 2 | 42.223 | 16.731 | 32.892 | 2 |
| 2025-06-18T19:37:00 | 53.696990 | 6.417342 | 2.0 | 16.575 | 2 | 42.225 | 16.731 | 32.893 | 2 |
| 2025-06-18T19:38:00 | 53.697064 | 6.417585 | 2.0 | 16.574 | 2 | 42.233 | 16.738 | 32.895 | 2 |
| 2025-06-18T19:39:00 | 53.697147 | 6.417795 | 2.0 | 16.583 | 2 | 42.233 | 16.739 | 32.894 | 2 |
| 2025-06-18T19:40:00 | 53.697215 | 6.418024 | 2.0 | 16.584 | 2 | 42.240 | 16.745 | 32.895 | 2 |
| 2025-06-18T19:41:00 | 53.697298 | 6.418266 | 2.0 | 16.587 | 2 | 42.243 | 16.748 | 32.895 | 2 |
| 2025-06-18T19:42:00 | 53.697395 | 6.418488 | 2.0 | 16.585 | 2 | 42.243 | 16.748 | 32.895 | 2 |
| 2025-06-18T19:43:00 | 53.697484 | 6.418753 | 2.0 | 16.588 | 2 | 42.244 | 16.750 | 32.894 | 2 |
| 2025-06-18T19:44:00 | 53.697578 | 6.418981 | 2.0 | 16.586 | 2 | 42.248 | 16.751 | 32.897 | 2 |
| 2025-06-18T19:45:00 | 53.697673 | 6.419228 | 2.0 | 16.587 | 2 | 42.250 | 16.749 | 32.900 | 2 |
| 2025-06-18T19:46:00 | 53.697760 | 6.419474 | 2.0 | 16.589 | 2 | 42.253 | 16.750 | 32.902 | 2 |
| 2025-06-18T19:47:00 | 53.697843 | 6.419718 | 2.0 | 16.587 | 2 | 42.253 | 16.750 | 32.902 | 2 |
| 2025-06-18T19:48:00 | 53.697931 | 6.419961 | 2.0 | 16.584 | 2 | 42.253 | 16.749 | 32.903 | 2 |
| 2025-06-18T19:49:00 | 53.698023 | 6.420212 | 2.0 | 16.585 | 2 | 42.250 | 16.747 | 32.902 | 2 |
| 2025-06-18T19:50:00 | 53.698134 | 6.420475 | 2.0 | 16.577 | 2 | 42.251 | 16.747 | 32.903 | 2 |
| 2025-06-18T19:51:00 | 53.698249 | 6.420761 | 2.0 | 16.577 | 2 | 42.249 | 16.741 | 32.906 | 2 |
| 2025-06-18T19:52:00 | 53.698372 | 6.421037 | 2.0 | 16.573 | 2 | 42.248 | 16.738 | 32.908 | 2 |
| 2025-06-18T19:53:00 | 53.698484 | 6.421337 | 2.0 | 16.559 | 2 | 42.244 | 16.732 | 32.909 | 2 |
| 2025-06-18T19:54:00 | 53.698593 | 6.421615 | 2.0 | 16.558 | 2 | 42.236 | 16.722 | 32.910 | 2 |
| 2025-06-18T19:55:00 | 53.698685 | 6.421921 | 2.0 | 16.551 | 2 | 42.234 | 16.720 | 32.910 | 2 |
| 2025-06-18T19:56:00 | 53.698788 | 6.422205 | 2.0 | 16.546 | 2 | 42.229 | 16.713 | 32.912 | 2 |
| 2025-06-18T19:57:00 | 53.698894 | 6.422475 | 2.0 | 16.542 | 2 | 42.224 | 16.706 | 32.913 | 2 |
| 2025-06-18T19:58:00 | 53.698993 | 6.422775 | 2.0 | 16.542 | 2 | 42.223 | 16.708 | 32.910 | 2 |
| 2025-06-18T19:59:00 | 53.699100 | 6.423079 | 2.0 | 16.541 | 2 | 42.222 | 16.704 | 32.913 | 2 |
| 2025-06-18T20:00:00 | 53.699215 | 6.423406 | 2.0 | 16.524 | 2 | 42.221 | 16.703 | 32.913 | 2 |
| 2025-06-18T20:01:00 | 53.699334 | 6.423743 | 2.0 | 16.509 | 2 | 42.207 | 16.684 | 32.916 | 2 |
| 2025-06-18T20:02:00 | 53.699468 | 6.424076 | 2.0 | 16.509 | 2 | 42.196 | 16.672 | 32.917 | 2 |
| 2025-06-18T20:03:00 | 53.699593 | 6.424417 | 2.0 | 16.509 | 2 | 42.195 | 16.671 | 32.916 | 2 |
| 2025-06-18T20:04:00 | 53.699707 | 6.424766 | 2.0 | 16.515 | 2 | 42.196 | 16.675 | 32.914 | 2 |
| 2025-06-18T20:05:00 | 53.699811 | 6.425098 | 2.0 | 16.513 | 2 | 42.198 | 16.677 | 32.914 | 2 |
| 2025-06-18T20:06:00 | 53.699910 | 6.425407 | 2.0 | 16.505 | 2 | 42.198 | 16.677 | 32.914 | 2 |
| 2025-06-18T20:07:00 | 53.700031 | 6.425706 | 2.0 | 16.495 | 2 | 42.192 | 16.668 | 32.916 | 2 |
| 2025-06-18T20:08:00 | 53.700165 | 6.426010 | 2.0 | 16.503 | 2 | 42.184 | 16.656 | 32.919 | 2 |
| 2025-06-18T20:09:00 | 53.700274 | 6.426388 | 2.0 | 16.502 | 2 | 42.192 | 16.668 | 32.916 | 2 |
| 2025-06-18T20:10:00 | 53.700384 | 6.426683 | 2.0 | 16.493 | 2 | 42.187 | 16.662 | 32.917 | 2 |
| 2025-06-18T20:11:00 | 53.700469 | 6.426902 | 2.0 | 16.488 | 2 | 42.180 | 16.655 | 32.917 | 2 |
| 2025-06-18T20:12:00 | 53.700512 | 6.427076 | 2.0 | 16.463 | 2 | 42.177 | 16.648 | 32.920 | 2 |
| 2025-06-18T20:13:00 | 53.700536 | 6.427180 | 2.0 | 16.463 | 2 | 42.159 | 16.625 | 32.923 | 2 |
| 2025-06-18T20:14:00 | 53.700524 | 6.427245 | 2.0 | 16.466 | 2 | 42.160 | 16.629 | 32.920 | 2 |
| 2025-06-18T20:15:00 | 53.700474 | 6.427309 | 2.0 | 16.461 | 2 | 42.161 | 16.628 | 32.922 | 2 |
| 2025-06-18T20:16:00 | 53.700406 | 6.427389 | 2.0 | 16.466 | 2 | 42.158 | 16.625 | 32.922 | 2 |
| 2025-06-18T20:17:00 | 53.700359 | 6.427455 | 2.0 | 16.452 | 2 | 42.161 | 16.627 | 32.923 | 2 |
| 2025-06-18T20:18:00 | 53.700322 | 6.427473 | 2.0 | 16.435 | 2 | 42.150 | 16.612 | 32.926 | 2 |
| 2025-06-18T20:19:00 | 53.700278 | 6.427440 | 2.0 | 16.434 | 2 | 42.140 | 16.600 | 32.927 | 2 |
| 2025-06-18T20:20:00 | 53.700208 | 6.427387 | 2.0 | 16.440 | 2 | 42.139 | 16.601 | 32.925 | 2 |
| 2025-06-18T20:21:00 | 53.700127 | 6.427363 | 2.0 | 16.446 | 2 | 42.141 | 16.604 | 32.924 | 2 |
| 2025-06-18T20:22:00 | 53.700055 | 6.427466 | 2.0 | 16.441 | 2 | 42.146 | 16.609 | 32.925 | 2 |
| 2025-06-18T20:23:00 | 53.700028 | 6.427685 | 2.0 | 16.442 | 2 | 42.146 | 16.605 | 32.928 | 2 |
| 2025-06-18T20:24:00 | 53.700080 | 6.427903 | 2.0 | 16.438 | 2 | 42.147 | 16.604 | 32.930 | 2 |
| 2025-06-18T20:25:00 | 53.700170 | 6.428111 | 2.0 | 16.437 | 2 | 42.145 | 16.602 | 32.930 | 2 |
| 2025-06-18T20:26:00 | 53.700271 | 6.428308 | 2.0 | 16.435 | 2 | 42.143 | 16.601 | 32.929 | 2 |
| 2025-06-18T20:27:00 | 53.700374 | 6.428527 | 2.0 | 16.441 | 2 | 42.143 | 16.599 | 32.930 | 2 |
| 2025-06-18T20:28:00 | 53.700490 | 6.428743 | 2.0 | 16.439 | 2 | 42.147 | 16.603 | 32.931 | 2 |
| 2025-06-18T20:29:00 | 53.700585 | 6.428967 | 2.0 | 16.435 | 2 | 42.146 | 16.602 | 32.930 | 2 |
| 2025-06-18T20:30:00 | 53.700678 | 6.429165 | 2.0 | 16.433 | 2 | 42.145 | 16.599 | 32.932 | 2 |
| 2025-06-18T20:31:00 | 53.700760 | 6.429299 | 2.0 | 16.438 | 2 | 42.143 | 16.597 | 32.932 | 2 |
| 2025-06-18T20:32:00 | 53.700800 | 6.429468 | 2.0 | 16.437 | 2 | 42.146 | 16.601 | 32.931 | 2 |
| 2025-06-18T20:33:00 | 53.700859 | 6.429636 | 2.0 | 16.436 | 2 | 42.145 | 16.599 | 32.932 | 2 |
| 2025-06-18T20:34:00 | 53.700919 | 6.429779 | 2.0 | 16.439 | 2 | 42.147 | 16.600 | 32.933 | 2 |
| 2025-06-18T20:35:00 | 53.700972 | 6.429917 | 2.0 | 16.437 | 2 | 42.148 | 16.600 | 32.934 | 2 |
| 2025-06-18T20:36:00 | 53.701001 | 6.430095 | 2.0 | 16.442 | 2 | 42.149 | 16.602 | 32.933 | 2 |
| 2025-06-18T20:37:00 | 53.701035 | 6.430275 | 2.0 | 16.442 | 2 | 42.150 | 16.604 | 32.932 | 2 |
| 2025-06-18T20:38:00 | 53.701070 | 6.430436 | 2.0 | 16.436 | 2 | 42.150 | 16.605 | 32.931 | 2 |
| 2025-06-18T20:39:00 | 53.701101 | 6.430612 | 2.0 | 16.437 | 2 | 42.147 | 16.599 | 32.934 | 2 |
| 2025-06-18T20:40:00 | 53.701140 | 6.430799 | 2.0 | 16.437 | 2 | 42.148 | 16.601 | 32.933 | 2 |
| 2025-06-18T20:41:00 | 53.701188 | 6.430974 | 2.0 | 16.441 | 2 | 42.147 | 16.600 | 32.933 | 2 |
| 2025-06-18T20:42:00 | 53.701233 | 6.431105 | 2.0 | 16.440 | 2 | 42.150 | 16.604 | 32.932 | 2 |
| 2025-06-18T20:43:00 | 53.701262 | 6.431210 | 2.0 | 16.442 | 2 | 42.150 | 16.604 | 32.932 | 2 |
| 2025-06-18T20:44:00 | 53.701270 | 6.431359 | 2.0 | 16.440 | 2 | 42.151 | 16.605 | 32.932 | 2 |
| 2025-06-18T20:45:00 | 53.701272 | 6.431540 | 2.0 | 16.445 | 2 | 42.150 | 16.604 | 32.932 | 2 |
| 2025-06-18T20:46:00 | 53.701294 | 6.431689 | 2.0 | 16.446 | 2 | 42.151 | 16.608 | 32.930 | 2 |
| 2025-06-18T20:47:00 | 53.701311 | 6.431856 | 2.0 | 16.440 | 2 | 42.151 | 16.608 | 32.930 | 2 |
| 2025-06-18T20:48:00 | 53.701327 | 6.432038 | 2.0 | 16.442 | 2 | 42.150 | 16.605 | 32.931 | 2 |
| 2025-06-18T20:49:00 | 53.701354 | 6.432209 | 2.0 | 16.440 | 2 | 42.149 | 16.605 | 32.931 | 2 |
| 2025-06-18T20:50:00 | 53.701386 | 6.432383 | 2.0 | 16.442 | 2 | 42.147 | 16.603 | 32.931 | 2 |
| 2025-06-18T20:51:00 | 53.701428 | 6.432565 | 2.0 | 16.440 | 2 | 42.146 | 16.605 | 32.928 | 2 |
| 2025-06-18T20:52:00 | 53.701465 | 6.432757 | 2.0 | 16.442 | 2 | 42.145 | 16.604 | 32.928 | 2 |
| 2025-06-18T20:53:00 | 53.701496 | 6.432955 | 2.0 | 16.442 | 2 | 42.144 | 16.603 | 32.928 | 2 |
| 2025-06-18T20:54:00 | 53.701534 | 6.433131 | 2.0 | 16.443 | 2 | 42.145 | 16.605 | 32.927 | 2 |
| 2025-06-18T20:55:00 | 53.701572 | 6.433287 | 2.0 | 16.441 | 2 | 42.144 | 16.604 | 32.927 | 2 |
| 2025-06-18T20:56:00 | 53.701613 | 6.433451 | 2.0 | 16.435 | 2 | 42.141 | 16.603 | 32.925 | 2 |
| 2025-06-18T20:57:00 | 53.701651 | 6.433645 | 2.0 | 16.442 | 2 | 42.138 | 16.600 | 32.925 | 2 |
| 2025-06-18T20:58:00 | 53.701690 | 6.433822 | 2.0 | 16.446 | 2 | 42.139 | 16.605 | 32.922 | 2 |
| 2025-06-18T20:59:00 | 53.701716 | 6.434010 | 2.0 | 16.450 | 2 | 42.139 | 16.609 | 32.919 | 2 |
| 2025-06-18T21:00:00 | 53.701742 | 6.434213 | 2.0 | 16.449 | 2 | 42.142 | 16.612 | 32.919 | 2 |
| 2025-06-18T21:01:00 | 53.701762 | 6.434435 | 2.0 | 16.449 | 2 | 42.136 | 16.610 | 32.915 | 2 |
| 2025-06-18T21:02:00 | 53.701800 | 6.434631 | 2.0 | 16.453 | 2 | 42.138 | 16.612 | 32.915 | 2 |
| 2025-06-18T21:03:00 | 53.701838 | 6.434814 | 2.0 | 16.451 | 2 | 42.140 | 16.615 | 32.915 | 2 |
| 2025-06-18T21:04:00 | 53.701867 | 6.435021 | 2.0 | 16.448 | 2 | 42.139 | 16.614 | 32.914 | 2 |
| 2025-06-18T21:05:00 | 53.701888 | 6.435259 | 2.0 | 16.451 | 2 | 42.136 | 16.611 | 32.914 | 2 |
| 2025-06-18T21:06:00 | 53.701924 | 6.435466 | 2.0 | 16.453 | 2 | 42.138 | 16.614 | 32.914 | 2 |
| 2025-06-18T21:07:00 | 53.701949 | 6.435667 | 2.0 | 16.456 | 2 | 42.139 | 16.618 | 32.911 | 2 |
| 2025-06-18T21:08:00 | 53.701970 | 6.435847 | 2.0 | 16.455 | 2 | 42.137 | 16.616 | 32.911 | 2 |
| 2025-06-18T21:09:00 | 53.701994 | 6.436019 | 2.0 | 16.459 | 2 | 42.139 | 16.619 | 32.910 | 2 |
| 2025-06-18T21:10:00 | 53.701997 | 6.436196 | 2.0 | 16.455 | 2 | 42.138 | 16.619 | 32.910 | 2 |
| 2025-06-18T21:11:00 | 53.701991 | 6.436375 | 2.0 | 16.456 | 2 | 42.137 | 16.617 | 32.910 | 2 |
| 2025-06-18T21:12:00 | 53.701996 | 6.436562 | 2.0 | 16.456 | 2 | 42.138 | 16.618 | 32.910 | 2 |
| 2025-06-18T21:13:00 | 53.702009 | 6.436744 | 2.0 | 16.455 | 2 | 42.137 | 16.619 | 32.909 | 2 |
| 2025-06-18T21:14:00 | 53.702011 | 6.436956 | 2.0 | 16.454 | 2 | 42.134 | 16.617 | 32.908 | 2 |
| 2025-06-18T21:15:00 | 53.702027 | 6.437162 | 2.0 | 16.452 | 2 | 42.135 | 16.615 | 32.910 | 2 |
| 2025-06-18T21:16:00 | 53.702049 | 6.437355 | 2.0 | 16.453 | 2 | 42.135 | 16.616 | 32.909 | 2 |
| 2025-06-18T21:17:00 | 53.702069 | 6.437554 | 2.0 | 16.453 | 2 | 42.134 | 16.615 | 32.909 | 2 |
| 2025-06-18T21:18:00 | 53.702072 | 6.437765 | 2.0 | 16.450 | 2 | 42.133 | 16.615 | 32.908 | 2 |
| 2025-06-18T21:19:00 | 53.702067 | 6.438002 | 2.0 | 16.448 | 2 | 42.132 | 16.613 | 32.909 | 2 |
| 2025-06-18T21:20:00 | 53.702093 | 6.438230 | 2.0 | 16.443 | 2 | 42.128 | 16.610 | 32.908 | 2 |
| 2025-06-18T21:21:00 | 53.702117 | 6.438482 | 2.0 | 16.441 | 2 | 42.123 | 16.605 | 32.908 | 2 |
| 2025-06-18T21:22:00 | 53.702152 | 6.438739 | 2.0 | 16.443 | 2 | 42.120 | 16.604 | 32.906 | 2 |
| 2025-06-18T21:23:00 | 53.702191 | 6.438983 | 2.0 | 16.440 | 2 | 42.119 | 16.604 | 32.905 | 2 |
| 2025-06-18T21:24:00 | 53.702230 | 6.439250 | 2.0 | 16.445 | 2 | 42.117 | 16.604 | 32.904 | 2 |
| 2025-06-18T21:25:00 | 53.702269 | 6.439526 | 2.0 | 16.443 | 2 | 42.118 | 16.608 | 32.901 | 2 |
| 2025-06-18T21:26:00 | 53.702316 | 6.439802 | 2.0 | 16.437 | 2 | 42.117 | 16.605 | 32.903 | 2 |
| 2025-06-18T21:27:00 | 53.702355 | 6.440094 | 2.0 | 16.439 | 2 | 42.111 | 16.599 | 32.902 | 2 |
| 2025-06-18T21:28:00 | 53.702398 | 6.440378 | 2.0 | 16.438 | 2 | 42.112 | 16.601 | 32.902 | 2 |
| 2025-06-18T21:29:00 | 53.702429 | 6.440647 | 2.0 | 16.436 | 2 | 42.112 | 16.602 | 32.901 | 2 |
| 2025-06-18T21:30:00 | 53.702445 | 6.440928 | 2.0 | 16.434 | 2 | 42.111 | 16.598 | 32.903 | 2 |
| 2025-06-18T21:31:00 | 53.702460 | 6.441221 | 2.0 | 16.431 | 2 | 42.110 | 16.596 | 32.904 | 2 |
| 2025-06-18T21:32:00 | 53.702486 | 6.441537 | 2.0 | 16.430 | 2 | 42.108 | 16.593 | 32.905 | 2 |
| 2025-06-18T21:33:00 | 53.702503 | 6.441863 | 2.0 | 16.430 | 2 | 42.108 | 16.592 | 32.906 | 2 |
| 2025-06-18T21:34:00 | 53.702527 | 6.442191 | 2.0 | 16.432 | 2 | 42.106 | 16.591 | 32.905 | 2 |
| 2025-06-18T21:35:00 | 53.702546 | 6.442517 | 2.0 | 16.433 | 2 | 42.109 | 16.594 | 32.905 | 2 |
| 2025-06-18T21:36:00 | 53.702556 | 6.442863 | 2.0 | 16.431 | 2 | 42.109 | 16.595 | 32.904 | 2 |
| 2025-06-18T21:37:00 | 53.702585 | 6.443200 | 2.0 | 16.432 | 2 | 42.109 | 16.594 | 32.905 | 2 |
| 2025-06-18T21:38:00 | 53.702607 | 6.443545 | 2.0 | 16.428 | 2 | 42.108 | 16.593 | 32.905 | 2 |
| 2025-06-18T21:39:00 | 53.702625 | 6.443912 | 2.0 | 16.431 | 2 | 42.104 | 16.590 | 32.904 | 2 |
| 2025-06-18T21:40:00 | 53.702650 | 6.444291 | 2.0 | 16.430 | 2 | 42.107 | 16.593 | 32.904 | 2 |
| 2025-06-18T21:41:00 | 53.702677 | 6.444654 | 2.0 | 16.426 | 2 | 42.104 | 16.592 | 32.902 | 2 |
| 2025-06-18T21:42:00 | 53.702686 | 6.445059 | 2.0 | 16.429 | 2 | 42.103 | 16.589 | 32.904 | 2 |
| 2025-06-18T21:43:00 | 53.702693 | 6.445469 | 2.0 | 16.431 | 2 | 42.105 | 16.592 | 32.903 | 2 |
| 2025-06-18T21:44:00 | 53.702705 | 6.445858 | 2.0 | 16.432 | 2 | 42.105 | 16.593 | 32.902 | 2 |
| 2025-06-18T21:45:00 | 53.702719 | 6.446249 | 2.0 | 16.432 | 2 | 42.106 | 16.595 | 32.901 | 2 |
| 2025-06-18T21:46:00 | 53.702720 | 6.446648 | 2.0 | 16.430 | 2 | 42.106 | 16.593 | 32.903 | 2 |
| 2025-06-18T21:47:00 | 53.702716 | 6.447095 | 2.0 | 16.436 | 2 | 42.108 | 16.595 | 32.903 | 2 |
| 2025-06-18T21:48:00 | 53.702732 | 6.447526 | 2.0 | 16.439 | 2 | 42.110 | 16.598 | 32.902 | 2 |
| 2025-06-18T21:49:00 | 53.702739 | 6.447952 | 2.0 | 16.433 | 2 | 42.111 | 16.599 | 32.902 | 2 |
| 2025-06-18T21:50:00 | 53.702752 | 6.448378 | 2.0 | 16.434 | 2 | 42.109 | 16.596 | 32.903 | 2 |
| 2025-06-18T21:51:00 | 53.702765 | 6.448818 | 2.0 | 16.435 | 2 | 42.108 | 16.596 | 32.902 | 2 |
| 2025-06-18T21:52:00 | 53.702796 | 6.449186 | 2.0 | 16.429 | 2 | 42.109 | 16.596 | 32.903 | 2 |
| 2025-06-18T21:53:00 | 53.702840 | 6.449504 | 2.0 | 16.426 | 2 | 42.104 | 16.591 | 32.903 | 2 |
| 2025-06-18T21:54:00 | 53.702904 | 6.449776 | 2.0 | 16.428 | 2 | 42.102 | 16.590 | 32.902 | 2 |
| 2025-06-18T21:55:00 | 53.702994 | 6.450036 | 2.0 | 16.427 | 2 | 42.104 | 16.591 | 32.903 | 2 |
| 2025-06-18T21:56:00 | 53.703106 | 6.450241 | 2.0 | 16.428 | 2 | 42.104 | 16.589 | 32.905 | 2 |
| 2025-06-18T21:57:00 | 53.703230 | 6.450430 | 2.0 | 16.424 | 2 | 42.104 | 16.588 | 32.905 | 2 |
| 2025-06-18T21:58:00 | 53.703369 | 6.450581 | 2.0 | 16.429 | 2 | 42.106 | 16.588 | 32.907 | 2 |
| 2025-06-18T21:59:00 | 53.703517 | 6.450688 | 2.0 | 16.421 | 2 | 42.108 | 16.590 | 32.907 | 2 |
| 2025-06-18T22:00:00 | 53.703674 | 6.450721 | 2.0 | 16.421 | 2 | 42.103 | 16.582 | 32.909 | 2 |
| 2025-06-18T22:01:00 | 53.703821 | 6.450657 | 2.0 | 16.423 | 2 | 42.103 | 16.583 | 32.909 | 2 |
| 2025-06-18T22:02:00 | 53.703929 | 6.450456 | 2.0 | 16.426 | 2 | 42.107 | 16.586 | 32.910 | 2 |
| 2025-06-18T22:03:00 | 53.704006 | 6.450158 | 2.0 | 16.419 | 2 | 42.107 | 16.586 | 32.910 | 2 |
| 2025-06-18T22:04:00 | 53.704058 | 6.449774 | 2.0 | 16.420 | 2 | 42.105 | 16.581 | 32.912 | 2 |
| 2025-06-18T22:05:00 | 53.704090 | 6.449326 | 2.0 | 16.416 | 2 | 42.107 | 16.581 | 32.914 | 2 |
| 2025-06-18T22:06:00 | 53.704136 | 6.448848 | 2.0 | 16.414 | 2 | 42.106 | 16.578 | 32.915 | 2 |
| 2025-06-18T22:07:00 | 53.704192 | 6.448338 | 2.0 | 16.418 | 2 | 42.106 | 16.578 | 32.915 | 2 |
| 2025-06-18T22:08:00 | 53.704245 | 6.447793 | 2.0 | 16.414 | 2 | 42.109 | 16.579 | 32.917 | 2 |
| 2025-06-18T22:09:00 | 53.704307 | 6.447274 | 2.0 | 16.410 | 2 | 42.106 | 16.575 | 32.918 | 2 |
| 2025-06-18T22:10:00 | 53.704329 | 6.446768 | 2.0 | 16.409 | 2 | 42.105 | 16.573 | 32.919 | 2 |
| 2025-06-18T22:11:00 | 53.704375 | 6.446339 | 2.0 | 16.411 | 2 | 42.105 | 16.573 | 32.919 | 2 |
| 2025-06-18T22:12:00 | 53.704421 | 6.445972 | 2.0 | 16.410 | 2 | 42.107 | 16.573 | 32.920 | 2 |
| 2025-06-18T22:13:00 | 53.704413 | 6.445605 | 2.0 | 16.411 | 2 | 42.106 | 16.572 | 32.920 | 2 |
| 2025-06-18T22:14:00 | 53.704401 | 6.445271 | 2.0 | 16.411 | 2 | 42.107 | 16.574 | 32.919 | 2 |
| 2025-06-18T22:15:00 | 53.704398 | 6.444972 | 2.0 | 16.411 | 2 | 42.107 | 16.573 | 32.920 | 2 |
| 2025-06-18T22:16:00 | 53.704380 | 6.444672 | 2.0 | 16.404 | 2 | 42.108 | 16.573 | 32.921 | 2 |
| 2025-06-18T22:17:00 | 53.704357 | 6.444396 | 2.0 | 16.400 | 2 | 42.103 | 16.566 | 32.923 | 2 |
| 2025-06-18T22:18:00 | 53.704346 | 6.444156 | 2.0 | 16.403 | 2 | 42.102 | 16.565 | 32.923 | 2 |
| 2025-06-18T22:19:00 | 53.704326 | 6.443919 | 2.0 | 16.398 | 2 | 42.102 | 16.564 | 32.923 | 2 |
| 2025-06-18T22:20:00 | 53.704316 | 6.443701 | 2.0 | 16.402 | 2 | 42.100 | 16.562 | 32.923 | 2 |
| 2025-06-18T22:21:00 | 53.704276 | 6.443495 | 2.0 | 16.404 | 2 | 42.104 | 16.566 | 32.923 | 2 |
| 2025-06-18T22:22:00 | 53.704186 | 6.443303 | 2.0 | 16.403 | 2 | 42.104 | 16.565 | 32.924 | 2 |
| 2025-06-18T22:23:00 | 53.704095 | 6.443152 | 2.0 | 16.408 | 2 | 42.104 | 16.565 | 32.924 | 2 |
| 2025-06-18T22:24:00 | 53.704046 | 6.443004 | 2.0 | 16.401 | 2 | 42.106 | 16.568 | 32.924 | 2 |
| 2025-06-18T22:25:00 | 53.704011 | 6.442811 | 2.0 | 16.404 | 2 | 42.101 | 16.564 | 32.922 | 2 |
| 2025-06-18T22:26:00 | 53.703962 | 6.442575 | 2.0 | 16.400 | 2 | 42.104 | 16.566 | 32.923 | 2 |
| 2025-06-18T22:27:00 | 53.703938 | 6.442327 | 2.0 | 16.398 | 2 | 42.101 | 16.563 | 32.923 | 2 |
| 2025-06-18T22:28:00 | 53.703936 | 6.442052 | 2.0 | 16.399 | 2 | 42.098 | 16.558 | 32.925 | 2 |
| 2025-06-18T22:29:00 | 53.703938 | 6.441778 | 2.0 | 16.398 | 2 | 42.102 | 16.561 | 32.926 | 2 |
| 2025-06-18T22:30:00 | 53.703927 | 6.441487 | 2.0 | 16.402 | 2 | 42.101 | 16.560 | 32.926 | 2 |
| 2025-06-18T22:31:00 | 53.703930 | 6.441200 | 2.0 | 16.396 | 2 | 42.105 | 16.563 | 32.927 | 2 |
| 2025-06-18T22:32:00 | 53.703940 | 6.440930 | 2.0 | 16.397 | 2 | 42.104 | 16.560 | 32.928 | 2 |
| 2025-06-18T22:33:00 | 53.703944 | 6.440672 | 2.0 | 16.400 | 2 | 42.103 | 16.559 | 32.928 | 2 |
| 2025-06-18T22:34:00 | 53.703959 | 6.440412 | 2.0 | 16.397 | 2 | 42.106 | 16.561 | 32.929 | 2 |
| 2025-06-18T22:35:00 | 53.703984 | 6.440148 | 2.0 | 16.405 | 2 | 42.107 | 16.561 | 32.930 | 2 |
| 2025-06-18T22:36:00 | 53.704021 | 6.439874 | 2.0 | 16.398 | 2 | 42.112 | 16.565 | 32.931 | 2 |
| 2025-06-18T22:37:00 | 53.704064 | 6.439596 | 2.0 | 16.400 | 2 | 42.107 | 16.559 | 32.932 | 2 |
| 2025-06-18T22:38:00 | 53.704105 | 6.439324 | 2.0 | 16.394 | 2 | 42.109 | 16.560 | 32.933 | 2 |
| 2025-06-18T22:39:00 | 53.704138 | 6.439043 | 2.0 | 16.400 | 2 | 42.106 | 16.558 | 32.932 | 2 |
| 2025-06-18T22:40:00 | 53.704182 | 6.438773 | 2.0 | 16.400 | 2 | 42.111 | 16.561 | 32.934 | 2 |
| 2025-06-18T22:41:00 | 53.704203 | 6.438490 | 2.0 | 16.400 | 2 | 42.114 | 16.563 | 32.935 | 2 |
| 2025-06-18T22:42:00 | 53.704213 | 6.438226 | 2.0 | 16.397 | 2 | 42.113 | 16.560 | 32.936 | 2 |
| 2025-06-18T22:43:00 | 53.704239 | 6.437977 | 2.0 | 16.400 | 2 | 42.112 | 16.559 | 32.936 | 2 |
| 2025-06-18T22:44:00 | 53.704272 | 6.437730 | 2.0 | 16.399 | 2 | 42.116 | 16.562 | 32.937 | 2 |
| 2025-06-18T22:45:00 | 53.704329 | 6.437499 | 2.0 | 16.395 | 2 | 42.115 | 16.560 | 32.938 | 2 |
| 2025-06-18T22:46:00 | 53.704375 | 6.437259 | 2.0 | 16.395 | 2 | 42.111 | 16.556 | 32.938 | 2 |
| 2025-06-18T22:47:00 | 53.704444 | 6.437044 | 2.0 | 16.392 | 2 | 42.114 | 16.557 | 32.940 | 2 |
| 2025-06-18T22:48:00 | 53.704490 | 6.436816 | 2.0 | 16.392 | 2 | 42.112 | 16.554 | 32.940 | 2 |
| 2025-06-18T22:49:00 | 53.704570 | 6.436605 | 2.0 | 16.390 | 2 | 42.112 | 16.553 | 32.941 | 2 |
| 2025-06-18T22:50:00 | 53.704637 | 6.436384 | 2.0 | 16.385 | 2 | 42.112 | 16.553 | 32.941 | 2 |
| 2025-06-18T22:51:00 | 53.704699 | 6.436141 | 2.0 | 16.385 | 2 | 42.108 | 16.548 | 32.942 | 2 |
| 2025-06-18T22:52:00 | 53.704780 | 6.435926 | 2.0 | 16.388 | 2 | 42.109 | 16.548 | 32.943 | 2 |
| 2025-06-18T22:53:00 | 53.704832 | 6.435695 | 2.0 | 16.390 | 2 | 42.111 | 16.550 | 32.943 | 2 |
| 2025-06-18T22:54:00 | 53.704903 | 6.435487 | 2.0 | 16.392 | 2 | 42.113 | 16.551 | 32.944 | 2 |
| 2025-06-18T22:55:00 | 53.704942 | 6.435265 | 2.0 | 16.387 | 2 | 42.115 | 16.553 | 32.944 | 2 |
| 2025-06-18T22:56:00 | 53.705007 | 6.435076 | 2.0 | 16.392 | 2 | 42.113 | 16.550 | 32.944 | 2 |
| 2025-06-18T22:57:00 | 53.705074 | 6.434906 | 2.0 | 16.389 | 2 | 42.116 | 16.554 | 32.944 | 2 |
| 2025-06-18T22:58:00 | 53.705100 | 6.434817 | 2.0 | 16.391 | 2 | 42.115 | 16.551 | 32.945 | 2 |
Only the first 2000 rows were shown. To view the complete dataset, download it as tab-delimited text. You can still view the full matrix in your browser, but be aware that this may crash the browser due to the huge size.
